<?xml version="1.0" encoding="UTF-8" standalone="no" ?>
<gpx xmlns="http://www.topografix.com/GPX/1/1" xmlns:xsi="http://www.w3.org/2001/XMLSchema-instance" xsi:schemaLocation="http://www.topografix.com/GPX/1/1 http://www.topografix.com/GPX/1/1/gpx.xsd" version="1.1" creator="VisuGPX - https://www.visugpx.com">
  <metadata>
    <name>Maredsous-Gps2-26km-580hm</name>
  </metadata>
  <trk>
    <name><![CDATA[Maredsous-Gps2-26km-580hm]]></name>
    <trkseg>
      <trkpt lat="50.2979" lon="4.7629">
        <ele>238.658</ele>
        <time>2015-12-13T08:41:34Z</time>
      </trkpt>
      <trkpt lat="50.2979" lon="4.7629">
        <ele>238.658</ele>
        <time>2015-12-13T08:41:34Z</time>
      </trkpt>
      <trkpt lat="50.29764" lon="4.76249">
        <ele>238.456</ele>
        <time>2015-12-13T08:41:44Z</time>
      </trkpt>
      <trkpt lat="50.29724" lon="4.76183">
        <ele>237</ele>
        <time>2015-12-13T08:41:58Z</time>
      </trkpt>
      <trkpt lat="50.2972" lon="4.76162">
        <ele>237.095</ele>
        <time>2015-12-13T08:42:02Z</time>
      </trkpt>
      <trkpt lat="50.29739" lon="4.76103">
        <ele>238.572</ele>
        <time>2015-12-13T08:42:14Z</time>
      </trkpt>
      <trkpt lat="50.29764" lon="4.76037">
        <ele>239.164</ele>
        <time>2015-12-13T08:42:26Z</time>
      </trkpt>
      <trkpt lat="50.29798" lon="4.75956">
        <ele>240.16</ele>
        <time>2015-12-13T08:42:40Z</time>
      </trkpt>
      <trkpt lat="50.29808" lon="4.75906">
        <ele>240.693</ele>
        <time>2015-12-13T08:42:50Z</time>
      </trkpt>
      <trkpt lat="50.29807" lon="4.75885">
        <ele>240.625</ele>
        <time>2015-12-13T08:42:53Z</time>
      </trkpt>
      <trkpt lat="50.29795" lon="4.75823">
        <ele>237.905</ele>
        <time>2015-12-13T08:43:01Z</time>
      </trkpt>
      <trkpt lat="50.29797" lon="4.75776">
        <ele>231.11</ele>
        <time>2015-12-13T08:43:08Z</time>
      </trkpt>
      <trkpt lat="50.29801" lon="4.75772">
        <ele>230.189</ele>
        <time>2015-12-13T08:43:09Z</time>
      </trkpt>
      <trkpt lat="50.29804" lon="4.75769">
        <ele>229.327</ele>
        <time>2015-12-13T08:43:10Z</time>
      </trkpt>
      <trkpt lat="50.29811" lon="4.75762">
        <ele>228.384</ele>
        <time>2015-12-13T08:43:12Z</time>
      </trkpt>
      <trkpt lat="50.29813" lon="4.75756">
        <ele>228.064</ele>
        <time>2015-12-13T08:43:13Z</time>
      </trkpt>
      <trkpt lat="50.29814" lon="4.75748">
        <ele>227.811</ele>
        <time>2015-12-13T08:43:14Z</time>
      </trkpt>
      <trkpt lat="50.29814" lon="4.7574">
        <ele>227.633</ele>
        <time>2015-12-13T08:43:15Z</time>
      </trkpt>
      <trkpt lat="50.29814" lon="4.75732">
        <ele>227.445</ele>
        <time>2015-12-13T08:43:16Z</time>
      </trkpt>
      <trkpt lat="50.29812" lon="4.75676">
        <ele>224.847</ele>
        <time>2015-12-13T08:43:23Z</time>
      </trkpt>
      <trkpt lat="50.29812" lon="4.75668">
        <ele>224.688</ele>
        <time>2015-12-13T08:43:24Z</time>
      </trkpt>
      <trkpt lat="50.29811" lon="4.75652">
        <ele>224.965</ele>
        <time>2015-12-13T08:43:26Z</time>
      </trkpt>
      <trkpt lat="50.2981" lon="4.75645">
        <ele>225.144</ele>
        <time>2015-12-13T08:43:27Z</time>
      </trkpt>
      <trkpt lat="50.2981" lon="4.75638">
        <ele>225.254</ele>
        <time>2015-12-13T08:43:28Z</time>
      </trkpt>
      <trkpt lat="50.2981" lon="4.75631">
        <ele>225.272</ele>
        <time>2015-12-13T08:43:29Z</time>
      </trkpt>
      <trkpt lat="50.29809" lon="4.75624">
        <ele>225.29</ele>
        <time>2015-12-13T08:43:30Z</time>
      </trkpt>
      <trkpt lat="50.29809" lon="4.75617">
        <ele>225.38</ele>
        <time>2015-12-13T08:43:31Z</time>
      </trkpt>
      <trkpt lat="50.29807" lon="4.75603">
        <ele>225.494</ele>
        <time>2015-12-13T08:43:33Z</time>
      </trkpt>
      <trkpt lat="50.29805" lon="4.75596">
        <ele>225.486</ele>
        <time>2015-12-13T08:43:34Z</time>
      </trkpt>
      <trkpt lat="50.29793" lon="4.75534">
        <ele>225.338</ele>
        <time>2015-12-13T08:43:43Z</time>
      </trkpt>
      <trkpt lat="50.29789" lon="4.7552">
        <ele>225.709</ele>
        <time>2015-12-13T08:43:45Z</time>
      </trkpt>
      <trkpt lat="50.29782" lon="4.755">
        <ele>226.193</ele>
        <time>2015-12-13T08:43:48Z</time>
      </trkpt>
      <trkpt lat="50.29777" lon="4.75489">
        <ele>227.039</ele>
        <time>2015-12-13T08:43:50Z</time>
      </trkpt>
      <trkpt lat="50.29774" lon="4.75484">
        <ele>227.244</ele>
        <time>2015-12-13T08:43:51Z</time>
      </trkpt>
      <trkpt lat="50.29771" lon="4.75479">
        <ele>227.482</ele>
        <time>2015-12-13T08:43:52Z</time>
      </trkpt>
      <trkpt lat="50.29767" lon="4.75474">
        <ele>227.633</ele>
        <time>2015-12-13T08:43:53Z</time>
      </trkpt>
      <trkpt lat="50.29764" lon="4.7547">
        <ele>227.712</ele>
        <time>2015-12-13T08:43:54Z</time>
      </trkpt>
      <trkpt lat="50.2976" lon="4.75465">
        <ele>227.748</ele>
        <time>2015-12-13T08:43:55Z</time>
      </trkpt>
      <trkpt lat="50.29748" lon="4.75453">
        <ele>227.9</ele>
        <time>2015-12-13T08:43:58Z</time>
      </trkpt>
      <trkpt lat="50.29744" lon="4.7545">
        <ele>227.9</ele>
        <time>2015-12-13T08:43:59Z</time>
      </trkpt>
      <trkpt lat="50.29735" lon="4.75446">
        <ele>227.745</ele>
        <time>2015-12-13T08:44:01Z</time>
      </trkpt>
      <trkpt lat="50.2973" lon="4.75444">
        <ele>227.576</ele>
        <time>2015-12-13T08:44:02Z</time>
      </trkpt>
      <trkpt lat="50.29726" lon="4.75443">
        <ele>227.342</ele>
        <time>2015-12-13T08:44:03Z</time>
      </trkpt>
      <trkpt lat="50.29722" lon="4.75442">
        <ele>227.09</ele>
        <time>2015-12-13T08:44:04Z</time>
      </trkpt>
      <trkpt lat="50.29718" lon="4.75441">
        <ele>226.73</ele>
        <time>2015-12-13T08:44:05Z</time>
      </trkpt>
      <trkpt lat="50.29714" lon="4.75441">
        <ele>226.347</ele>
        <time>2015-12-13T08:44:06Z</time>
      </trkpt>
      <trkpt lat="50.29691" lon="4.75436">
        <ele>224.004</ele>
        <time>2015-12-13T08:44:11Z</time>
      </trkpt>
      <trkpt lat="50.29675" lon="4.75436">
        <ele>223.886</ele>
        <time>2015-12-13T08:44:14Z</time>
      </trkpt>
      <trkpt lat="50.2967" lon="4.75438">
        <ele>224.069</ele>
        <time>2015-12-13T08:44:15Z</time>
      </trkpt>
      <trkpt lat="50.29647" lon="4.75449">
        <ele>224.262</ele>
        <time>2015-12-13T08:44:20Z</time>
      </trkpt>
      <trkpt lat="50.29619" lon="4.75473">
        <ele>221.244</ele>
        <time>2015-12-13T08:44:28Z</time>
      </trkpt>
      <trkpt lat="50.29596" lon="4.75471">
        <ele>217.695</ele>
        <time>2015-12-13T08:44:39Z</time>
      </trkpt>
      <trkpt lat="50.29591" lon="4.75461">
        <ele>216.214</ele>
        <time>2015-12-13T08:44:44Z</time>
      </trkpt>
      <trkpt lat="50.29588" lon="4.7545">
        <ele>214.911</ele>
        <time>2015-12-13T08:44:48Z</time>
      </trkpt>
      <trkpt lat="50.29589" lon="4.75429">
        <ele>211.807</ele>
        <time>2015-12-13T08:44:57Z</time>
      </trkpt>
      <trkpt lat="50.2959" lon="4.75426">
        <ele>211.368</ele>
        <time>2015-12-13T08:44:58Z</time>
      </trkpt>
      <trkpt lat="50.2959" lon="4.75423">
        <ele>210.788</ele>
        <time>2015-12-13T08:44:59Z</time>
      </trkpt>
      <trkpt lat="50.29591" lon="4.7542">
        <ele>210.284</ele>
        <time>2015-12-13T08:45:00Z</time>
      </trkpt>
      <trkpt lat="50.29591" lon="4.75417">
        <ele>209.928</ele>
        <time>2015-12-13T08:45:01Z</time>
      </trkpt>
      <trkpt lat="50.29592" lon="4.75415">
        <ele>209.646</ele>
        <time>2015-12-13T08:45:02Z</time>
      </trkpt>
      <trkpt lat="50.29592" lon="4.75412">
        <ele>209.304</ele>
        <time>2015-12-13T08:45:03Z</time>
      </trkpt>
      <trkpt lat="50.29593" lon="4.7541">
        <ele>209.008</ele>
        <time>2015-12-13T08:45:04Z</time>
      </trkpt>
      <trkpt lat="50.29598" lon="4.75396">
        <ele>207.554</ele>
        <time>2015-12-13T08:45:11Z</time>
      </trkpt>
      <trkpt lat="50.29599" lon="4.75394">
        <ele>207.392</ele>
        <time>2015-12-13T08:45:12Z</time>
      </trkpt>
      <trkpt lat="50.296" lon="4.75392">
        <ele>207.241</ele>
        <time>2015-12-13T08:45:13Z</time>
      </trkpt>
      <trkpt lat="50.29603" lon="4.75382">
        <ele>206.136</ele>
        <time>2015-12-13T08:45:18Z</time>
      </trkpt>
      <trkpt lat="50.29603" lon="4.7538">
        <ele>205.827</ele>
        <time>2015-12-13T08:45:19Z</time>
      </trkpt>
      <trkpt lat="50.29603" lon="4.75377">
        <ele>205.348</ele>
        <time>2015-12-13T08:45:20Z</time>
      </trkpt>
      <trkpt lat="50.29602" lon="4.75375">
        <ele>205.048</ele>
        <time>2015-12-13T08:45:21Z</time>
      </trkpt>
      <trkpt lat="50.296" lon="4.75376">
        <ele>205.09</ele>
        <time>2015-12-13T08:45:30Z</time>
      </trkpt>
      <trkpt lat="50.296" lon="4.75378">
        <ele>205.263</ele>
        <time>2015-12-13T08:45:31Z</time>
      </trkpt>
      <trkpt lat="50.29595" lon="4.75383">
        <ele>205.517</ele>
        <time>2015-12-13T08:45:41Z</time>
      </trkpt>
      <trkpt lat="50.29593" lon="4.75384">
        <ele>205.471</ele>
        <time>2015-12-13T08:45:42Z</time>
      </trkpt>
      <trkpt lat="50.29591" lon="4.75384">
        <ele>205.347</ele>
        <time>2015-12-13T08:45:43Z</time>
      </trkpt>
      <trkpt lat="50.29589" lon="4.75383">
        <ele>205.12</ele>
        <time>2015-12-13T08:45:44Z</time>
      </trkpt>
      <trkpt lat="50.29588" lon="4.75384">
        <ele>204.992</ele>
        <time>2015-12-13T08:45:45Z</time>
      </trkpt>
      <trkpt lat="50.29585" lon="4.75384">
        <ele>204.864</ele>
        <time>2015-12-13T08:45:46Z</time>
      </trkpt>
      <trkpt lat="50.29582" lon="4.75383">
        <ele>204.569</ele>
        <time>2015-12-13T08:45:47Z</time>
      </trkpt>
      <trkpt lat="50.29579" lon="4.75383">
        <ele>204.583</ele>
        <time>2015-12-13T08:45:48Z</time>
      </trkpt>
      <trkpt lat="50.29576" lon="4.75384">
        <ele>204.612</ele>
        <time>2015-12-13T08:45:49Z</time>
      </trkpt>
      <trkpt lat="50.29574" lon="4.75383">
        <ele>204.583</ele>
        <time>2015-12-13T08:45:50Z</time>
      </trkpt>
      <trkpt lat="50.29571" lon="4.75383">
        <ele>204.554</ele>
        <time>2015-12-13T08:45:51Z</time>
      </trkpt>
      <trkpt lat="50.29568" lon="4.75382">
        <ele>204.49</ele>
        <time>2015-12-13T08:45:52Z</time>
      </trkpt>
      <trkpt lat="50.29564" lon="4.75381">
        <ele>204.396</ele>
        <time>2015-12-13T08:45:53Z</time>
      </trkpt>
      <trkpt lat="50.29529" lon="4.75373">
        <ele>204.402</ele>
        <time>2015-12-13T08:46:03Z</time>
      </trkpt>
      <trkpt lat="50.29482" lon="4.75354">
        <ele>208</ele>
        <time>2015-12-13T08:46:18Z</time>
      </trkpt>
      <trkpt lat="50.29451" lon="4.75302">
        <ele>210.772</ele>
        <time>2015-12-13T08:46:31Z</time>
      </trkpt>
      <trkpt lat="50.29446" lon="4.75295">
        <ele>210.93</ele>
        <time>2015-12-13T08:46:33Z</time>
      </trkpt>
      <trkpt lat="50.29428" lon="4.75262">
        <ele>213.283</ele>
        <time>2015-12-13T08:46:42Z</time>
      </trkpt>
      <trkpt lat="50.29399" lon="4.75269">
        <ele>211.926</ele>
        <time>2015-12-13T08:46:51Z</time>
      </trkpt>
      <trkpt lat="50.29361" lon="4.75279">
        <ele>213.001</ele>
        <time>2015-12-13T08:47:05Z</time>
      </trkpt>
      <trkpt lat="50.29359" lon="4.75278">
        <ele>213.23</ele>
        <time>2015-12-13T08:47:06Z</time>
      </trkpt>
      <trkpt lat="50.29357" lon="4.75276">
        <ele>213.576</ele>
        <time>2015-12-13T08:47:07Z</time>
      </trkpt>
      <trkpt lat="50.29356" lon="4.75272">
        <ele>213.946</ele>
        <time>2015-12-13T08:47:08Z</time>
      </trkpt>
      <trkpt lat="50.29355" lon="4.75268">
        <ele>214.292</ele>
        <time>2015-12-13T08:47:09Z</time>
      </trkpt>
      <trkpt lat="50.29355" lon="4.75264">
        <ele>214.648</ele>
        <time>2015-12-13T08:47:10Z</time>
      </trkpt>
      <trkpt lat="50.29354" lon="4.75261">
        <ele>215.008</ele>
        <time>2015-12-13T08:47:11Z</time>
      </trkpt>
      <trkpt lat="50.29353" lon="4.75257">
        <ele>215.361</ele>
        <time>2015-12-13T08:47:12Z</time>
      </trkpt>
      <trkpt lat="50.29352" lon="4.75254">
        <ele>215.66</ele>
        <time>2015-12-13T08:47:13Z</time>
      </trkpt>
      <trkpt lat="50.29352" lon="4.75251">
        <ele>215.912</ele>
        <time>2015-12-13T08:47:14Z</time>
      </trkpt>
      <trkpt lat="50.29352" lon="4.75248">
        <ele>216.153</ele>
        <time>2015-12-13T08:47:15Z</time>
      </trkpt>
      <trkpt lat="50.29352" lon="4.75245">
        <ele>216.373</ele>
        <time>2015-12-13T08:47:16Z</time>
      </trkpt>
      <trkpt lat="50.29352" lon="4.75242">
        <ele>216.61</ele>
        <time>2015-12-13T08:47:17Z</time>
      </trkpt>
      <trkpt lat="50.29351" lon="4.75239">
        <ele>216.855</ele>
        <time>2015-12-13T08:47:18Z</time>
      </trkpt>
      <trkpt lat="50.29351" lon="4.75236">
        <ele>217.053</ele>
        <time>2015-12-13T08:47:19Z</time>
      </trkpt>
      <trkpt lat="50.29351" lon="4.75234">
        <ele>217.23</ele>
        <time>2015-12-13T08:47:20Z</time>
      </trkpt>
      <trkpt lat="50.29351" lon="4.75231">
        <ele>217.467</ele>
        <time>2015-12-13T08:47:21Z</time>
      </trkpt>
      <trkpt lat="50.29351" lon="4.75228">
        <ele>217.694</ele>
        <time>2015-12-13T08:47:22Z</time>
      </trkpt>
      <trkpt lat="50.2935" lon="4.75226">
        <ele>217.917</ele>
        <time>2015-12-13T08:47:23Z</time>
      </trkpt>
      <trkpt lat="50.2935" lon="4.75223">
        <ele>218.112</ele>
        <time>2015-12-13T08:47:24Z</time>
      </trkpt>
      <trkpt lat="50.2935" lon="4.75218">
        <ele>218.628</ele>
        <time>2015-12-13T08:47:26Z</time>
      </trkpt>
      <trkpt lat="50.29344" lon="4.75186">
        <ele>222.271</ele>
        <time>2015-12-13T08:47:39Z</time>
      </trkpt>
      <trkpt lat="50.29342" lon="4.75175">
        <ele>223.527</ele>
        <time>2015-12-13T08:47:43Z</time>
      </trkpt>
      <trkpt lat="50.29341" lon="4.75171">
        <ele>224.172</ele>
        <time>2015-12-13T08:47:45Z</time>
      </trkpt>
      <trkpt lat="50.29341" lon="4.75168">
        <ele>224.513</ele>
        <time>2015-12-13T08:47:46Z</time>
      </trkpt>
      <trkpt lat="50.29339" lon="4.75149">
        <ele>225.791</ele>
        <time>2015-12-13T08:47:54Z</time>
      </trkpt>
      <trkpt lat="50.29338" lon="4.75148">
        <ele>225.962</ele>
        <time>2015-12-13T08:47:55Z</time>
      </trkpt>
      <trkpt lat="50.29338" lon="4.75145">
        <ele>226.074</ele>
        <time>2015-12-13T08:47:56Z</time>
      </trkpt>
      <trkpt lat="50.29338" lon="4.75143">
        <ele>226.192</ele>
        <time>2015-12-13T08:47:57Z</time>
      </trkpt>
      <trkpt lat="50.29337" lon="4.75141">
        <ele>226.344</ele>
        <time>2015-12-13T08:47:58Z</time>
      </trkpt>
      <trkpt lat="50.29337" lon="4.75139">
        <ele>226.484</ele>
        <time>2015-12-13T08:47:59Z</time>
      </trkpt>
      <trkpt lat="50.29336" lon="4.75137">
        <ele>226.619</ele>
        <time>2015-12-13T08:48:00Z</time>
      </trkpt>
      <trkpt lat="50.29336" lon="4.75135">
        <ele>226.749</ele>
        <time>2015-12-13T08:48:01Z</time>
      </trkpt>
      <trkpt lat="50.29334" lon="4.75124">
        <ele>227.397</ele>
        <time>2015-12-13T08:48:06Z</time>
      </trkpt>
      <trkpt lat="50.29333" lon="4.7512">
        <ele>227.71</ele>
        <time>2015-12-13T08:48:08Z</time>
      </trkpt>
      <trkpt lat="50.29333" lon="4.75118">
        <ele>227.843</ele>
        <time>2015-12-13T08:48:09Z</time>
      </trkpt>
      <trkpt lat="50.29332" lon="4.75116">
        <ele>228.034</ele>
        <time>2015-12-13T08:48:10Z</time>
      </trkpt>
      <trkpt lat="50.29332" lon="4.75114">
        <ele>228.184</ele>
        <time>2015-12-13T08:48:11Z</time>
      </trkpt>
      <trkpt lat="50.29332" lon="4.75112">
        <ele>228.307</ele>
        <time>2015-12-13T08:48:12Z</time>
      </trkpt>
      <trkpt lat="50.29331" lon="4.7511">
        <ele>228.402</ele>
        <time>2015-12-13T08:48:13Z</time>
      </trkpt>
      <trkpt lat="50.29331" lon="4.75108">
        <ele>228.543</ele>
        <time>2015-12-13T08:48:14Z</time>
      </trkpt>
      <trkpt lat="50.29331" lon="4.75106">
        <ele>228.687</ele>
        <time>2015-12-13T08:48:15Z</time>
      </trkpt>
      <trkpt lat="50.29326" lon="4.75077">
        <ele>230.602</ele>
        <time>2015-12-13T08:48:28Z</time>
      </trkpt>
      <trkpt lat="50.29314" lon="4.75051">
        <ele>233.552</ele>
        <time>2015-12-13T08:48:41Z</time>
      </trkpt>
      <trkpt lat="50.29311" lon="4.75051">
        <ele>234.02</ele>
        <time>2015-12-13T08:48:43Z</time>
      </trkpt>
      <trkpt lat="50.2931" lon="4.75051">
        <ele>234.272</ele>
        <time>2015-12-13T08:48:44Z</time>
      </trkpt>
      <trkpt lat="50.29308" lon="4.75052">
        <ele>234.524</ele>
        <time>2015-12-13T08:48:45Z</time>
      </trkpt>
      <trkpt lat="50.29307" lon="4.75053">
        <ele>234.758</ele>
        <time>2015-12-13T08:48:46Z</time>
      </trkpt>
      <trkpt lat="50.29306" lon="4.75053">
        <ele>234.884</ele>
        <time>2015-12-13T08:49:02Z</time>
      </trkpt>
      <trkpt lat="50.29292" lon="4.75054">
        <ele>236.504</ele>
        <time>2015-12-13T08:49:13Z</time>
      </trkpt>
      <trkpt lat="50.2927" lon="4.75056">
        <ele>238.543</ele>
        <time>2015-12-13T08:49:27Z</time>
      </trkpt>
      <trkpt lat="50.29245" lon="4.75059">
        <ele>240.373</ele>
        <time>2015-12-13T08:49:43Z</time>
      </trkpt>
      <trkpt lat="50.29217" lon="4.75063">
        <ele>243.086</ele>
        <time>2015-12-13T08:49:59Z</time>
      </trkpt>
      <trkpt lat="50.29198" lon="4.75058">
        <ele>244.66</ele>
        <time>2015-12-13T08:50:13Z</time>
      </trkpt>
      <trkpt lat="50.29198" lon="4.75055">
        <ele>244.767</ele>
        <time>2015-12-13T08:50:15Z</time>
      </trkpt>
      <trkpt lat="50.29198" lon="4.75053">
        <ele>244.88</ele>
        <time>2015-12-13T08:50:16Z</time>
      </trkpt>
      <trkpt lat="50.29198" lon="4.7505">
        <ele>245.099</ele>
        <time>2015-12-13T08:50:17Z</time>
      </trkpt>
      <trkpt lat="50.29198" lon="4.75047">
        <ele>245.355</ele>
        <time>2015-12-13T08:50:18Z</time>
      </trkpt>
      <trkpt lat="50.29197" lon="4.75044">
        <ele>245.613</ele>
        <time>2015-12-13T08:50:19Z</time>
      </trkpt>
      <trkpt lat="50.29192" lon="4.74994">
        <ele>249.395</ele>
        <time>2015-12-13T08:50:34Z</time>
      </trkpt>
      <trkpt lat="50.29191" lon="4.74989">
        <ele>249.638</ele>
        <time>2015-12-13T08:50:36Z</time>
      </trkpt>
      <trkpt lat="50.29191" lon="4.74986">
        <ele>249.815</ele>
        <time>2015-12-13T08:50:37Z</time>
      </trkpt>
      <trkpt lat="50.29191" lon="4.74983">
        <ele>249.956</ele>
        <time>2015-12-13T08:50:38Z</time>
      </trkpt>
      <trkpt lat="50.2919" lon="4.7498">
        <ele>250.116</ele>
        <time>2015-12-13T08:50:39Z</time>
      </trkpt>
      <trkpt lat="50.2919" lon="4.74977">
        <ele>250.313</ele>
        <time>2015-12-13T08:50:40Z</time>
      </trkpt>
      <trkpt lat="50.29187" lon="4.74951">
        <ele>251.557</ele>
        <time>2015-12-13T08:50:49Z</time>
      </trkpt>
      <trkpt lat="50.29188" lon="4.74949">
        <ele>251.6</ele>
        <time>2015-12-13T08:50:50Z</time>
      </trkpt>
      <trkpt lat="50.29188" lon="4.74946">
        <ele>251.698</ele>
        <time>2015-12-13T08:50:51Z</time>
      </trkpt>
      <trkpt lat="50.29188" lon="4.74943">
        <ele>251.829</ele>
        <time>2015-12-13T08:50:52Z</time>
      </trkpt>
      <trkpt lat="50.29188" lon="4.74939">
        <ele>251.954</ele>
        <time>2015-12-13T08:50:53Z</time>
      </trkpt>
      <trkpt lat="50.29186" lon="4.749">
        <ele>253.646</ele>
        <time>2015-12-13T08:51:05Z</time>
      </trkpt>
      <trkpt lat="50.29185" lon="4.74881">
        <ele>253.566</ele>
        <time>2015-12-13T08:51:10Z</time>
      </trkpt>
      <trkpt lat="50.2918" lon="4.74826">
        <ele>250.664</ele>
        <time>2015-12-13T08:51:25Z</time>
      </trkpt>
      <trkpt lat="50.29179" lon="4.74818">
        <ele>250.261</ele>
        <time>2015-12-13T08:51:27Z</time>
      </trkpt>
      <trkpt lat="50.29174" lon="4.74756">
        <ele>248.664</ele>
        <time>2015-12-13T08:51:42Z</time>
      </trkpt>
      <trkpt lat="50.2917" lon="4.74701">
        <ele>250.295</ele>
        <time>2015-12-13T08:51:55Z</time>
      </trkpt>
      <trkpt lat="50.29166" lon="4.74646">
        <ele>251.781</ele>
        <time>2015-12-13T08:52:09Z</time>
      </trkpt>
      <trkpt lat="50.29164" lon="4.74607">
        <ele>253.23</ele>
        <time>2015-12-13T08:52:19Z</time>
      </trkpt>
      <trkpt lat="50.29157" lon="4.74553">
        <ele>254.667</ele>
        <time>2015-12-13T08:52:34Z</time>
      </trkpt>
      <trkpt lat="50.29155" lon="4.74547">
        <ele>254.84</ele>
        <time>2015-12-13T08:52:36Z</time>
      </trkpt>
      <trkpt lat="50.29153" lon="4.74545">
        <ele>254.998</ele>
        <time>2015-12-13T08:52:37Z</time>
      </trkpt>
      <trkpt lat="50.29134" lon="4.74543">
        <ele>256.453</ele>
        <time>2015-12-13T08:52:44Z</time>
      </trkpt>
      <trkpt lat="50.29097" lon="4.74546">
        <ele>259.836</ele>
        <time>2015-12-13T08:52:56Z</time>
      </trkpt>
      <trkpt lat="50.29068" lon="4.74555">
        <ele>265.384</ele>
        <time>2015-12-13T08:53:08Z</time>
      </trkpt>
      <trkpt lat="50.29038" lon="4.74566">
        <ele>273.157</ele>
        <time>2015-12-13T08:53:21Z</time>
      </trkpt>
      <trkpt lat="50.29005" lon="4.74571">
        <ele>277.589</ele>
        <time>2015-12-13T08:53:34Z</time>
      </trkpt>
      <trkpt lat="50.28986" lon="4.74575">
        <ele>278.979</ele>
        <time>2015-12-13T08:53:42Z</time>
      </trkpt>
      <trkpt lat="50.28962" lon="4.7458">
        <ele>280.042</ele>
        <time>2015-12-13T08:53:51Z</time>
      </trkpt>
      <trkpt lat="50.28933" lon="4.74589">
        <ele>280.109</ele>
        <time>2015-12-13T08:54:04Z</time>
      </trkpt>
      <trkpt lat="50.28931" lon="4.74583">
        <ele>280.492</ele>
        <time>2015-12-13T08:54:10Z</time>
      </trkpt>
      <trkpt lat="50.28931" lon="4.74581">
        <ele>280.568</ele>
        <time>2015-12-13T08:54:11Z</time>
      </trkpt>
      <trkpt lat="50.28931" lon="4.74579">
        <ele>280.611</ele>
        <time>2015-12-13T08:54:12Z</time>
      </trkpt>
      <trkpt lat="50.28931" lon="4.74577">
        <ele>280.705</ele>
        <time>2015-12-13T08:54:13Z</time>
      </trkpt>
      <trkpt lat="50.28931" lon="4.74574">
        <ele>280.798</ele>
        <time>2015-12-13T08:54:14Z</time>
      </trkpt>
      <trkpt lat="50.2893" lon="4.74565">
        <ele>281.173</ele>
        <time>2015-12-13T08:54:17Z</time>
      </trkpt>
      <trkpt lat="50.28929" lon="4.74563">
        <ele>281.284</ele>
        <time>2015-12-13T08:54:18Z</time>
      </trkpt>
      <trkpt lat="50.28923" lon="4.74532">
        <ele>282.62</ele>
        <time>2015-12-13T08:54:27Z</time>
      </trkpt>
      <trkpt lat="50.28923" lon="4.74529">
        <ele>282.739</ele>
        <time>2015-12-13T08:54:28Z</time>
      </trkpt>
      <trkpt lat="50.28922" lon="4.7448">
        <ele>281.498</ele>
        <time>2015-12-13T08:54:40Z</time>
      </trkpt>
      <trkpt lat="50.28919" lon="4.74425">
        <ele>276.347</ele>
        <time>2015-12-13T08:54:50Z</time>
      </trkpt>
      <trkpt lat="50.28919" lon="4.74401">
        <ele>273.496</ele>
        <time>2015-12-13T08:54:54Z</time>
      </trkpt>
      <trkpt lat="50.2891" lon="4.74343">
        <ele>268.09</ele>
        <time>2015-12-13T08:55:05Z</time>
      </trkpt>
      <trkpt lat="50.28909" lon="4.7433">
        <ele>266.982</ele>
        <time>2015-12-13T08:55:07Z</time>
      </trkpt>
      <trkpt lat="50.28908" lon="4.74323">
        <ele>266.483</ele>
        <time>2015-12-13T08:55:08Z</time>
      </trkpt>
      <trkpt lat="50.28908" lon="4.74317">
        <ele>266.042</ele>
        <time>2015-12-13T08:55:09Z</time>
      </trkpt>
      <trkpt lat="50.28907" lon="4.74311">
        <ele>265.628</ele>
        <time>2015-12-13T08:55:10Z</time>
      </trkpt>
      <trkpt lat="50.28907" lon="4.74305">
        <ele>265.281</ele>
        <time>2015-12-13T08:55:11Z</time>
      </trkpt>
      <trkpt lat="50.28906" lon="4.743">
        <ele>265.132</ele>
        <time>2015-12-13T08:55:12Z</time>
      </trkpt>
      <trkpt lat="50.28902" lon="4.74223">
        <ele>260.049</ele>
        <time>2015-12-13T08:55:26Z</time>
      </trkpt>
      <trkpt lat="50.28898" lon="4.74161">
        <ele>253.152</ele>
        <time>2015-12-13T08:55:36Z</time>
      </trkpt>
      <trkpt lat="50.28892" lon="4.74097">
        <ele>250.815</ele>
        <time>2015-12-13T08:55:46Z</time>
      </trkpt>
      <trkpt lat="50.28887" lon="4.74055">
        <ele>253.231</ele>
        <time>2015-12-13T08:55:52Z</time>
      </trkpt>
      <trkpt lat="50.28879" lon="4.74012">
        <ele>256.3</ele>
        <time>2015-12-13T08:56:00Z</time>
      </trkpt>
      <trkpt lat="50.2888" lon="4.74008">
        <ele>256.501</ele>
        <time>2015-12-13T08:56:01Z</time>
      </trkpt>
      <trkpt lat="50.2888" lon="4.74005">
        <ele>256.71</ele>
        <time>2015-12-13T08:56:02Z</time>
      </trkpt>
      <trkpt lat="50.2888" lon="4.74001">
        <ele>256.94</ele>
        <time>2015-12-13T08:56:03Z</time>
      </trkpt>
      <trkpt lat="50.28877" lon="4.73985">
        <ele>256.456</ele>
        <time>2015-12-13T08:56:12Z</time>
      </trkpt>
      <trkpt lat="50.28878" lon="4.73971">
        <ele>256</ele>
        <time>2015-12-13T08:56:23Z</time>
      </trkpt>
      <trkpt lat="50.28875" lon="4.73962">
        <ele>256</ele>
        <time>2015-12-13T08:56:33Z</time>
      </trkpt>
      <trkpt lat="50.28875" lon="4.73951">
        <ele>256</ele>
        <time>2015-12-13T08:56:55Z</time>
      </trkpt>
      <trkpt lat="50.28874" lon="4.73944">
        <ele>255.988</ele>
        <time>2015-12-13T08:56:57Z</time>
      </trkpt>
      <trkpt lat="50.28873" lon="4.73923">
        <ele>255.224</ele>
        <time>2015-12-13T08:57:03Z</time>
      </trkpt>
      <trkpt lat="50.28894" lon="4.73886">
        <ele>253.319</ele>
        <time>2015-12-13T08:57:14Z</time>
      </trkpt>
      <trkpt lat="50.28897" lon="4.73879">
        <ele>252.474</ele>
        <time>2015-12-13T08:57:16Z</time>
      </trkpt>
      <trkpt lat="50.28899" lon="4.73876">
        <ele>252.064</ele>
        <time>2015-12-13T08:57:17Z</time>
      </trkpt>
      <trkpt lat="50.28901" lon="4.73874">
        <ele>251.721</ele>
        <time>2015-12-13T08:57:18Z</time>
      </trkpt>
      <trkpt lat="50.28903" lon="4.73872">
        <ele>251.462</ele>
        <time>2015-12-13T08:57:19Z</time>
      </trkpt>
      <trkpt lat="50.28906" lon="4.7387">
        <ele>251.192</ele>
        <time>2015-12-13T08:57:20Z</time>
      </trkpt>
      <trkpt lat="50.28908" lon="4.73868">
        <ele>250.903</ele>
        <time>2015-12-13T08:57:21Z</time>
      </trkpt>
      <trkpt lat="50.2891" lon="4.73866">
        <ele>250.649</ele>
        <time>2015-12-13T08:57:22Z</time>
      </trkpt>
      <trkpt lat="50.28939" lon="4.7383">
        <ele>247.05</ele>
        <time>2015-12-13T08:57:34Z</time>
      </trkpt>
      <trkpt lat="50.28945" lon="4.73819">
        <ele>246.457</ele>
        <time>2015-12-13T08:57:45Z</time>
      </trkpt>
      <trkpt lat="50.28957" lon="4.738">
        <ele>244.982</ele>
        <time>2015-12-13T08:58:01Z</time>
      </trkpt>
      <trkpt lat="50.28981" lon="4.73741">
        <ele>243</ele>
        <time>2015-12-13T08:58:12Z</time>
      </trkpt>
      <trkpt lat="50.28983" lon="4.73735">
        <ele>243</ele>
        <time>2015-12-13T08:58:13Z</time>
      </trkpt>
      <trkpt lat="50.28997" lon="4.73702">
        <ele>241.655</ele>
        <time>2015-12-13T08:58:18Z</time>
      </trkpt>
      <trkpt lat="50.29017" lon="4.73608">
        <ele>235.566</ele>
        <time>2015-12-13T08:58:31Z</time>
      </trkpt>
      <trkpt lat="50.29021" lon="4.73555">
        <ele>232.504</ele>
        <time>2015-12-13T08:58:38Z</time>
      </trkpt>
      <trkpt lat="50.29022" lon="4.73535">
        <ele>233.149</ele>
        <time>2015-12-13T08:58:41Z</time>
      </trkpt>
      <trkpt lat="50.29028" lon="4.73461">
        <ele>234.426</ele>
        <time>2015-12-13T08:58:55Z</time>
      </trkpt>
      <trkpt lat="50.29028" lon="4.73453">
        <ele>234.616</ele>
        <time>2015-12-13T08:58:57Z</time>
      </trkpt>
      <trkpt lat="50.29049" lon="4.73408">
        <ele>233.22</ele>
        <time>2015-12-13T08:59:10Z</time>
      </trkpt>
      <trkpt lat="50.29101" lon="4.73397">
        <ele>230.432</ele>
        <time>2015-12-13T08:59:24Z</time>
      </trkpt>
      <trkpt lat="50.29161" lon="4.73369">
        <ele>231.648</ele>
        <time>2015-12-13T08:59:41Z</time>
      </trkpt>
      <trkpt lat="50.2921" lon="4.73318">
        <ele>232.937</ele>
        <time>2015-12-13T08:59:55Z</time>
      </trkpt>
      <trkpt lat="50.29244" lon="4.73288">
        <ele>230.432</ele>
        <time>2015-12-13T09:00:04Z</time>
      </trkpt>
      <trkpt lat="50.29248" lon="4.73285">
        <ele>230.13</ele>
        <time>2015-12-13T09:00:05Z</time>
      </trkpt>
      <trkpt lat="50.29276" lon="4.7327">
        <ele>229.326</ele>
        <time>2015-12-13T09:00:11Z</time>
      </trkpt>
      <trkpt lat="50.29326" lon="4.73244">
        <ele>228.25</ele>
        <time>2015-12-13T09:00:23Z</time>
      </trkpt>
      <trkpt lat="50.29363" lon="4.73225">
        <ele>226.932</ele>
        <time>2015-12-13T09:00:32Z</time>
      </trkpt>
      <trkpt lat="50.29408" lon="4.73203">
        <ele>227.602</ele>
        <time>2015-12-13T09:00:43Z</time>
      </trkpt>
      <trkpt lat="50.29412" lon="4.73201">
        <ele>227.885</ele>
        <time>2015-12-13T09:00:44Z</time>
      </trkpt>
      <trkpt lat="50.29416" lon="4.73198">
        <ele>228.099</ele>
        <time>2015-12-13T09:00:45Z</time>
      </trkpt>
      <trkpt lat="50.2942" lon="4.73196">
        <ele>228.307</ele>
        <time>2015-12-13T09:00:46Z</time>
      </trkpt>
      <trkpt lat="50.29424" lon="4.73194">
        <ele>228.527</ele>
        <time>2015-12-13T09:00:47Z</time>
      </trkpt>
      <trkpt lat="50.29428" lon="4.73192">
        <ele>228.766</ele>
        <time>2015-12-13T09:00:48Z</time>
      </trkpt>
      <trkpt lat="50.29432" lon="4.73189">
        <ele>228.979</ele>
        <time>2015-12-13T09:00:49Z</time>
      </trkpt>
      <trkpt lat="50.29436" lon="4.73186">
        <ele>229.181</ele>
        <time>2015-12-13T09:00:50Z</time>
      </trkpt>
      <trkpt lat="50.2944" lon="4.73184">
        <ele>229.37</ele>
        <time>2015-12-13T09:00:51Z</time>
      </trkpt>
      <trkpt lat="50.29444" lon="4.73182">
        <ele>229.534</ele>
        <time>2015-12-13T09:00:52Z</time>
      </trkpt>
      <trkpt lat="50.29473" lon="4.73166">
        <ele>230.015</ele>
        <time>2015-12-13T09:00:59Z</time>
      </trkpt>
      <trkpt lat="50.29478" lon="4.73165">
        <ele>230.123</ele>
        <time>2015-12-13T09:01:00Z</time>
      </trkpt>
      <trkpt lat="50.29482" lon="4.73163">
        <ele>230.216</ele>
        <time>2015-12-13T09:01:01Z</time>
      </trkpt>
      <trkpt lat="50.29486" lon="4.73162">
        <ele>230.328</ele>
        <time>2015-12-13T09:01:02Z</time>
      </trkpt>
      <trkpt lat="50.29491" lon="4.73161">
        <ele>230.454</ele>
        <time>2015-12-13T09:01:03Z</time>
      </trkpt>
      <trkpt lat="50.2955" lon="4.73153">
        <ele>232.425</ele>
        <time>2015-12-13T09:01:17Z</time>
      </trkpt>
      <trkpt lat="50.296" lon="4.73135">
        <ele>232.525</ele>
        <time>2015-12-13T09:01:31Z</time>
      </trkpt>
      <trkpt lat="50.29635" lon="4.73123">
        <ele>232.414</ele>
        <time>2015-12-13T09:01:43Z</time>
      </trkpt>
      <trkpt lat="50.29637" lon="4.73123">
        <ele>232.435</ele>
        <time>2015-12-13T09:01:44Z</time>
      </trkpt>
      <trkpt lat="50.29639" lon="4.73126">
        <ele>232.522</ele>
        <time>2015-12-13T09:01:45Z</time>
      </trkpt>
      <trkpt lat="50.2964" lon="4.73129">
        <ele>232.677</ele>
        <time>2015-12-13T09:01:46Z</time>
      </trkpt>
      <trkpt lat="50.29639" lon="4.73133">
        <ele>232.792</ele>
        <time>2015-12-13T09:01:47Z</time>
      </trkpt>
      <trkpt lat="50.29638" lon="4.73137">
        <ele>232.918</ele>
        <time>2015-12-13T09:01:48Z</time>
      </trkpt>
      <trkpt lat="50.29622" lon="4.73182">
        <ele>234.406</ele>
        <time>2015-12-13T09:01:59Z</time>
      </trkpt>
      <trkpt lat="50.29596" lon="4.73251">
        <ele>233.398</ele>
        <time>2015-12-13T09:02:14Z</time>
      </trkpt>
      <trkpt lat="50.29569" lon="4.73317">
        <ele>231.782</ele>
        <time>2015-12-13T09:02:28Z</time>
      </trkpt>
      <trkpt lat="50.29529" lon="4.73417">
        <ele>230.93</ele>
        <time>2015-12-13T09:02:47Z</time>
      </trkpt>
      <trkpt lat="50.2952" lon="4.73443">
        <ele>230.045</ele>
        <time>2015-12-13T09:02:52Z</time>
      </trkpt>
      <trkpt lat="50.29496" lon="4.73506">
        <ele>227.777</ele>
        <time>2015-12-13T09:03:05Z</time>
      </trkpt>
      <trkpt lat="50.29487" lon="4.73556">
        <ele>224.991</ele>
        <time>2015-12-13T09:03:16Z</time>
      </trkpt>
      <trkpt lat="50.29492" lon="4.73592">
        <ele>223.737</ele>
        <time>2015-12-13T09:03:23Z</time>
      </trkpt>
      <trkpt lat="50.29509" lon="4.73659">
        <ele>221.183</ele>
        <time>2015-12-13T09:03:33Z</time>
      </trkpt>
      <trkpt lat="50.29536" lon="4.73774">
        <ele>221.388</ele>
        <time>2015-12-13T09:03:50Z</time>
      </trkpt>
      <trkpt lat="50.29548" lon="4.73832">
        <ele>222.427</ele>
        <time>2015-12-13T09:03:59Z</time>
      </trkpt>
      <trkpt lat="50.29533" lon="4.73898">
        <ele>222.95</ele>
        <time>2015-12-13T09:04:11Z</time>
      </trkpt>
      <trkpt lat="50.29526" lon="4.73927">
        <ele>223.582</ele>
        <time>2015-12-13T09:04:17Z</time>
      </trkpt>
      <trkpt lat="50.29526" lon="4.73932">
        <ele>223.948</ele>
        <time>2015-12-13T09:04:18Z</time>
      </trkpt>
      <trkpt lat="50.29527" lon="4.73952">
        <ele>225.482</ele>
        <time>2015-12-13T09:04:22Z</time>
      </trkpt>
      <trkpt lat="50.2953" lon="4.73991">
        <ele>228.505</ele>
        <time>2015-12-13T09:04:32Z</time>
      </trkpt>
      <trkpt lat="50.2953" lon="4.73993">
        <ele>228.627</ele>
        <time>2015-12-13T09:04:33Z</time>
      </trkpt>
      <trkpt lat="50.2953" lon="4.73995">
        <ele>228.742</ele>
        <time>2015-12-13T09:04:34Z</time>
      </trkpt>
      <trkpt lat="50.2953" lon="4.73999">
        <ele>229.095</ele>
        <time>2015-12-13T09:04:44Z</time>
      </trkpt>
      <trkpt lat="50.2953" lon="4.74">
        <ele>229.16</ele>
        <time>2015-12-13T09:04:45Z</time>
      </trkpt>
      <trkpt lat="50.29529" lon="4.74036">
        <ele>228.825</ele>
        <time>2015-12-13T09:04:58Z</time>
      </trkpt>
      <trkpt lat="50.29531" lon="4.74075">
        <ele>228.37</ele>
        <time>2015-12-13T09:05:09Z</time>
      </trkpt>
      <trkpt lat="50.29531" lon="4.74129">
        <ele>228.261</ele>
        <time>2015-12-13T09:05:21Z</time>
      </trkpt>
      <trkpt lat="50.29522" lon="4.74223">
        <ele>228</ele>
        <time>2015-12-13T09:05:39Z</time>
      </trkpt>
      <trkpt lat="50.29516" lon="4.74308">
        <ele>225.838</ele>
        <time>2015-12-13T09:05:54Z</time>
      </trkpt>
      <trkpt lat="50.29515" lon="4.74411">
        <ele>223.536</ele>
        <time>2015-12-13T09:06:10Z</time>
      </trkpt>
      <trkpt lat="50.29516" lon="4.74515">
        <ele>221.745</ele>
        <time>2015-12-13T09:06:27Z</time>
      </trkpt>
      <trkpt lat="50.29522" lon="4.74567">
        <ele>219.212</ele>
        <time>2015-12-13T09:06:39Z</time>
      </trkpt>
      <trkpt lat="50.29525" lon="4.74568">
        <ele>219.114</ele>
        <time>2015-12-13T09:06:40Z</time>
      </trkpt>
      <trkpt lat="50.29528" lon="4.7457">
        <ele>219.01</ele>
        <time>2015-12-13T09:06:41Z</time>
      </trkpt>
      <trkpt lat="50.29531" lon="4.7457">
        <ele>219.205</ele>
        <time>2015-12-13T09:06:42Z</time>
      </trkpt>
      <trkpt lat="50.29534" lon="4.74571">
        <ele>219.428</ele>
        <time>2015-12-13T09:06:43Z</time>
      </trkpt>
      <trkpt lat="50.29537" lon="4.74572">
        <ele>219.634</ele>
        <time>2015-12-13T09:06:44Z</time>
      </trkpt>
      <trkpt lat="50.29541" lon="4.74573">
        <ele>219.798</ele>
        <time>2015-12-13T09:06:45Z</time>
      </trkpt>
      <trkpt lat="50.29544" lon="4.74575">
        <ele>219.95</ele>
        <time>2015-12-13T09:06:46Z</time>
      </trkpt>
      <trkpt lat="50.29548" lon="4.74576">
        <ele>220.101</ele>
        <time>2015-12-13T09:06:47Z</time>
      </trkpt>
      <trkpt lat="50.29615" lon="4.74603">
        <ele>221.963</ele>
        <time>2015-12-13T09:07:05Z</time>
      </trkpt>
      <trkpt lat="50.29677" lon="4.74628">
        <ele>226.535</ele>
        <time>2015-12-13T09:07:21Z</time>
      </trkpt>
      <trkpt lat="50.2969" lon="4.74636">
        <ele>226.917</ele>
        <time>2015-12-13T09:07:25Z</time>
      </trkpt>
      <trkpt lat="50.29714" lon="4.74693">
        <ele>223.812</ele>
        <time>2015-12-13T09:07:37Z</time>
      </trkpt>
      <trkpt lat="50.29743" lon="4.74774">
        <ele>217.872</ele>
        <time>2015-12-13T09:07:48Z</time>
      </trkpt>
      <trkpt lat="50.2977" lon="4.74856">
        <ele>216.18</ele>
        <time>2015-12-13T09:07:57Z</time>
      </trkpt>
      <trkpt lat="50.29811" lon="4.74984">
        <ele>212.355</ele>
        <time>2015-12-13T09:08:09Z</time>
      </trkpt>
      <trkpt lat="50.29819" lon="4.75013">
        <ele>210.555</ele>
        <time>2015-12-13T09:08:12Z</time>
      </trkpt>
      <trkpt lat="50.29828" lon="4.75041">
        <ele>208.344</ele>
        <time>2015-12-13T09:08:15Z</time>
      </trkpt>
      <trkpt lat="50.29838" lon="4.75071">
        <ele>205.645</ele>
        <time>2015-12-13T09:08:19Z</time>
      </trkpt>
      <trkpt lat="50.29844" lon="4.75084">
        <ele>204.555</ele>
        <time>2015-12-13T09:08:22Z</time>
      </trkpt>
      <trkpt lat="50.29847" lon="4.75086">
        <ele>204.374</ele>
        <time>2015-12-13T09:08:23Z</time>
      </trkpt>
      <trkpt lat="50.29851" lon="4.75086">
        <ele>204.266</ele>
        <time>2015-12-13T09:08:24Z</time>
      </trkpt>
      <trkpt lat="50.29853" lon="4.75085">
        <ele>204.201</ele>
        <time>2015-12-13T09:08:25Z</time>
      </trkpt>
      <trkpt lat="50.29856" lon="4.75085">
        <ele>204.118</ele>
        <time>2015-12-13T09:08:26Z</time>
      </trkpt>
      <trkpt lat="50.29859" lon="4.75085">
        <ele>204.018</ele>
        <time>2015-12-13T09:08:27Z</time>
      </trkpt>
      <trkpt lat="50.29883" lon="4.75078">
        <ele>202.444</ele>
        <time>2015-12-13T09:08:37Z</time>
      </trkpt>
      <trkpt lat="50.29886" lon="4.75073">
        <ele>202.246</ele>
        <time>2015-12-13T09:08:39Z</time>
      </trkpt>
      <trkpt lat="50.29887" lon="4.7507">
        <ele>202.169</ele>
        <time>2015-12-13T09:08:40Z</time>
      </trkpt>
      <trkpt lat="50.29888" lon="4.75067">
        <ele>202.046</ele>
        <time>2015-12-13T09:08:41Z</time>
      </trkpt>
      <trkpt lat="50.2989" lon="4.75063">
        <ele>201.796</ele>
        <time>2015-12-13T09:08:42Z</time>
      </trkpt>
      <trkpt lat="50.29891" lon="4.75059">
        <ele>201.544</ele>
        <time>2015-12-13T09:08:43Z</time>
      </trkpt>
      <trkpt lat="50.29895" lon="4.75009">
        <ele>203.306</ele>
        <time>2015-12-13T09:08:55Z</time>
      </trkpt>
      <trkpt lat="50.29899" lon="4.74968">
        <ele>202.059</ele>
        <time>2015-12-13T09:09:06Z</time>
      </trkpt>
      <trkpt lat="50.299" lon="4.74964">
        <ele>201.858</ele>
        <time>2015-12-13T09:09:07Z</time>
      </trkpt>
      <trkpt lat="50.29903" lon="4.74947">
        <ele>200.907</ele>
        <time>2015-12-13T09:09:14Z</time>
      </trkpt>
      <trkpt lat="50.29905" lon="4.74947">
        <ele>200.446</ele>
        <time>2015-12-13T09:09:15Z</time>
      </trkpt>
      <trkpt lat="50.29906" lon="4.74949">
        <ele>200.014</ele>
        <time>2015-12-13T09:09:16Z</time>
      </trkpt>
      <trkpt lat="50.29907" lon="4.74953">
        <ele>199.64</ele>
        <time>2015-12-13T09:09:17Z</time>
      </trkpt>
      <trkpt lat="50.29909" lon="4.74956">
        <ele>199.352</ele>
        <time>2015-12-13T09:09:18Z</time>
      </trkpt>
      <trkpt lat="50.29923" lon="4.74982">
        <ele>195.976</ele>
        <time>2015-12-13T09:09:25Z</time>
      </trkpt>
      <trkpt lat="50.29926" lon="4.74983">
        <ele>195.466</ele>
        <time>2015-12-13T09:09:26Z</time>
      </trkpt>
      <trkpt lat="50.2993" lon="4.74982">
        <ele>194.914</ele>
        <time>2015-12-13T09:09:27Z</time>
      </trkpt>
      <trkpt lat="50.29933" lon="4.74979">
        <ele>194.467</ele>
        <time>2015-12-13T09:09:28Z</time>
      </trkpt>
      <trkpt lat="50.29937" lon="4.74975">
        <ele>194.034</ele>
        <time>2015-12-13T09:09:29Z</time>
      </trkpt>
      <trkpt lat="50.2998" lon="4.74931">
        <ele>188.467</ele>
        <time>2015-12-13T09:09:38Z</time>
      </trkpt>
      <trkpt lat="50.30003" lon="4.74908">
        <ele>186.548</ele>
        <time>2015-12-13T09:09:43Z</time>
      </trkpt>
      <trkpt lat="50.30012" lon="4.749">
        <ele>186.772</ele>
        <time>2015-12-13T09:09:46Z</time>
      </trkpt>
      <trkpt lat="50.30015" lon="4.74901">
        <ele>186.602</ele>
        <time>2015-12-13T09:09:47Z</time>
      </trkpt>
      <trkpt lat="50.30017" lon="4.74903">
        <ele>186.336</ele>
        <time>2015-12-13T09:09:48Z</time>
      </trkpt>
      <trkpt lat="50.30019" lon="4.74906">
        <ele>186.07</ele>
        <time>2015-12-13T09:09:49Z</time>
      </trkpt>
      <trkpt lat="50.3002" lon="4.74909">
        <ele>185.85</ele>
        <time>2015-12-13T09:09:50Z</time>
      </trkpt>
      <trkpt lat="50.30021" lon="4.74911">
        <ele>185.659</ele>
        <time>2015-12-13T09:09:51Z</time>
      </trkpt>
      <trkpt lat="50.30023" lon="4.74912">
        <ele>185.537</ele>
        <time>2015-12-13T09:09:52Z</time>
      </trkpt>
      <trkpt lat="50.30025" lon="4.74911">
        <ele>185.494</ele>
        <time>2015-12-13T09:09:53Z</time>
      </trkpt>
      <trkpt lat="50.30026" lon="4.74911">
        <ele>185.454</ele>
        <time>2015-12-13T09:09:54Z</time>
      </trkpt>
      <trkpt lat="50.30028" lon="4.74911">
        <ele>185.416</ele>
        <time>2015-12-13T09:09:55Z</time>
      </trkpt>
      <trkpt lat="50.3004" lon="4.74908">
        <ele>185.936</ele>
        <time>2015-12-13T09:10:01Z</time>
      </trkpt>
      <trkpt lat="50.30043" lon="4.74905">
        <ele>186.184</ele>
        <time>2015-12-13T09:10:14Z</time>
      </trkpt>
      <trkpt lat="50.30045" lon="4.74907">
        <ele>186.112</ele>
        <time>2015-12-13T09:10:19Z</time>
      </trkpt>
      <trkpt lat="50.30052" lon="4.74904">
        <ele>186.366</ele>
        <time>2015-12-13T09:10:34Z</time>
      </trkpt>
      <trkpt lat="50.30053" lon="4.74903">
        <ele>186.437</ele>
        <time>2015-12-13T09:10:36Z</time>
      </trkpt>
      <trkpt lat="50.30059" lon="4.74899">
        <ele>186.94</ele>
        <time>2015-12-13T09:10:42Z</time>
      </trkpt>
      <trkpt lat="50.30062" lon="4.749">
        <ele>187.191</ele>
        <time>2015-12-13T09:10:44Z</time>
      </trkpt>
      <trkpt lat="50.30074" lon="4.74902">
        <ele>188.191</ele>
        <time>2015-12-13T09:10:55Z</time>
      </trkpt>
      <trkpt lat="50.30087" lon="4.74903">
        <ele>189.714</ele>
        <time>2015-12-13T09:11:07Z</time>
      </trkpt>
      <trkpt lat="50.3009" lon="4.74902">
        <ele>190.218</ele>
        <time>2015-12-13T09:11:10Z</time>
      </trkpt>
      <trkpt lat="50.30091" lon="4.74902">
        <ele>190.452</ele>
        <time>2015-12-13T09:11:11Z</time>
      </trkpt>
      <trkpt lat="50.30102" lon="4.74915">
        <ele>192.288</ele>
        <time>2015-12-13T09:11:23Z</time>
      </trkpt>
      <trkpt lat="50.30104" lon="4.74917">
        <ele>192.666</ele>
        <time>2015-12-13T09:11:27Z</time>
      </trkpt>
      <trkpt lat="50.30105" lon="4.74915">
        <ele>192.846</ele>
        <time>2015-12-13T09:11:41Z</time>
      </trkpt>
      <trkpt lat="50.30106" lon="4.74913">
        <ele>193.062</ele>
        <time>2015-12-13T09:11:47Z</time>
      </trkpt>
      <trkpt lat="50.30106" lon="4.74913">
        <ele>193.134</ele>
        <time>2015-12-13T09:11:50Z</time>
      </trkpt>
      <trkpt lat="50.30107" lon="4.7491">
        <ele>193.17</ele>
        <time>2015-12-13T09:11:51Z</time>
      </trkpt>
      <trkpt lat="50.30109" lon="4.74899">
        <ele>193.566</ele>
        <time>2015-12-13T09:11:56Z</time>
      </trkpt>
      <trkpt lat="50.30114" lon="4.74875">
        <ele>194.226</ele>
        <time>2015-12-13T09:12:04Z</time>
      </trkpt>
      <trkpt lat="50.30117" lon="4.74869">
        <ele>194.684</ele>
        <time>2015-12-13T09:12:15Z</time>
      </trkpt>
      <trkpt lat="50.30117" lon="4.74865">
        <ele>194.658</ele>
        <time>2015-12-13T09:12:17Z</time>
      </trkpt>
      <trkpt lat="50.30117" lon="4.74862">
        <ele>194.49</ele>
        <time>2015-12-13T09:12:18Z</time>
      </trkpt>
      <trkpt lat="50.30118" lon="4.74858">
        <ele>194.584</ele>
        <time>2015-12-13T09:12:20Z</time>
      </trkpt>
      <trkpt lat="50.30119" lon="4.74856">
        <ele>194.664</ele>
        <time>2015-12-13T09:12:21Z</time>
      </trkpt>
      <trkpt lat="50.30127" lon="4.74815">
        <ele>194.778</ele>
        <time>2015-12-13T09:12:33Z</time>
      </trkpt>
      <trkpt lat="50.30139" lon="4.74776">
        <ele>195.904</ele>
        <time>2015-12-13T09:12:45Z</time>
      </trkpt>
      <trkpt lat="50.3015" lon="4.74739">
        <ele>197.793</ele>
        <time>2015-12-13T09:12:56Z</time>
      </trkpt>
      <trkpt lat="50.30155" lon="4.74695">
        <ele>200.885</ele>
        <time>2015-12-13T09:13:09Z</time>
      </trkpt>
      <trkpt lat="50.30158" lon="4.74679">
        <ele>202.457</ele>
        <time>2015-12-13T09:13:14Z</time>
      </trkpt>
      <trkpt lat="50.30165" lon="4.74648">
        <ele>206.006</ele>
        <time>2015-12-13T09:13:24Z</time>
      </trkpt>
      <trkpt lat="50.30174" lon="4.74613">
        <ele>208.692</ele>
        <time>2015-12-13T09:13:35Z</time>
      </trkpt>
      <trkpt lat="50.30175" lon="4.7461">
        <ele>208.888</ele>
        <time>2015-12-13T09:13:36Z</time>
      </trkpt>
      <trkpt lat="50.30204" lon="4.74569">
        <ele>211.9</ele>
        <time>2015-12-13T09:13:54Z</time>
      </trkpt>
      <trkpt lat="50.30225" lon="4.74542">
        <ele>215.261</ele>
        <time>2015-12-13T09:14:07Z</time>
      </trkpt>
      <trkpt lat="50.30241" lon="4.74525">
        <ele>217.481</ele>
        <time>2015-12-13T09:14:16Z</time>
      </trkpt>
      <trkpt lat="50.3027" lon="4.74499">
        <ele>218.974</ele>
        <time>2015-12-13T09:14:31Z</time>
      </trkpt>
      <trkpt lat="50.303" lon="4.74475">
        <ele>218.918</ele>
        <time>2015-12-13T09:14:45Z</time>
      </trkpt>
      <trkpt lat="50.30311" lon="4.74468">
        <ele>219.044</ele>
        <time>2015-12-13T09:14:49Z</time>
      </trkpt>
      <trkpt lat="50.30342" lon="4.74447">
        <ele>219.69</ele>
        <time>2015-12-13T09:15:02Z</time>
      </trkpt>
      <trkpt lat="50.30381" lon="4.74421">
        <ele>223.392</ele>
        <time>2015-12-13T09:15:21Z</time>
      </trkpt>
      <trkpt lat="50.30415" lon="4.74398">
        <ele>223.709</ele>
        <time>2015-12-13T09:15:36Z</time>
      </trkpt>
      <trkpt lat="50.30458" lon="4.7436">
        <ele>223.448</ele>
        <time>2015-12-13T09:15:52Z</time>
      </trkpt>
      <trkpt lat="50.30464" lon="4.74349">
        <ele>222.854</ele>
        <time>2015-12-13T09:15:54Z</time>
      </trkpt>
      <trkpt lat="50.30467" lon="4.74342">
        <ele>222.465</ele>
        <time>2015-12-13T09:15:55Z</time>
      </trkpt>
      <trkpt lat="50.30469" lon="4.74335">
        <ele>222</ele>
        <time>2015-12-13T09:15:56Z</time>
      </trkpt>
      <trkpt lat="50.30486" lon="4.74274">
        <ele>219.434</ele>
        <time>2015-12-13T09:16:03Z</time>
      </trkpt>
      <trkpt lat="50.30496" lon="4.74219">
        <ele>219.628</ele>
        <time>2015-12-13T09:16:10Z</time>
      </trkpt>
      <trkpt lat="50.30498" lon="4.74212">
        <ele>219.474</ele>
        <time>2015-12-13T09:16:11Z</time>
      </trkpt>
      <trkpt lat="50.30502" lon="4.74184">
        <ele>219.142</ele>
        <time>2015-12-13T09:16:16Z</time>
      </trkpt>
      <trkpt lat="50.30515" lon="4.74121">
        <ele>218.249</ele>
        <time>2015-12-13T09:16:29Z</time>
      </trkpt>
      <trkpt lat="50.30516" lon="4.74117">
        <ele>218.221</ele>
        <time>2015-12-13T09:16:30Z</time>
      </trkpt>
      <trkpt lat="50.30517" lon="4.74113">
        <ele>218.232</ele>
        <time>2015-12-13T09:16:31Z</time>
      </trkpt>
      <trkpt lat="50.30518" lon="4.74109">
        <ele>218.335</ele>
        <time>2015-12-13T09:16:32Z</time>
      </trkpt>
      <trkpt lat="50.3052" lon="4.74104">
        <ele>218.477</ele>
        <time>2015-12-13T09:16:33Z</time>
      </trkpt>
      <trkpt lat="50.30521" lon="4.741">
        <ele>218.605</ele>
        <time>2015-12-13T09:16:34Z</time>
      </trkpt>
      <trkpt lat="50.30549" lon="4.74053">
        <ele>221.334</ele>
        <time>2015-12-13T09:16:48Z</time>
      </trkpt>
      <trkpt lat="50.30585" lon="4.74006">
        <ele>225.168</ele>
        <time>2015-12-13T09:17:04Z</time>
      </trkpt>
      <trkpt lat="50.30597" lon="4.73988">
        <ele>227.339</ele>
        <time>2015-12-13T09:17:10Z</time>
      </trkpt>
      <trkpt lat="50.30612" lon="4.7394">
        <ele>231.082</ele>
        <time>2015-12-13T09:17:24Z</time>
      </trkpt>
      <trkpt lat="50.3062" lon="4.73878">
        <ele>232.6</ele>
        <time>2015-12-13T09:17:40Z</time>
      </trkpt>
      <trkpt lat="50.30634" lon="4.73823">
        <ele>235.496</ele>
        <time>2015-12-13T09:17:55Z</time>
      </trkpt>
      <trkpt lat="50.30646" lon="4.73786">
        <ele>237.79</ele>
        <time>2015-12-13T09:18:06Z</time>
      </trkpt>
      <trkpt lat="50.30652" lon="4.73747">
        <ele>240.032</ele>
        <time>2015-12-13T09:18:18Z</time>
      </trkpt>
      <trkpt lat="50.3065" lon="4.73742">
        <ele>239.917</ele>
        <time>2015-12-13T09:18:28Z</time>
      </trkpt>
      <trkpt lat="50.3065" lon="4.73743">
        <ele>239.859</ele>
        <time>2015-12-13T09:18:45Z</time>
      </trkpt>
      <trkpt lat="50.30651" lon="4.73742">
        <ele>240.021</ele>
        <time>2015-12-13T09:19:00Z</time>
      </trkpt>
      <trkpt lat="50.30649" lon="4.73742">
        <ele>239.686</ele>
        <time>2015-12-13T09:19:13Z</time>
      </trkpt>
      <trkpt lat="50.3065" lon="4.73736">
        <ele>240.064</ele>
        <time>2015-12-13T09:19:16Z</time>
      </trkpt>
      <trkpt lat="50.30651" lon="4.73736">
        <ele>240.27</ele>
        <time>2015-12-13T09:19:17Z</time>
      </trkpt>
      <trkpt lat="50.30652" lon="4.73736">
        <ele>240.468</ele>
        <time>2015-12-13T09:19:18Z</time>
      </trkpt>
      <trkpt lat="50.30654" lon="4.73735">
        <ele>240.723</ele>
        <time>2015-12-13T09:19:19Z</time>
      </trkpt>
      <trkpt lat="50.30656" lon="4.73734">
        <ele>241.004</ele>
        <time>2015-12-13T09:19:20Z</time>
      </trkpt>
      <trkpt lat="50.30657" lon="4.73733">
        <ele>241.238</ele>
        <time>2015-12-13T09:19:21Z</time>
      </trkpt>
      <trkpt lat="50.30669" lon="4.73726">
        <ele>243.075</ele>
        <time>2015-12-13T09:19:31Z</time>
      </trkpt>
      <trkpt lat="50.30671" lon="4.73726">
        <ele>243.17</ele>
        <time>2015-12-13T09:19:32Z</time>
      </trkpt>
      <trkpt lat="50.30672" lon="4.73726">
        <ele>243.281</ele>
        <time>2015-12-13T09:19:33Z</time>
      </trkpt>
      <trkpt lat="50.30674" lon="4.73726">
        <ele>243.389</ele>
        <time>2015-12-13T09:19:34Z</time>
      </trkpt>
      <trkpt lat="50.30675" lon="4.73726">
        <ele>243.495</ele>
        <time>2015-12-13T09:19:35Z</time>
      </trkpt>
      <trkpt lat="50.30676" lon="4.73726">
        <ele>243.58</ele>
        <time>2015-12-13T09:19:36Z</time>
      </trkpt>
      <trkpt lat="50.30677" lon="4.73726">
        <ele>243.673</ele>
        <time>2015-12-13T09:19:37Z</time>
      </trkpt>
      <trkpt lat="50.30679" lon="4.73727">
        <ele>243.767</ele>
        <time>2015-12-13T09:19:38Z</time>
      </trkpt>
      <trkpt lat="50.3068" lon="4.73727">
        <ele>243.863</ele>
        <time>2015-12-13T09:19:39Z</time>
      </trkpt>
      <trkpt lat="50.30681" lon="4.73726">
        <ele>243.951</ele>
        <time>2015-12-13T09:19:40Z</time>
      </trkpt>
      <trkpt lat="50.30682" lon="4.73726">
        <ele>244.035</ele>
        <time>2015-12-13T09:19:41Z</time>
      </trkpt>
      <trkpt lat="50.30683" lon="4.73726">
        <ele>244.103</ele>
        <time>2015-12-13T09:19:42Z</time>
      </trkpt>
      <trkpt lat="50.30684" lon="4.73726">
        <ele>244.197</ele>
        <time>2015-12-13T09:19:43Z</time>
      </trkpt>
      <trkpt lat="50.30685" lon="4.73726">
        <ele>244.283</ele>
        <time>2015-12-13T09:19:44Z</time>
      </trkpt>
      <trkpt lat="50.30686" lon="4.73726">
        <ele>244.361</ele>
        <time>2015-12-13T09:19:45Z</time>
      </trkpt>
      <trkpt lat="50.30687" lon="4.73726">
        <ele>244.447</ele>
        <time>2015-12-13T09:19:46Z</time>
      </trkpt>
      <trkpt lat="50.30688" lon="4.73726">
        <ele>244.527</ele>
        <time>2015-12-13T09:19:47Z</time>
      </trkpt>
      <trkpt lat="50.30689" lon="4.73726">
        <ele>244.602</ele>
        <time>2015-12-13T09:19:48Z</time>
      </trkpt>
      <trkpt lat="50.3069" lon="4.73726">
        <ele>244.683</ele>
        <time>2015-12-13T09:19:49Z</time>
      </trkpt>
      <trkpt lat="50.30691" lon="4.73725">
        <ele>244.776</ele>
        <time>2015-12-13T09:19:50Z</time>
      </trkpt>
      <trkpt lat="50.30695" lon="4.73726">
        <ele>245.022</ele>
        <time>2015-12-13T09:20:02Z</time>
      </trkpt>
      <trkpt lat="50.30697" lon="4.73726">
        <ele>245.411</ele>
        <time>2015-12-13T09:20:12Z</time>
      </trkpt>
      <trkpt lat="50.30713" lon="4.73728">
        <ele>247.686</ele>
        <time>2015-12-13T09:20:26Z</time>
      </trkpt>
      <trkpt lat="50.30718" lon="4.73729">
        <ele>248.363</ele>
        <time>2015-12-13T09:20:30Z</time>
      </trkpt>
      <trkpt lat="50.30734" lon="4.7373">
        <ele>251.102</ele>
        <time>2015-12-13T09:20:46Z</time>
      </trkpt>
      <trkpt lat="50.30737" lon="4.73731">
        <ele>251.606</ele>
        <time>2015-12-13T09:20:51Z</time>
      </trkpt>
      <trkpt lat="50.30738" lon="4.73731">
        <ele>251.786</ele>
        <time>2015-12-13T09:21:13Z</time>
      </trkpt>
      <trkpt lat="50.30745" lon="4.7373">
        <ele>253.1</ele>
        <time>2015-12-13T09:21:20Z</time>
      </trkpt>
      <trkpt lat="50.30762" lon="4.73731">
        <ele>254.85</ele>
        <time>2015-12-13T09:21:36Z</time>
      </trkpt>
      <trkpt lat="50.30768" lon="4.73732">
        <ele>255.296</ele>
        <time>2015-12-13T09:21:47Z</time>
      </trkpt>
      <trkpt lat="50.3078" lon="4.73734">
        <ele>256.138</ele>
        <time>2015-12-13T09:21:58Z</time>
      </trkpt>
      <trkpt lat="50.30798" lon="4.73734">
        <ele>257.456</ele>
        <time>2015-12-13T09:22:11Z</time>
      </trkpt>
      <trkpt lat="50.30806" lon="4.73735">
        <ele>258.064</ele>
        <time>2015-12-13T09:22:17Z</time>
      </trkpt>
      <trkpt lat="50.30818" lon="4.73737">
        <ele>259.749</ele>
        <time>2015-12-13T09:22:25Z</time>
      </trkpt>
      <trkpt lat="50.30848" lon="4.73737">
        <ele>262.524</ele>
        <time>2015-12-13T09:22:43Z</time>
      </trkpt>
      <trkpt lat="50.30881" lon="4.73737">
        <ele>264.418</ele>
        <time>2015-12-13T09:23:00Z</time>
      </trkpt>
      <trkpt lat="50.30889" lon="4.73738">
        <ele>264.994</ele>
        <time>2015-12-13T09:23:06Z</time>
      </trkpt>
      <trkpt lat="50.3089" lon="4.73739">
        <ele>264.959</ele>
        <time>2015-12-13T09:23:19Z</time>
      </trkpt>
      <trkpt lat="50.30889" lon="4.7374">
        <ele>264.97</ele>
        <time>2015-12-13T09:23:45Z</time>
      </trkpt>
      <trkpt lat="50.30889" lon="4.73741">
        <ele>264.963</ele>
        <time>2015-12-13T09:24:21Z</time>
      </trkpt>
      <trkpt lat="50.30892" lon="4.73774">
        <ele>263.84</ele>
        <time>2015-12-13T09:24:33Z</time>
      </trkpt>
      <trkpt lat="50.30892" lon="4.73777">
        <ele>263.671</ele>
        <time>2015-12-13T09:24:34Z</time>
      </trkpt>
      <trkpt lat="50.30893" lon="4.73779">
        <ele>263.578</ele>
        <time>2015-12-13T09:24:35Z</time>
      </trkpt>
      <trkpt lat="50.30893" lon="4.73781">
        <ele>263.534</ele>
        <time>2015-12-13T09:24:36Z</time>
      </trkpt>
      <trkpt lat="50.30894" lon="4.73783">
        <ele>263.502</ele>
        <time>2015-12-13T09:24:37Z</time>
      </trkpt>
      <trkpt lat="50.30894" lon="4.73786">
        <ele>263.459</ele>
        <time>2015-12-13T09:24:38Z</time>
      </trkpt>
      <trkpt lat="50.30894" lon="4.73788">
        <ele>263.459</ele>
        <time>2015-12-13T09:24:39Z</time>
      </trkpt>
      <trkpt lat="50.30894" lon="4.73791">
        <ele>263.47</ele>
        <time>2015-12-13T09:24:40Z</time>
      </trkpt>
      <trkpt lat="50.30894" lon="4.73793">
        <ele>263.426</ele>
        <time>2015-12-13T09:24:41Z</time>
      </trkpt>
      <trkpt lat="50.30895" lon="4.73797">
        <ele>263.34</ele>
        <time>2015-12-13T09:24:44Z</time>
      </trkpt>
      <trkpt lat="50.30895" lon="4.73799">
        <ele>263.351</ele>
        <time>2015-12-13T09:24:45Z</time>
      </trkpt>
      <trkpt lat="50.30895" lon="4.73802">
        <ele>263.351</ele>
        <time>2015-12-13T09:24:46Z</time>
      </trkpt>
      <trkpt lat="50.30895" lon="4.73805">
        <ele>263.34</ele>
        <time>2015-12-13T09:24:47Z</time>
      </trkpt>
      <trkpt lat="50.30895" lon="4.73807">
        <ele>263.34</ele>
        <time>2015-12-13T09:24:48Z</time>
      </trkpt>
      <trkpt lat="50.30899" lon="4.73867">
        <ele>263.334</ele>
        <time>2015-12-13T09:25:04Z</time>
      </trkpt>
      <trkpt lat="50.30907" lon="4.73964">
        <ele>262.366</ele>
        <time>2015-12-13T09:25:22Z</time>
      </trkpt>
      <trkpt lat="50.30916" lon="4.74075">
        <ele>261.028</ele>
        <time>2015-12-13T09:25:43Z</time>
      </trkpt>
      <trkpt lat="50.30923" lon="4.74156">
        <ele>262.63</ele>
        <time>2015-12-13T09:25:59Z</time>
      </trkpt>
      <trkpt lat="50.30931" lon="4.74241">
        <ele>263</ele>
        <time>2015-12-13T09:26:16Z</time>
      </trkpt>
      <trkpt lat="50.30936" lon="4.74302">
        <ele>263.3</ele>
        <time>2015-12-13T09:26:29Z</time>
      </trkpt>
      <trkpt lat="50.30949" lon="4.74374">
        <ele>263.241</ele>
        <time>2015-12-13T09:26:45Z</time>
      </trkpt>
      <trkpt lat="50.30973" lon="4.74451">
        <ele>262.859</ele>
        <time>2015-12-13T09:27:02Z</time>
      </trkpt>
      <trkpt lat="50.30996" lon="4.74541">
        <ele>260.59</ele>
        <time>2015-12-13T09:27:18Z</time>
      </trkpt>
      <trkpt lat="50.31029" lon="4.74658">
        <ele>262.636</ele>
        <time>2015-12-13T09:27:39Z</time>
      </trkpt>
      <trkpt lat="50.31052" lon="4.74757">
        <ele>263.479</ele>
        <time>2015-12-13T09:27:56Z</time>
      </trkpt>
      <trkpt lat="50.31072" lon="4.74842">
        <ele>261.603</ele>
        <time>2015-12-13T09:28:11Z</time>
      </trkpt>
      <trkpt lat="50.31074" lon="4.74849">
        <ele>261.301</ele>
        <time>2015-12-13T09:28:12Z</time>
      </trkpt>
      <trkpt lat="50.31098" lon="4.74949">
        <ele>257.917</ele>
        <time>2015-12-13T09:28:23Z</time>
      </trkpt>
      <trkpt lat="50.31104" lon="4.74981">
        <ele>257.149</ele>
        <time>2015-12-13T09:28:26Z</time>
      </trkpt>
      <trkpt lat="50.31106" lon="4.74991">
        <ele>256.893</ele>
        <time>2015-12-13T09:28:27Z</time>
      </trkpt>
      <trkpt lat="50.31115" lon="4.75029">
        <ele>255.257</ele>
        <time>2015-12-13T09:28:31Z</time>
      </trkpt>
      <trkpt lat="50.31118" lon="4.75046">
        <ele>254.834</ele>
        <time>2015-12-13T09:28:33Z</time>
      </trkpt>
      <trkpt lat="50.3112" lon="4.75053">
        <ele>254.614</ele>
        <time>2015-12-13T09:28:34Z</time>
      </trkpt>
      <trkpt lat="50.31123" lon="4.75059">
        <ele>254.813</ele>
        <time>2015-12-13T09:28:35Z</time>
      </trkpt>
      <trkpt lat="50.31126" lon="4.75064">
        <ele>255.072</ele>
        <time>2015-12-13T09:28:36Z</time>
      </trkpt>
      <trkpt lat="50.31129" lon="4.75067">
        <ele>255</ele>
        <time>2015-12-13T09:28:37Z</time>
      </trkpt>
      <trkpt lat="50.31134" lon="4.75068">
        <ele>254.366</ele>
        <time>2015-12-13T09:28:38Z</time>
      </trkpt>
      <trkpt lat="50.31141" lon="4.75065">
        <ele>253.199</ele>
        <time>2015-12-13T09:28:39Z</time>
      </trkpt>
      <trkpt lat="50.31147" lon="4.75061">
        <ele>251.837</ele>
        <time>2015-12-13T09:28:40Z</time>
      </trkpt>
      <trkpt lat="50.31154" lon="4.75055">
        <ele>250.399</ele>
        <time>2015-12-13T09:28:41Z</time>
      </trkpt>
      <trkpt lat="50.31182" lon="4.75031">
        <ele>245.255</ele>
        <time>2015-12-13T09:28:45Z</time>
      </trkpt>
      <trkpt lat="50.31205" lon="4.75014">
        <ele>242.845</ele>
        <time>2015-12-13T09:28:48Z</time>
      </trkpt>
      <trkpt lat="50.31213" lon="4.75008">
        <ele>242.405</ele>
        <time>2015-12-13T09:28:49Z</time>
      </trkpt>
      <trkpt lat="50.3128" lon="4.74964">
        <ele>241.517</ele>
        <time>2015-12-13T09:28:58Z</time>
      </trkpt>
      <trkpt lat="50.31287" lon="4.7496">
        <ele>241.427</ele>
        <time>2015-12-13T09:28:59Z</time>
      </trkpt>
      <trkpt lat="50.31354" lon="4.74918">
        <ele>240.584</ele>
        <time>2015-12-13T09:29:11Z</time>
      </trkpt>
      <trkpt lat="50.31369" lon="4.74911">
        <ele>240.92</ele>
        <time>2015-12-13T09:29:14Z</time>
      </trkpt>
      <trkpt lat="50.31378" lon="4.74905">
        <ele>241.028</ele>
        <time>2015-12-13T09:29:16Z</time>
      </trkpt>
      <trkpt lat="50.3139" lon="4.74892">
        <ele>241.181</ele>
        <time>2015-12-13T09:29:19Z</time>
      </trkpt>
      <trkpt lat="50.31426" lon="4.7485">
        <ele>243.322</ele>
        <time>2015-12-13T09:29:28Z</time>
      </trkpt>
      <trkpt lat="50.31438" lon="4.74839">
        <ele>243.754</ele>
        <time>2015-12-13T09:29:31Z</time>
      </trkpt>
      <trkpt lat="50.31442" lon="4.74836">
        <ele>243.908</ele>
        <time>2015-12-13T09:29:32Z</time>
      </trkpt>
      <trkpt lat="50.31459" lon="4.74822">
        <ele>245.842</ele>
        <time>2015-12-13T09:29:36Z</time>
      </trkpt>
      <trkpt lat="50.3151" lon="4.74796">
        <ele>244.45</ele>
        <time>2015-12-13T09:29:49Z</time>
      </trkpt>
      <trkpt lat="50.31545" lon="4.74774">
        <ele>242.242</ele>
        <time>2015-12-13T09:29:59Z</time>
      </trkpt>
      <trkpt lat="50.31549" lon="4.74772">
        <ele>242.262</ele>
        <time>2015-12-13T09:30:00Z</time>
      </trkpt>
      <trkpt lat="50.31561" lon="4.74764">
        <ele>242.741</ele>
        <time>2015-12-13T09:30:03Z</time>
      </trkpt>
      <trkpt lat="50.31587" lon="4.74752">
        <ele>243.709</ele>
        <time>2015-12-13T09:30:12Z</time>
      </trkpt>
      <trkpt lat="50.31588" lon="4.74751">
        <ele>243.931</ele>
        <time>2015-12-13T09:30:13Z</time>
      </trkpt>
      <trkpt lat="50.31593" lon="4.74749">
        <ele>244.134</ele>
        <time>2015-12-13T09:30:24Z</time>
      </trkpt>
      <trkpt lat="50.31593" lon="4.74749">
        <ele>244.104</ele>
        <time>2015-12-13T09:31:02Z</time>
      </trkpt>
      <trkpt lat="50.3162" lon="4.74762">
        <ele>242.953</ele>
        <time>2015-12-13T09:31:11Z</time>
      </trkpt>
      <trkpt lat="50.31635" lon="4.74775">
        <ele>242.86</ele>
        <time>2015-12-13T09:31:15Z</time>
      </trkpt>
      <trkpt lat="50.31639" lon="4.74779">
        <ele>243</ele>
        <time>2015-12-13T09:31:16Z</time>
      </trkpt>
      <trkpt lat="50.31643" lon="4.74783">
        <ele>243</ele>
        <time>2015-12-13T09:31:17Z</time>
      </trkpt>
      <trkpt lat="50.31646" lon="4.74786">
        <ele>243</ele>
        <time>2015-12-13T09:31:18Z</time>
      </trkpt>
      <trkpt lat="50.31649" lon="4.7479">
        <ele>243</ele>
        <time>2015-12-13T09:31:19Z</time>
      </trkpt>
      <trkpt lat="50.31652" lon="4.74793">
        <ele>243</ele>
        <time>2015-12-13T09:31:20Z</time>
      </trkpt>
      <trkpt lat="50.31684" lon="4.74819">
        <ele>243.768</ele>
        <time>2015-12-13T09:31:30Z</time>
      </trkpt>
      <trkpt lat="50.31686" lon="4.74824">
        <ele>243.714</ele>
        <time>2015-12-13T09:31:31Z</time>
      </trkpt>
      <trkpt lat="50.31687" lon="4.7483">
        <ele>243.562</ele>
        <time>2015-12-13T09:31:32Z</time>
      </trkpt>
      <trkpt lat="50.31686" lon="4.74836">
        <ele>243.428</ele>
        <time>2015-12-13T09:31:33Z</time>
      </trkpt>
      <trkpt lat="50.31686" lon="4.74841">
        <ele>243.37</ele>
        <time>2015-12-13T09:31:34Z</time>
      </trkpt>
      <trkpt lat="50.31685" lon="4.74847">
        <ele>243.291</ele>
        <time>2015-12-13T09:31:35Z</time>
      </trkpt>
      <trkpt lat="50.31677" lon="4.74925">
        <ele>243.672</ele>
        <time>2015-12-13T09:31:49Z</time>
      </trkpt>
      <trkpt lat="50.31674" lon="4.74963">
        <ele>244.264</ele>
        <time>2015-12-13T09:31:56Z</time>
      </trkpt>
      <trkpt lat="50.31655" lon="4.75019">
        <ele>243.131</ele>
        <time>2015-12-13T09:32:05Z</time>
      </trkpt>
      <trkpt lat="50.31655" lon="4.75027">
        <ele>243.182</ele>
        <time>2015-12-13T09:32:06Z</time>
      </trkpt>
      <trkpt lat="50.31656" lon="4.75034">
        <ele>243.488</ele>
        <time>2015-12-13T09:32:07Z</time>
      </trkpt>
      <trkpt lat="50.31657" lon="4.75042">
        <ele>243.816</ele>
        <time>2015-12-13T09:32:08Z</time>
      </trkpt>
      <trkpt lat="50.31658" lon="4.75048">
        <ele>244.14</ele>
        <time>2015-12-13T09:32:09Z</time>
      </trkpt>
      <trkpt lat="50.31684" lon="4.75092">
        <ele>245.62</ele>
        <time>2015-12-13T09:32:19Z</time>
      </trkpt>
      <trkpt lat="50.31724" lon="4.75131">
        <ele>247</ele>
        <time>2015-12-13T09:32:31Z</time>
      </trkpt>
      <trkpt lat="50.31768" lon="4.75178">
        <ele>249.582</ele>
        <time>2015-12-13T09:32:46Z</time>
      </trkpt>
      <trkpt lat="50.31806" lon="4.75215">
        <ele>253.004</ele>
        <time>2015-12-13T09:33:01Z</time>
      </trkpt>
      <trkpt lat="50.31806" lon="4.75216">
        <ele>253.06</ele>
        <time>2015-12-13T09:33:07Z</time>
      </trkpt>
      <trkpt lat="50.31808" lon="4.75216">
        <ele>253.163</ele>
        <time>2015-12-13T09:33:08Z</time>
      </trkpt>
      <trkpt lat="50.31809" lon="4.75217">
        <ele>253.271</ele>
        <time>2015-12-13T09:33:09Z</time>
      </trkpt>
      <trkpt lat="50.3181" lon="4.75218">
        <ele>253.384</ele>
        <time>2015-12-13T09:33:10Z</time>
      </trkpt>
      <trkpt lat="50.31812" lon="4.75219">
        <ele>253.51</ele>
        <time>2015-12-13T09:33:11Z</time>
      </trkpt>
      <trkpt lat="50.31814" lon="4.75219">
        <ele>253.68</ele>
        <time>2015-12-13T09:33:12Z</time>
      </trkpt>
      <trkpt lat="50.31817" lon="4.7522">
        <ele>253.863</ele>
        <time>2015-12-13T09:33:13Z</time>
      </trkpt>
      <trkpt lat="50.31832" lon="4.75226">
        <ele>254.771</ele>
        <time>2015-12-13T09:33:18Z</time>
      </trkpt>
      <trkpt lat="50.31861" lon="4.75231">
        <ele>257.675</ele>
        <time>2015-12-13T09:33:28Z</time>
      </trkpt>
      <trkpt lat="50.31907" lon="4.7523">
        <ele>260.956</ele>
        <time>2015-12-13T09:33:42Z</time>
      </trkpt>
      <trkpt lat="50.31955" lon="4.75227">
        <ele>263.514</ele>
        <time>2015-12-13T09:33:55Z</time>
      </trkpt>
      <trkpt lat="50.31959" lon="4.75227">
        <ele>263.409</ele>
        <time>2015-12-13T09:33:56Z</time>
      </trkpt>
      <trkpt lat="50.32004" lon="4.75222">
        <ele>262.706</ele>
        <time>2015-12-13T09:34:08Z</time>
      </trkpt>
      <trkpt lat="50.3207" lon="4.75223">
        <ele>257.938</ele>
        <time>2015-12-13T09:34:23Z</time>
      </trkpt>
      <trkpt lat="50.32082" lon="4.75223">
        <ele>257.11</ele>
        <time>2015-12-13T09:34:25Z</time>
      </trkpt>
      <trkpt lat="50.32197" lon="4.75223">
        <ele>257</ele>
        <time>2015-12-13T09:34:43Z</time>
      </trkpt>
      <trkpt lat="50.32293" lon="4.752">
        <ele>254.147</ele>
        <time>2015-12-13T09:34:58Z</time>
      </trkpt>
      <trkpt lat="50.32403" lon="4.7517">
        <ele>251.049</ele>
        <time>2015-12-13T09:35:13Z</time>
      </trkpt>
      <trkpt lat="50.32443" lon="4.75162">
        <ele>248.88</ele>
        <time>2015-12-13T09:35:21Z</time>
      </trkpt>
      <trkpt lat="50.32449" lon="4.75161">
        <ele>248.807</ele>
        <time>2015-12-13T09:35:25Z</time>
      </trkpt>
      <trkpt lat="50.32451" lon="4.75161">
        <ele>248.81</ele>
        <time>2015-12-13T09:35:26Z</time>
      </trkpt>
      <trkpt lat="50.32453" lon="4.75161">
        <ele>248.8</ele>
        <time>2015-12-13T09:35:27Z</time>
      </trkpt>
      <trkpt lat="50.32455" lon="4.7516">
        <ele>248.771</ele>
        <time>2015-12-13T09:35:28Z</time>
      </trkpt>
      <trkpt lat="50.32457" lon="4.75159">
        <ele>248.735</ele>
        <time>2015-12-13T09:35:29Z</time>
      </trkpt>
      <trkpt lat="50.32464" lon="4.75157">
        <ele>248.656</ele>
        <time>2015-12-13T09:35:31Z</time>
      </trkpt>
      <trkpt lat="50.32553" lon="4.75147">
        <ele>245.287</ele>
        <time>2015-12-13T09:35:48Z</time>
      </trkpt>
      <trkpt lat="50.32638" lon="4.75148">
        <ele>245.655</ele>
        <time>2015-12-13T09:36:02Z</time>
      </trkpt>
      <trkpt lat="50.32758" lon="4.75143">
        <ele>243</ele>
        <time>2015-12-13T09:36:21Z</time>
      </trkpt>
      <trkpt lat="50.32837" lon="4.75129">
        <ele>244.857</ele>
        <time>2015-12-13T09:36:35Z</time>
      </trkpt>
      <trkpt lat="50.32938" lon="4.75109">
        <ele>242.239</ele>
        <time>2015-12-13T09:36:54Z</time>
      </trkpt>
      <trkpt lat="50.33022" lon="4.7508">
        <ele>239</ele>
        <time>2015-12-13T09:37:08Z</time>
      </trkpt>
      <trkpt lat="50.33062" lon="4.75072">
        <ele>238.863</ele>
        <time>2015-12-13T09:37:16Z</time>
      </trkpt>
      <trkpt lat="50.33145" lon="4.75051">
        <ele>238.362</ele>
        <time>2015-12-13T09:37:33Z</time>
      </trkpt>
      <trkpt lat="50.33221" lon="4.75007">
        <ele>237.048</ele>
        <time>2015-12-13T09:37:49Z</time>
      </trkpt>
      <trkpt lat="50.33232" lon="4.75001">
        <ele>236.652</ele>
        <time>2015-12-13T09:37:51Z</time>
      </trkpt>
      <trkpt lat="50.33244" lon="4.74995">
        <ele>236.23</ele>
        <time>2015-12-13T09:37:53Z</time>
      </trkpt>
      <trkpt lat="50.33249" lon="4.74992">
        <ele>236.025</ele>
        <time>2015-12-13T09:37:54Z</time>
      </trkpt>
      <trkpt lat="50.33273" lon="4.74981">
        <ele>236</ele>
        <time>2015-12-13T09:37:58Z</time>
      </trkpt>
      <trkpt lat="50.33279" lon="4.74978">
        <ele>235.991</ele>
        <time>2015-12-13T09:37:59Z</time>
      </trkpt>
      <trkpt lat="50.33284" lon="4.74976">
        <ele>235.967</ele>
        <time>2015-12-13T09:38:00Z</time>
      </trkpt>
      <trkpt lat="50.33289" lon="4.74975">
        <ele>235.96</ele>
        <time>2015-12-13T09:38:01Z</time>
      </trkpt>
      <trkpt lat="50.33294" lon="4.74974">
        <ele>235.954</ele>
        <time>2015-12-13T09:38:02Z</time>
      </trkpt>
      <trkpt lat="50.3332" lon="4.74975">
        <ele>236.936</ele>
        <time>2015-12-13T09:38:10Z</time>
      </trkpt>
      <trkpt lat="50.33351" lon="4.74978">
        <ele>239.7</ele>
        <time>2015-12-13T09:38:19Z</time>
      </trkpt>
      <trkpt lat="50.33387" lon="4.7498">
        <ele>242.606</ele>
        <time>2015-12-13T09:38:30Z</time>
      </trkpt>
      <trkpt lat="50.33422" lon="4.74982">
        <ele>243.308</ele>
        <time>2015-12-13T09:38:41Z</time>
      </trkpt>
      <trkpt lat="50.33451" lon="4.74968">
        <ele>240.981</ele>
        <time>2015-12-13T09:38:50Z</time>
      </trkpt>
      <trkpt lat="50.3347" lon="4.74944">
        <ele>236.368</ele>
        <time>2015-12-13T09:38:58Z</time>
      </trkpt>
      <trkpt lat="50.33482" lon="4.74925">
        <ele>233</ele>
        <time>2015-12-13T09:39:04Z</time>
      </trkpt>
      <trkpt lat="50.33483" lon="4.74925">
        <ele>232.772</ele>
        <time>2015-12-13T09:39:05Z</time>
      </trkpt>
      <trkpt lat="50.33487" lon="4.74921">
        <ele>231.943</ele>
        <time>2015-12-13T09:39:11Z</time>
      </trkpt>
      <trkpt lat="50.33486" lon="4.74917">
        <ele>231.524</ele>
        <time>2015-12-13T09:39:14Z</time>
      </trkpt>
      <trkpt lat="50.33491" lon="4.74915">
        <ele>230.794</ele>
        <time>2015-12-13T09:39:21Z</time>
      </trkpt>
      <trkpt lat="50.33507" lon="4.74904">
        <ele>228.675</ele>
        <time>2015-12-13T09:39:29Z</time>
      </trkpt>
      <trkpt lat="50.33509" lon="4.74903">
        <ele>228.502</ele>
        <time>2015-12-13T09:39:30Z</time>
      </trkpt>
      <trkpt lat="50.33512" lon="4.74902">
        <ele>228.373</ele>
        <time>2015-12-13T09:39:31Z</time>
      </trkpt>
      <trkpt lat="50.33515" lon="4.74902">
        <ele>228.362</ele>
        <time>2015-12-13T09:39:32Z</time>
      </trkpt>
      <trkpt lat="50.33517" lon="4.74901">
        <ele>228.297</ele>
        <time>2015-12-13T09:39:33Z</time>
      </trkpt>
      <trkpt lat="50.3352" lon="4.74899">
        <ele>228.114</ele>
        <time>2015-12-13T09:39:34Z</time>
      </trkpt>
      <trkpt lat="50.33523" lon="4.74897">
        <ele>227.887</ele>
        <time>2015-12-13T09:39:35Z</time>
      </trkpt>
      <trkpt lat="50.33561" lon="4.74852">
        <ele>228.189</ele>
        <time>2015-12-13T09:39:51Z</time>
      </trkpt>
      <trkpt lat="50.33588" lon="4.74823">
        <ele>229.551</ele>
        <time>2015-12-13T09:40:04Z</time>
      </trkpt>
      <trkpt lat="50.33595" lon="4.74813">
        <ele>230.166</ele>
        <time>2015-12-13T09:40:10Z</time>
      </trkpt>
      <trkpt lat="50.33596" lon="4.74811">
        <ele>230.26</ele>
        <time>2015-12-13T09:40:11Z</time>
      </trkpt>
      <trkpt lat="50.33598" lon="4.7481">
        <ele>230.364</ele>
        <time>2015-12-13T09:40:12Z</time>
      </trkpt>
      <trkpt lat="50.33599" lon="4.74808">
        <ele>230.48</ele>
        <time>2015-12-13T09:40:13Z</time>
      </trkpt>
      <trkpt lat="50.33601" lon="4.74806">
        <ele>230.637</ele>
        <time>2015-12-13T09:40:14Z</time>
      </trkpt>
      <trkpt lat="50.33632" lon="4.74767">
        <ele>233.111</ele>
        <time>2015-12-13T09:40:28Z</time>
      </trkpt>
      <trkpt lat="50.33663" lon="4.74729">
        <ele>233.782</ele>
        <time>2015-12-13T09:40:42Z</time>
      </trkpt>
      <trkpt lat="50.33702" lon="4.74683">
        <ele>236.151</ele>
        <time>2015-12-13T09:40:58Z</time>
      </trkpt>
      <trkpt lat="50.3374" lon="4.74641">
        <ele>239.607</ele>
        <time>2015-12-13T09:41:13Z</time>
      </trkpt>
      <trkpt lat="50.33753" lon="4.74619">
        <ele>240.09</ele>
        <time>2015-12-13T09:41:20Z</time>
      </trkpt>
      <trkpt lat="50.33761" lon="4.74606">
        <ele>240.674</ele>
        <time>2015-12-13T09:41:25Z</time>
      </trkpt>
      <trkpt lat="50.33762" lon="4.74603">
        <ele>240.854</ele>
        <time>2015-12-13T09:41:26Z</time>
      </trkpt>
      <trkpt lat="50.33763" lon="4.746">
        <ele>241.054</ele>
        <time>2015-12-13T09:41:27Z</time>
      </trkpt>
      <trkpt lat="50.33768" lon="4.74592">
        <ele>241.763</ele>
        <time>2015-12-13T09:41:30Z</time>
      </trkpt>
      <trkpt lat="50.33783" lon="4.74561">
        <ele>243.855</ele>
        <time>2015-12-13T09:41:41Z</time>
      </trkpt>
      <trkpt lat="50.33796" lon="4.74527">
        <ele>245.349</ele>
        <time>2015-12-13T09:41:54Z</time>
      </trkpt>
      <trkpt lat="50.33797" lon="4.74527">
        <ele>245.328</ele>
        <time>2015-12-13T09:42:05Z</time>
      </trkpt>
      <trkpt lat="50.33797" lon="4.74527">
        <ele>245.332</ele>
        <time>2015-12-13T09:43:06Z</time>
      </trkpt>
      <trkpt lat="50.33797" lon="4.74528">
        <ele>245.321</ele>
        <time>2015-12-13T09:43:37Z</time>
      </trkpt>
      <trkpt lat="50.33797" lon="4.74528">
        <ele>245.331</ele>
        <time>2015-12-13T09:43:56Z</time>
      </trkpt>
      <trkpt lat="50.33797" lon="4.74527">
        <ele>245.318</ele>
        <time>2015-12-13T09:44:06Z</time>
      </trkpt>
      <trkpt lat="50.338" lon="4.74521">
        <ele>245.502</ele>
        <time>2015-12-13T09:44:13Z</time>
      </trkpt>
      <trkpt lat="50.33801" lon="4.7452">
        <ele>245.521</ele>
        <time>2015-12-13T09:44:14Z</time>
      </trkpt>
      <trkpt lat="50.33802" lon="4.74518">
        <ele>245.537</ele>
        <time>2015-12-13T09:44:15Z</time>
      </trkpt>
      <trkpt lat="50.33802" lon="4.74517">
        <ele>245.562</ele>
        <time>2015-12-13T09:44:16Z</time>
      </trkpt>
      <trkpt lat="50.33804" lon="4.74515">
        <ele>245.57</ele>
        <time>2015-12-13T09:44:17Z</time>
      </trkpt>
      <trkpt lat="50.33805" lon="4.74513">
        <ele>245.57</ele>
        <time>2015-12-13T09:44:18Z</time>
      </trkpt>
      <trkpt lat="50.33805" lon="4.74511">
        <ele>245.602</ele>
        <time>2015-12-13T09:44:19Z</time>
      </trkpt>
      <trkpt lat="50.33806" lon="4.74509">
        <ele>245.626</ele>
        <time>2015-12-13T09:44:20Z</time>
      </trkpt>
      <trkpt lat="50.33807" lon="4.74507">
        <ele>245.648</ele>
        <time>2015-12-13T09:44:21Z</time>
      </trkpt>
      <trkpt lat="50.33808" lon="4.74502">
        <ele>245.643</ele>
        <time>2015-12-13T09:44:23Z</time>
      </trkpt>
      <trkpt lat="50.33809" lon="4.74499">
        <ele>245.675</ele>
        <time>2015-12-13T09:44:24Z</time>
      </trkpt>
      <trkpt lat="50.33809" lon="4.74497">
        <ele>245.696</ele>
        <time>2015-12-13T09:44:25Z</time>
      </trkpt>
      <trkpt lat="50.3381" lon="4.74492">
        <ele>245.783</ele>
        <time>2015-12-13T09:44:27Z</time>
      </trkpt>
      <trkpt lat="50.33828" lon="4.74453">
        <ele>244.565</ele>
        <time>2015-12-13T09:44:41Z</time>
      </trkpt>
      <trkpt lat="50.33835" lon="4.74435">
        <ele>244.157</ele>
        <time>2015-12-13T09:44:47Z</time>
      </trkpt>
      <trkpt lat="50.33841" lon="4.74419">
        <ele>243.875</ele>
        <time>2015-12-13T09:44:56Z</time>
      </trkpt>
      <trkpt lat="50.33855" lon="4.74379">
        <ele>241.72</ele>
        <time>2015-12-13T09:45:09Z</time>
      </trkpt>
      <trkpt lat="50.33871" lon="4.74338">
        <ele>237.827</ele>
        <time>2015-12-13T09:45:20Z</time>
      </trkpt>
      <trkpt lat="50.33893" lon="4.7432">
        <ele>235.166</ele>
        <time>2015-12-13T09:45:29Z</time>
      </trkpt>
      <trkpt lat="50.33921" lon="4.74298">
        <ele>233.489</ele>
        <time>2015-12-13T09:45:41Z</time>
      </trkpt>
      <trkpt lat="50.33944" lon="4.7428">
        <ele>231.059</ele>
        <time>2015-12-13T09:45:53Z</time>
      </trkpt>
      <trkpt lat="50.33976" lon="4.74252">
        <ele>227.807</ele>
        <time>2015-12-13T09:46:06Z</time>
      </trkpt>
      <trkpt lat="50.34002" lon="4.74231">
        <ele>225.192</ele>
        <time>2015-12-13T09:46:18Z</time>
      </trkpt>
      <trkpt lat="50.34047" lon="4.74191">
        <ele>224.685</ele>
        <time>2015-12-13T09:46:36Z</time>
      </trkpt>
      <trkpt lat="50.34097" lon="4.7418">
        <ele>223.515</ele>
        <time>2015-12-13T09:46:50Z</time>
      </trkpt>
      <trkpt lat="50.34148" lon="4.74165">
        <ele>224.017</ele>
        <time>2015-12-13T09:47:05Z</time>
      </trkpt>
      <trkpt lat="50.34179" lon="4.7415">
        <ele>224.607</ele>
        <time>2015-12-13T09:47:18Z</time>
      </trkpt>
      <trkpt lat="50.34219" lon="4.74134">
        <ele>223.261</ele>
        <time>2015-12-13T09:47:32Z</time>
      </trkpt>
      <trkpt lat="50.34239" lon="4.74126">
        <ele>222.121</ele>
        <time>2015-12-13T09:47:38Z</time>
      </trkpt>
      <trkpt lat="50.34269" lon="4.74095">
        <ele>220.727</ele>
        <time>2015-12-13T09:47:50Z</time>
      </trkpt>
      <trkpt lat="50.34279" lon="4.74077">
        <ele>220.907</ele>
        <time>2015-12-13T09:47:56Z</time>
      </trkpt>
      <trkpt lat="50.34281" lon="4.74077">
        <ele>220.644</ele>
        <time>2015-12-13T09:47:57Z</time>
      </trkpt>
      <trkpt lat="50.34282" lon="4.74077">
        <ele>220.385</ele>
        <time>2015-12-13T09:47:58Z</time>
      </trkpt>
      <trkpt lat="50.34284" lon="4.74078">
        <ele>220.05</ele>
        <time>2015-12-13T09:47:59Z</time>
      </trkpt>
      <trkpt lat="50.34286" lon="4.7408">
        <ele>219.651</ele>
        <time>2015-12-13T09:48:00Z</time>
      </trkpt>
      <trkpt lat="50.34288" lon="4.74082">
        <ele>219.168</ele>
        <time>2015-12-13T09:48:01Z</time>
      </trkpt>
      <trkpt lat="50.3429" lon="4.74085">
        <ele>218.642</ele>
        <time>2015-12-13T09:48:02Z</time>
      </trkpt>
      <trkpt lat="50.34292" lon="4.74089">
        <ele>218.067</ele>
        <time>2015-12-13T09:48:03Z</time>
      </trkpt>
      <trkpt lat="50.34294" lon="4.74093">
        <ele>217.537</ele>
        <time>2015-12-13T09:48:04Z</time>
      </trkpt>
      <trkpt lat="50.34308" lon="4.74122">
        <ele>215.227</ele>
        <time>2015-12-13T09:48:14Z</time>
      </trkpt>
      <trkpt lat="50.34328" lon="4.74164">
        <ele>215.288</ele>
        <time>2015-12-13T09:48:27Z</time>
      </trkpt>
      <trkpt lat="50.34334" lon="4.74177">
        <ele>215.377</ele>
        <time>2015-12-13T09:48:44Z</time>
      </trkpt>
      <trkpt lat="50.3436" lon="4.74236">
        <ele>216.081</ele>
        <time>2015-12-13T09:48:59Z</time>
      </trkpt>
      <trkpt lat="50.34379" lon="4.7428">
        <ele>214.949</ele>
        <time>2015-12-13T09:49:11Z</time>
      </trkpt>
      <trkpt lat="50.34403" lon="4.74345">
        <ele>213.501</ele>
        <time>2015-12-13T09:49:26Z</time>
      </trkpt>
      <trkpt lat="50.34431" lon="4.74416">
        <ele>212</ele>
        <time>2015-12-13T09:49:42Z</time>
      </trkpt>
      <trkpt lat="50.34444" lon="4.74469">
        <ele>213</ele>
        <time>2015-12-13T09:49:54Z</time>
      </trkpt>
      <trkpt lat="50.34443" lon="4.74474">
        <ele>213.057</ele>
        <time>2015-12-13T09:49:56Z</time>
      </trkpt>
      <trkpt lat="50.34443" lon="4.74475">
        <ele>213.104</ele>
        <time>2015-12-13T09:50:33Z</time>
      </trkpt>
      <trkpt lat="50.34445" lon="4.74477">
        <ele>213.163</ele>
        <time>2015-12-13T09:50:34Z</time>
      </trkpt>
      <trkpt lat="50.34446" lon="4.74479">
        <ele>213.286</ele>
        <time>2015-12-13T09:50:35Z</time>
      </trkpt>
      <trkpt lat="50.34448" lon="4.74481">
        <ele>213.437</ele>
        <time>2015-12-13T09:50:36Z</time>
      </trkpt>
      <trkpt lat="50.34449" lon="4.74484">
        <ele>213.599</ele>
        <time>2015-12-13T09:50:37Z</time>
      </trkpt>
      <trkpt lat="50.34451" lon="4.74487">
        <ele>213.768</ele>
        <time>2015-12-13T09:50:38Z</time>
      </trkpt>
      <trkpt lat="50.34452" lon="4.74491">
        <ele>213.944</ele>
        <time>2015-12-13T09:50:39Z</time>
      </trkpt>
      <trkpt lat="50.34464" lon="4.74535">
        <ele>215.246</ele>
        <time>2015-12-13T09:50:50Z</time>
      </trkpt>
      <trkpt lat="50.34478" lon="4.74612">
        <ele>215.742</ele>
        <time>2015-12-13T09:51:05Z</time>
      </trkpt>
      <trkpt lat="50.34479" lon="4.74659">
        <ele>214.028</ele>
        <time>2015-12-13T09:51:15Z</time>
      </trkpt>
      <trkpt lat="50.34479" lon="4.74661">
        <ele>213.949</ele>
        <time>2015-12-13T09:51:16Z</time>
      </trkpt>
      <trkpt lat="50.34491" lon="4.74743">
        <ele>212.626</ele>
        <time>2015-12-13T09:51:34Z</time>
      </trkpt>
      <trkpt lat="50.34493" lon="4.74783">
        <ele>211.465</ele>
        <time>2015-12-13T09:51:41Z</time>
      </trkpt>
      <trkpt lat="50.34497" lon="4.74849">
        <ele>211</ele>
        <time>2015-12-13T09:51:55Z</time>
      </trkpt>
      <trkpt lat="50.34508" lon="4.74892">
        <ele>210.719</ele>
        <time>2015-12-13T09:52:07Z</time>
      </trkpt>
      <trkpt lat="50.34518" lon="4.74938">
        <ele>211.138</ele>
        <time>2015-12-13T09:52:20Z</time>
      </trkpt>
      <trkpt lat="50.34528" lon="4.74973">
        <ele>211.965</ele>
        <time>2015-12-13T09:52:31Z</time>
      </trkpt>
      <trkpt lat="50.34552" lon="4.74978">
        <ele>210.257</ele>
        <time>2015-12-13T09:52:43Z</time>
      </trkpt>
      <trkpt lat="50.34554" lon="4.74979">
        <ele>210.101</ele>
        <time>2015-12-13T09:52:44Z</time>
      </trkpt>
      <trkpt lat="50.34569" lon="4.74983">
        <ele>209.819</ele>
        <time>2015-12-13T09:52:55Z</time>
      </trkpt>
      <trkpt lat="50.34576" lon="4.74981">
        <ele>209.781</ele>
        <time>2015-12-13T09:53:05Z</time>
      </trkpt>
      <trkpt lat="50.34584" lon="4.7498">
        <ele>209.715</ele>
        <time>2015-12-13T09:53:18Z</time>
      </trkpt>
      <trkpt lat="50.34596" lon="4.7498">
        <ele>210.165</ele>
        <time>2015-12-13T09:53:29Z</time>
      </trkpt>
      <trkpt lat="50.34608" lon="4.7498">
        <ele>210.583</ele>
        <time>2015-12-13T09:53:40Z</time>
      </trkpt>
      <trkpt lat="50.3461" lon="4.7498">
        <ele>210.684</ele>
        <time>2015-12-13T09:53:43Z</time>
      </trkpt>
      <trkpt lat="50.34614" lon="4.7498">
        <ele>211.064</ele>
        <time>2015-12-13T09:53:48Z</time>
      </trkpt>
      <trkpt lat="50.34617" lon="4.74979">
        <ele>211.446</ele>
        <time>2015-12-13T09:53:52Z</time>
      </trkpt>
      <trkpt lat="50.34622" lon="4.74975">
        <ele>212.112</ele>
        <time>2015-12-13T09:53:57Z</time>
      </trkpt>
      <trkpt lat="50.34631" lon="4.74967">
        <ele>213.322</ele>
        <time>2015-12-13T09:54:12Z</time>
      </trkpt>
      <trkpt lat="50.34631" lon="4.74967">
        <ele>213.386</ele>
        <time>2015-12-13T09:54:16Z</time>
      </trkpt>
      <trkpt lat="50.34633" lon="4.74968">
        <ele>213.52</ele>
        <time>2015-12-13T09:54:28Z</time>
      </trkpt>
      <trkpt lat="50.34654" lon="4.74999">
        <ele>213.067</ele>
        <time>2015-12-13T09:54:41Z</time>
      </trkpt>
      <trkpt lat="50.34671" lon="4.75038">
        <ele>211.406</ele>
        <time>2015-12-13T09:54:50Z</time>
      </trkpt>
      <trkpt lat="50.34703" lon="4.75133">
        <ele>210.609</ele>
        <time>2015-12-13T09:55:02Z</time>
      </trkpt>
      <trkpt lat="50.34735" lon="4.75253">
        <ele>209.458</ele>
        <time>2015-12-13T09:55:15Z</time>
      </trkpt>
      <trkpt lat="50.34737" lon="4.75262">
        <ele>209.266</ele>
        <time>2015-12-13T09:55:16Z</time>
      </trkpt>
      <trkpt lat="50.34738" lon="4.75289">
        <ele>209</ele>
        <time>2015-12-13T09:55:19Z</time>
      </trkpt>
      <trkpt lat="50.34738" lon="4.75335">
        <ele>209.575</ele>
        <time>2015-12-13T09:55:24Z</time>
      </trkpt>
      <trkpt lat="50.34739" lon="4.75343">
        <ele>209.6</ele>
        <time>2015-12-13T09:55:25Z</time>
      </trkpt>
      <trkpt lat="50.3474" lon="4.75352">
        <ele>209.636</ele>
        <time>2015-12-13T09:55:26Z</time>
      </trkpt>
      <trkpt lat="50.34741" lon="4.7536">
        <ele>209.69</ele>
        <time>2015-12-13T09:55:27Z</time>
      </trkpt>
      <trkpt lat="50.34743" lon="4.75368">
        <ele>209.752</ele>
        <time>2015-12-13T09:55:28Z</time>
      </trkpt>
      <trkpt lat="50.34771" lon="4.75466">
        <ele>209.226</ele>
        <time>2015-12-13T09:55:40Z</time>
      </trkpt>
      <trkpt lat="50.34836" lon="4.75615">
        <ele>210.844</ele>
        <time>2015-12-13T09:56:00Z</time>
      </trkpt>
      <trkpt lat="50.34911" lon="4.75776">
        <ele>208.188</ele>
        <time>2015-12-13T09:56:23Z</time>
      </trkpt>
      <trkpt lat="50.34968" lon="4.75909">
        <ele>210.844</ele>
        <time>2015-12-13T09:56:42Z</time>
      </trkpt>
      <trkpt lat="50.34996" lon="4.76045">
        <ele>213.778</ele>
        <time>2015-12-13T09:56:59Z</time>
      </trkpt>
      <trkpt lat="50.34996" lon="4.76091">
        <ele>215.409</ele>
        <time>2015-12-13T09:57:05Z</time>
      </trkpt>
      <trkpt lat="50.34996" lon="4.76126">
        <ele>216.133</ele>
        <time>2015-12-13T09:57:10Z</time>
      </trkpt>
      <trkpt lat="50.34995" lon="4.76139">
        <ele>216.162</ele>
        <time>2015-12-13T09:57:12Z</time>
      </trkpt>
      <trkpt lat="50.34996" lon="4.76146">
        <ele>216.362</ele>
        <time>2015-12-13T09:57:13Z</time>
      </trkpt>
      <trkpt lat="50.34995" lon="4.76152">
        <ele>216.567</ele>
        <time>2015-12-13T09:57:14Z</time>
      </trkpt>
      <trkpt lat="50.34995" lon="4.76198">
        <ele>217.11</ele>
        <time>2015-12-13T09:57:21Z</time>
      </trkpt>
      <trkpt lat="50.34996" lon="4.7629">
        <ele>218.223</ele>
        <time>2015-12-13T09:57:37Z</time>
      </trkpt>
      <trkpt lat="50.35002" lon="4.76363">
        <ele>219.054</ele>
        <time>2015-12-13T09:57:51Z</time>
      </trkpt>
      <trkpt lat="50.35015" lon="4.76448">
        <ele>221.472</ele>
        <time>2015-12-13T09:58:07Z</time>
      </trkpt>
      <trkpt lat="50.3503" lon="4.76547">
        <ele>221.678</ele>
        <time>2015-12-13T09:58:24Z</time>
      </trkpt>
      <trkpt lat="50.35043" lon="4.76634">
        <ele>224</ele>
        <time>2015-12-13T09:58:39Z</time>
      </trkpt>
      <trkpt lat="50.3507" lon="4.76753">
        <ele>226.628</ele>
        <time>2015-12-13T09:59:00Z</time>
      </trkpt>
      <trkpt lat="50.35084" lon="4.76829">
        <ele>228</ele>
        <time>2015-12-13T09:59:13Z</time>
      </trkpt>
      <trkpt lat="50.35082" lon="4.76834">
        <ele>227.966</ele>
        <time>2015-12-13T09:59:14Z</time>
      </trkpt>
      <trkpt lat="50.3508" lon="4.76838">
        <ele>227.866</ele>
        <time>2015-12-13T09:59:15Z</time>
      </trkpt>
      <trkpt lat="50.35076" lon="4.76842">
        <ele>227.74</ele>
        <time>2015-12-13T09:59:16Z</time>
      </trkpt>
      <trkpt lat="50.35072" lon="4.76845">
        <ele>227.606</ele>
        <time>2015-12-13T09:59:17Z</time>
      </trkpt>
      <trkpt lat="50.35069" lon="4.76848">
        <ele>227.466</ele>
        <time>2015-12-13T09:59:18Z</time>
      </trkpt>
      <trkpt lat="50.35065" lon="4.76851">
        <ele>227.333</ele>
        <time>2015-12-13T09:59:19Z</time>
      </trkpt>
      <trkpt lat="50.35007" lon="4.76885">
        <ele>227.09</ele>
        <time>2015-12-13T09:59:34Z</time>
      </trkpt>
      <trkpt lat="50.35002" lon="4.76887">
        <ele>227.018</ele>
        <time>2015-12-13T09:59:35Z</time>
      </trkpt>
      <trkpt lat="50.34991" lon="4.76894">
        <ele>226.86</ele>
        <time>2015-12-13T09:59:38Z</time>
      </trkpt>
      <trkpt lat="50.34926" lon="4.7694">
        <ele>227.847</ele>
        <time>2015-12-13T09:59:56Z</time>
      </trkpt>
      <trkpt lat="50.34874" lon="4.77004">
        <ele>229</ele>
        <time>2015-12-13T10:00:13Z</time>
      </trkpt>
      <trkpt lat="50.34847" lon="4.77043">
        <ele>229</ele>
        <time>2015-12-13T10:00:22Z</time>
      </trkpt>
      <trkpt lat="50.34844" lon="4.77048">
        <ele>229</ele>
        <time>2015-12-13T10:00:23Z</time>
      </trkpt>
      <trkpt lat="50.34841" lon="4.77052">
        <ele>229</ele>
        <time>2015-12-13T10:00:24Z</time>
      </trkpt>
      <trkpt lat="50.34838" lon="4.77056">
        <ele>228.995</ele>
        <time>2015-12-13T10:00:25Z</time>
      </trkpt>
      <trkpt lat="50.34835" lon="4.77061">
        <ele>228.986</ele>
        <time>2015-12-13T10:00:26Z</time>
      </trkpt>
      <trkpt lat="50.34778" lon="4.77133">
        <ele>227.023</ele>
        <time>2015-12-13T10:00:43Z</time>
      </trkpt>
      <trkpt lat="50.34714" lon="4.77199">
        <ele>223.544</ele>
        <time>2015-12-13T10:00:59Z</time>
      </trkpt>
      <trkpt lat="50.34662" lon="4.77239">
        <ele>219.818</ele>
        <time>2015-12-13T10:01:09Z</time>
      </trkpt>
      <trkpt lat="50.34603" lon="4.77283">
        <ele>218.462</ele>
        <time>2015-12-13T10:01:20Z</time>
      </trkpt>
      <trkpt lat="50.34511" lon="4.77347">
        <ele>213.702</ele>
        <time>2015-12-13T10:01:36Z</time>
      </trkpt>
      <trkpt lat="50.34458" lon="4.7738">
        <ele>210.667</ele>
        <time>2015-12-13T10:01:45Z</time>
      </trkpt>
      <trkpt lat="50.34453" lon="4.77383">
        <ele>210.767</ele>
        <time>2015-12-13T10:01:46Z</time>
      </trkpt>
      <trkpt lat="50.34432" lon="4.774">
        <ele>210.156</ele>
        <time>2015-12-13T10:01:50Z</time>
      </trkpt>
      <trkpt lat="50.34428" lon="4.77407">
        <ele>209.778</ele>
        <time>2015-12-13T10:01:51Z</time>
      </trkpt>
      <trkpt lat="50.34426" lon="4.77415">
        <ele>209.392</ele>
        <time>2015-12-13T10:01:52Z</time>
      </trkpt>
      <trkpt lat="50.34424" lon="4.77423">
        <ele>209.018</ele>
        <time>2015-12-13T10:01:53Z</time>
      </trkpt>
      <trkpt lat="50.34424" lon="4.77433">
        <ele>208.672</ele>
        <time>2015-12-13T10:01:54Z</time>
      </trkpt>
      <trkpt lat="50.34425" lon="4.77442">
        <ele>208.37</ele>
        <time>2015-12-13T10:01:55Z</time>
      </trkpt>
      <trkpt lat="50.34427" lon="4.77452">
        <ele>208.1</ele>
        <time>2015-12-13T10:01:56Z</time>
      </trkpt>
      <trkpt lat="50.34429" lon="4.77461">
        <ele>207.83</ele>
        <time>2015-12-13T10:01:57Z</time>
      </trkpt>
      <trkpt lat="50.34432" lon="4.77481">
        <ele>207.119</ele>
        <time>2015-12-13T10:01:59Z</time>
      </trkpt>
      <trkpt lat="50.34434" lon="4.77491">
        <ele>206.705</ele>
        <time>2015-12-13T10:02:00Z</time>
      </trkpt>
      <trkpt lat="50.34442" lon="4.77554">
        <ele>205.898</ele>
        <time>2015-12-13T10:02:07Z</time>
      </trkpt>
      <trkpt lat="50.34443" lon="4.77562">
        <ele>205.86</ele>
        <time>2015-12-13T10:02:08Z</time>
      </trkpt>
      <trkpt lat="50.34442" lon="4.77569">
        <ele>205.838</ele>
        <time>2015-12-13T10:02:09Z</time>
      </trkpt>
      <trkpt lat="50.34441" lon="4.77575">
        <ele>205.781</ele>
        <time>2015-12-13T10:02:10Z</time>
      </trkpt>
      <trkpt lat="50.3444" lon="4.77582">
        <ele>205.694</ele>
        <time>2015-12-13T10:02:11Z</time>
      </trkpt>
      <trkpt lat="50.34439" lon="4.77588">
        <ele>205.441</ele>
        <time>2015-12-13T10:02:12Z</time>
      </trkpt>
      <trkpt lat="50.34424" lon="4.77613">
        <ele>204.422</ele>
        <time>2015-12-13T10:02:17Z</time>
      </trkpt>
      <trkpt lat="50.3442" lon="4.77618">
        <ele>204.634</ele>
        <time>2015-12-13T10:02:18Z</time>
      </trkpt>
      <trkpt lat="50.34417" lon="4.77623">
        <ele>204.878</ele>
        <time>2015-12-13T10:02:19Z</time>
      </trkpt>
      <trkpt lat="50.34413" lon="4.77628">
        <ele>205.205</ele>
        <time>2015-12-13T10:02:20Z</time>
      </trkpt>
      <trkpt lat="50.34409" lon="4.77633">
        <ele>205.419</ele>
        <time>2015-12-13T10:02:21Z</time>
      </trkpt>
      <trkpt lat="50.34406" lon="4.77637">
        <ele>205.526</ele>
        <time>2015-12-13T10:02:22Z</time>
      </trkpt>
      <trkpt lat="50.34403" lon="4.77641">
        <ele>205.623</ele>
        <time>2015-12-13T10:02:23Z</time>
      </trkpt>
      <trkpt lat="50.344" lon="4.77646">
        <ele>205.766</ele>
        <time>2015-12-13T10:02:24Z</time>
      </trkpt>
      <trkpt lat="50.34398" lon="4.77651">
        <ele>205.923</ele>
        <time>2015-12-13T10:02:25Z</time>
      </trkpt>
      <trkpt lat="50.34397" lon="4.77655">
        <ele>206.071</ele>
        <time>2015-12-13T10:02:26Z</time>
      </trkpt>
      <trkpt lat="50.34396" lon="4.77659">
        <ele>206.19</ele>
        <time>2015-12-13T10:02:27Z</time>
      </trkpt>
      <trkpt lat="50.34395" lon="4.77663">
        <ele>206.261</ele>
        <time>2015-12-13T10:02:28Z</time>
      </trkpt>
      <trkpt lat="50.34394" lon="4.77666">
        <ele>206.318</ele>
        <time>2015-12-13T10:02:29Z</time>
      </trkpt>
      <trkpt lat="50.34393" lon="4.77669">
        <ele>206.39</ele>
        <time>2015-12-13T10:02:30Z</time>
      </trkpt>
      <trkpt lat="50.34392" lon="4.77673">
        <ele>206.461</ele>
        <time>2015-12-13T10:02:31Z</time>
      </trkpt>
      <trkpt lat="50.34392" lon="4.77677">
        <ele>206.569</ele>
        <time>2015-12-13T10:02:32Z</time>
      </trkpt>
      <trkpt lat="50.34393" lon="4.7768">
        <ele>206.704</ele>
        <time>2015-12-13T10:02:33Z</time>
      </trkpt>
      <trkpt lat="50.34394" lon="4.77696">
        <ele>207.229</ele>
        <time>2015-12-13T10:02:45Z</time>
      </trkpt>
      <trkpt lat="50.34394" lon="4.77699">
        <ele>207.334</ele>
        <time>2015-12-13T10:04:04Z</time>
      </trkpt>
      <trkpt lat="50.34393" lon="4.77702">
        <ele>207.416</ele>
        <time>2015-12-13T10:04:05Z</time>
      </trkpt>
      <trkpt lat="50.34393" lon="4.77706">
        <ele>207.546</ele>
        <time>2015-12-13T10:04:07Z</time>
      </trkpt>
      <trkpt lat="50.34393" lon="4.77718">
        <ele>207.971</ele>
        <time>2015-12-13T10:04:14Z</time>
      </trkpt>
      <trkpt lat="50.34393" lon="4.77721">
        <ele>208.097</ele>
        <time>2015-12-13T10:04:15Z</time>
      </trkpt>
      <trkpt lat="50.34393" lon="4.77724">
        <ele>208.066</ele>
        <time>2015-12-13T10:04:16Z</time>
      </trkpt>
      <trkpt lat="50.34392" lon="4.77727">
        <ele>207.918</ele>
        <time>2015-12-13T10:04:17Z</time>
      </trkpt>
      <trkpt lat="50.34392" lon="4.77731">
        <ele>207.796</ele>
        <time>2015-12-13T10:04:18Z</time>
      </trkpt>
      <trkpt lat="50.34392" lon="4.77735">
        <ele>207.648</ele>
        <time>2015-12-13T10:04:19Z</time>
      </trkpt>
      <trkpt lat="50.34392" lon="4.7774">
        <ele>207.486</ele>
        <time>2015-12-13T10:04:20Z</time>
      </trkpt>
      <trkpt lat="50.34391" lon="4.77745">
        <ele>207.285</ele>
        <time>2015-12-13T10:04:21Z</time>
      </trkpt>
      <trkpt lat="50.34391" lon="4.7775">
        <ele>207.08</ele>
        <time>2015-12-13T10:04:22Z</time>
      </trkpt>
      <trkpt lat="50.3439" lon="4.77755">
        <ele>206.871</ele>
        <time>2015-12-13T10:04:23Z</time>
      </trkpt>
      <trkpt lat="50.34391" lon="4.77799">
        <ele>206.09</ele>
        <time>2015-12-13T10:04:32Z</time>
      </trkpt>
      <trkpt lat="50.34402" lon="4.77856">
        <ele>206.922</ele>
        <time>2015-12-13T10:04:43Z</time>
      </trkpt>
      <trkpt lat="50.34404" lon="4.77868">
        <ele>206.994</ele>
        <time>2015-12-13T10:05:09Z</time>
      </trkpt>
      <trkpt lat="50.34405" lon="4.77869">
        <ele>207.061</ele>
        <time>2015-12-13T10:05:10Z</time>
      </trkpt>
      <trkpt lat="50.34411" lon="4.77882">
        <ele>207.442</ele>
        <time>2015-12-13T10:05:15Z</time>
      </trkpt>
      <trkpt lat="50.34411" lon="4.7789">
        <ele>207.325</ele>
        <time>2015-12-13T10:05:16Z</time>
      </trkpt>
      <trkpt lat="50.3441" lon="4.779">
        <ele>206.976</ele>
        <time>2015-12-13T10:05:17Z</time>
      </trkpt>
      <trkpt lat="50.34409" lon="4.77929">
        <ele>205.979</ele>
        <time>2015-12-13T10:05:19Z</time>
      </trkpt>
      <trkpt lat="50.34396" lon="4.78036">
        <ele>209.634</ele>
        <time>2015-12-13T10:05:28Z</time>
      </trkpt>
      <trkpt lat="50.34394" lon="4.78047">
        <ele>210.725</ele>
        <time>2015-12-13T10:05:29Z</time>
      </trkpt>
      <trkpt lat="50.34394" lon="4.78058">
        <ele>211.581</ele>
        <time>2015-12-13T10:05:30Z</time>
      </trkpt>
      <trkpt lat="50.34394" lon="4.78077">
        <ele>211.654</ele>
        <time>2015-12-13T10:05:32Z</time>
      </trkpt>
      <trkpt lat="50.34387" lon="4.78122">
        <ele>210.839</ele>
        <time>2015-12-13T10:05:38Z</time>
      </trkpt>
      <trkpt lat="50.34387" lon="4.78131">
        <ele>210.742</ele>
        <time>2015-12-13T10:05:39Z</time>
      </trkpt>
      <trkpt lat="50.34386" lon="4.78139">
        <ele>210.699</ele>
        <time>2015-12-13T10:05:40Z</time>
      </trkpt>
      <trkpt lat="50.34387" lon="4.78146">
        <ele>210.511</ele>
        <time>2015-12-13T10:05:41Z</time>
      </trkpt>
      <trkpt lat="50.34387" lon="4.78153">
        <ele>210.345</ele>
        <time>2015-12-13T10:05:42Z</time>
      </trkpt>
      <trkpt lat="50.34388" lon="4.78161">
        <ele>210.119</ele>
        <time>2015-12-13T10:05:43Z</time>
      </trkpt>
      <trkpt lat="50.34388" lon="4.78167">
        <ele>209.949</ele>
        <time>2015-12-13T10:05:44Z</time>
      </trkpt>
      <trkpt lat="50.34388" lon="4.78172">
        <ele>210.123</ele>
        <time>2015-12-13T10:05:45Z</time>
      </trkpt>
      <trkpt lat="50.34389" lon="4.78178">
        <ele>210.401</ele>
        <time>2015-12-13T10:05:46Z</time>
      </trkpt>
      <trkpt lat="50.34392" lon="4.78208">
        <ele>211.832</ele>
        <time>2015-12-13T10:05:52Z</time>
      </trkpt>
      <trkpt lat="50.34392" lon="4.78218">
        <ele>212.087</ele>
        <time>2015-12-13T10:05:54Z</time>
      </trkpt>
      <trkpt lat="50.34391" lon="4.78226">
        <ele>211.909</ele>
        <time>2015-12-13T10:05:55Z</time>
      </trkpt>
      <trkpt lat="50.3439" lon="4.78233">
        <ele>211.326</ele>
        <time>2015-12-13T10:05:56Z</time>
      </trkpt>
      <trkpt lat="50.34389" lon="4.78247">
        <ele>210.238</ele>
        <time>2015-12-13T10:05:58Z</time>
      </trkpt>
      <trkpt lat="50.34389" lon="4.78349">
        <ele>205.03</ele>
        <time>2015-12-13T10:06:09Z</time>
      </trkpt>
      <trkpt lat="50.34386" lon="4.78426">
        <ele>204.912</ele>
        <time>2015-12-13T10:06:17Z</time>
      </trkpt>
      <trkpt lat="50.34383" lon="4.7844">
        <ele>204.873</ele>
        <time>2015-12-13T10:06:18Z</time>
      </trkpt>
      <trkpt lat="50.34381" lon="4.78454">
        <ele>204.718</ele>
        <time>2015-12-13T10:06:19Z</time>
      </trkpt>
      <trkpt lat="50.34378" lon="4.78466">
        <ele>204.426</ele>
        <time>2015-12-13T10:06:20Z</time>
      </trkpt>
      <trkpt lat="50.34374" lon="4.78481">
        <ele>203.969</ele>
        <time>2015-12-13T10:06:21Z</time>
      </trkpt>
      <trkpt lat="50.34369" lon="4.78495">
        <ele>203.229</ele>
        <time>2015-12-13T10:06:22Z</time>
      </trkpt>
      <trkpt lat="50.34365" lon="4.78505">
        <ele>202.313</ele>
        <time>2015-12-13T10:06:23Z</time>
      </trkpt>
      <trkpt lat="50.34361" lon="4.78513">
        <ele>201.502</ele>
        <time>2015-12-13T10:06:24Z</time>
      </trkpt>
      <trkpt lat="50.34358" lon="4.78521">
        <ele>200.722</ele>
        <time>2015-12-13T10:06:25Z</time>
      </trkpt>
      <trkpt lat="50.34345" lon="4.78559">
        <ele>199.521</ele>
        <time>2015-12-13T10:06:29Z</time>
      </trkpt>
      <trkpt lat="50.34335" lon="4.78616">
        <ele>199.677</ele>
        <time>2015-12-13T10:06:36Z</time>
      </trkpt>
      <trkpt lat="50.34329" lon="4.78651">
        <ele>199.826</ele>
        <time>2015-12-13T10:06:41Z</time>
      </trkpt>
      <trkpt lat="50.34325" lon="4.78691">
        <ele>199.757</ele>
        <time>2015-12-13T10:06:46Z</time>
      </trkpt>
      <trkpt lat="50.34325" lon="4.78698">
        <ele>199.742</ele>
        <time>2015-12-13T10:06:47Z</time>
      </trkpt>
      <trkpt lat="50.34325" lon="4.78704">
        <ele>199.742</ele>
        <time>2015-12-13T10:06:48Z</time>
      </trkpt>
      <trkpt lat="50.34322" lon="4.78744">
        <ele>199.821</ele>
        <time>2015-12-13T10:06:55Z</time>
      </trkpt>
      <trkpt lat="50.34323" lon="4.78755">
        <ele>200.402</ele>
        <time>2015-12-13T10:06:58Z</time>
      </trkpt>
      <trkpt lat="50.34324" lon="4.7876">
        <ele>200.805</ele>
        <time>2015-12-13T10:06:59Z</time>
      </trkpt>
      <trkpt lat="50.34325" lon="4.78765">
        <ele>201.362</ele>
        <time>2015-12-13T10:07:00Z</time>
      </trkpt>
      <trkpt lat="50.34325" lon="4.78771">
        <ele>201.783</ele>
        <time>2015-12-13T10:07:01Z</time>
      </trkpt>
      <trkpt lat="50.34325" lon="4.78778">
        <ele>202.29</ele>
        <time>2015-12-13T10:07:02Z</time>
      </trkpt>
      <trkpt lat="50.34326" lon="4.78784">
        <ele>202.556</ele>
        <time>2015-12-13T10:07:03Z</time>
      </trkpt>
      <trkpt lat="50.34326" lon="4.78789">
        <ele>202.783</ele>
        <time>2015-12-13T10:07:04Z</time>
      </trkpt>
      <trkpt lat="50.34326" lon="4.78794">
        <ele>202.88</ele>
        <time>2015-12-13T10:07:05Z</time>
      </trkpt>
      <trkpt lat="50.34326" lon="4.78798">
        <ele>203.033</ele>
        <time>2015-12-13T10:07:06Z</time>
      </trkpt>
      <trkpt lat="50.34327" lon="4.78803">
        <ele>203.242</ele>
        <time>2015-12-13T10:07:07Z</time>
      </trkpt>
      <trkpt lat="50.34327" lon="4.78825">
        <ele>204.104</ele>
        <time>2015-12-13T10:07:10Z</time>
      </trkpt>
      <trkpt lat="50.34329" lon="4.78847">
        <ele>204.958</ele>
        <time>2015-12-13T10:07:12Z</time>
      </trkpt>
      <trkpt lat="50.34331" lon="4.78859">
        <ele>205.336</ele>
        <time>2015-12-13T10:07:13Z</time>
      </trkpt>
      <trkpt lat="50.34332" lon="4.78869">
        <ele>205.318</ele>
        <time>2015-12-13T10:07:14Z</time>
      </trkpt>
      <trkpt lat="50.34335" lon="4.78925">
        <ele>204.873</ele>
        <time>2015-12-13T10:07:21Z</time>
      </trkpt>
      <trkpt lat="50.34336" lon="4.7894">
        <ele>204.363</ele>
        <time>2015-12-13T10:07:23Z</time>
      </trkpt>
      <trkpt lat="50.34339" lon="4.78976">
        <ele>202.555</ele>
        <time>2015-12-13T10:07:28Z</time>
      </trkpt>
      <trkpt lat="50.34337" lon="4.78996">
        <ele>200.975</ele>
        <time>2015-12-13T10:07:30Z</time>
      </trkpt>
      <trkpt lat="50.34334" lon="4.79048">
        <ele>196.677</ele>
        <time>2015-12-13T10:07:36Z</time>
      </trkpt>
      <trkpt lat="50.34333" lon="4.79058">
        <ele>196.091</ele>
        <time>2015-12-13T10:07:37Z</time>
      </trkpt>
      <trkpt lat="50.34332" lon="4.79074">
        <ele>196.551</ele>
        <time>2015-12-13T10:07:39Z</time>
      </trkpt>
      <trkpt lat="50.34336" lon="4.79165">
        <ele>198.469</ele>
        <time>2015-12-13T10:07:49Z</time>
      </trkpt>
      <trkpt lat="50.34336" lon="4.79249">
        <ele>191.52</ele>
        <time>2015-12-13T10:07:59Z</time>
      </trkpt>
      <trkpt lat="50.34334" lon="4.79281">
        <ele>187.954</ele>
        <time>2015-12-13T10:08:05Z</time>
      </trkpt>
      <trkpt lat="50.34333" lon="4.79284">
        <ele>187.728</ele>
        <time>2015-12-13T10:08:06Z</time>
      </trkpt>
      <trkpt lat="50.34331" lon="4.79287">
        <ele>187.519</ele>
        <time>2015-12-13T10:08:07Z</time>
      </trkpt>
      <trkpt lat="50.34329" lon="4.79289">
        <ele>187.342</ele>
        <time>2015-12-13T10:08:08Z</time>
      </trkpt>
      <trkpt lat="50.34327" lon="4.79291">
        <ele>187.149</ele>
        <time>2015-12-13T10:08:09Z</time>
      </trkpt>
      <trkpt lat="50.34291" lon="4.7932">
        <ele>185.748</ele>
        <time>2015-12-13T10:08:22Z</time>
      </trkpt>
      <trkpt lat="50.34261" lon="4.7936">
        <ele>184.681</ele>
        <time>2015-12-13T10:08:32Z</time>
      </trkpt>
      <trkpt lat="50.34227" lon="4.79412">
        <ele>184.792</ele>
        <time>2015-12-13T10:08:42Z</time>
      </trkpt>
      <trkpt lat="50.34178" lon="4.79446">
        <ele>187.779</ele>
        <time>2015-12-13T10:08:55Z</time>
      </trkpt>
      <trkpt lat="50.3414" lon="4.79465">
        <ele>193.916</ele>
        <time>2015-12-13T10:09:06Z</time>
      </trkpt>
      <trkpt lat="50.34103" lon="4.79496">
        <ele>198.448</ele>
        <time>2015-12-13T10:09:19Z</time>
      </trkpt>
      <trkpt lat="50.34101" lon="4.79499">
        <ele>198.849</ele>
        <time>2015-12-13T10:09:20Z</time>
      </trkpt>
      <trkpt lat="50.3409" lon="4.79547">
        <ele>198.255</ele>
        <time>2015-12-13T10:09:30Z</time>
      </trkpt>
      <trkpt lat="50.34078" lon="4.79604">
        <ele>200.534</ele>
        <time>2015-12-13T10:09:41Z</time>
      </trkpt>
      <trkpt lat="50.34049" lon="4.79654">
        <ele>205.78</ele>
        <time>2015-12-13T10:09:54Z</time>
      </trkpt>
      <trkpt lat="50.34019" lon="4.79695">
        <ele>208.361</ele>
        <time>2015-12-13T10:10:09Z</time>
      </trkpt>
      <trkpt lat="50.34006" lon="4.79706">
        <ele>209.2</ele>
        <time>2015-12-13T10:10:15Z</time>
      </trkpt>
      <trkpt lat="50.33993" lon="4.79716">
        <ele>209.842</ele>
        <time>2015-12-13T10:10:29Z</time>
      </trkpt>
      <trkpt lat="50.33991" lon="4.79716">
        <ele>209.841</ele>
        <time>2015-12-13T10:10:59Z</time>
      </trkpt>
      <trkpt lat="50.3399" lon="4.79714">
        <ele>209.816</ele>
        <time>2015-12-13T10:11:00Z</time>
      </trkpt>
      <trkpt lat="50.3399" lon="4.79712">
        <ele>209.768</ele>
        <time>2015-12-13T10:11:01Z</time>
      </trkpt>
      <trkpt lat="50.3399" lon="4.7971">
        <ele>209.71</ele>
        <time>2015-12-13T10:11:02Z</time>
      </trkpt>
      <trkpt lat="50.33989" lon="4.79707">
        <ele>209.652</ele>
        <time>2015-12-13T10:11:03Z</time>
      </trkpt>
      <trkpt lat="50.33988" lon="4.79704">
        <ele>209.622</ele>
        <time>2015-12-13T10:11:04Z</time>
      </trkpt>
      <trkpt lat="50.33959" lon="4.79654">
        <ele>210.706</ele>
        <time>2015-12-13T10:11:21Z</time>
      </trkpt>
      <trkpt lat="50.33938" lon="4.79626">
        <ele>212.218</ele>
        <time>2015-12-13T10:11:31Z</time>
      </trkpt>
      <trkpt lat="50.33932" lon="4.79612">
        <ele>212.43</ele>
        <time>2015-12-13T10:11:36Z</time>
      </trkpt>
      <trkpt lat="50.3393" lon="4.79611">
        <ele>212.543</ele>
        <time>2015-12-13T10:11:37Z</time>
      </trkpt>
      <trkpt lat="50.33927" lon="4.7961">
        <ele>212.73</ele>
        <time>2015-12-13T10:11:38Z</time>
      </trkpt>
      <trkpt lat="50.33901" lon="4.7961">
        <ele>213.644</ele>
        <time>2015-12-13T10:11:49Z</time>
      </trkpt>
      <trkpt lat="50.339" lon="4.79611">
        <ele>213.599</ele>
        <time>2015-12-13T10:11:50Z</time>
      </trkpt>
      <trkpt lat="50.33899" lon="4.79612">
        <ele>213.623</ele>
        <time>2015-12-13T10:11:51Z</time>
      </trkpt>
      <trkpt lat="50.33898" lon="4.79612">
        <ele>213.657</ele>
        <time>2015-12-13T10:11:52Z</time>
      </trkpt>
      <trkpt lat="50.33896" lon="4.79612">
        <ele>213.7</ele>
        <time>2015-12-13T10:11:53Z</time>
      </trkpt>
      <trkpt lat="50.33894" lon="4.79612">
        <ele>213.798</ele>
        <time>2015-12-13T10:11:55Z</time>
      </trkpt>
      <trkpt lat="50.3389" lon="4.7961">
        <ele>214.04</ele>
        <time>2015-12-13T10:11:59Z</time>
      </trkpt>
      <trkpt lat="50.33882" lon="4.79611">
        <ele>214.034</ele>
        <time>2015-12-13T10:12:04Z</time>
      </trkpt>
      <trkpt lat="50.3388" lon="4.79612">
        <ele>213.985</ele>
        <time>2015-12-13T10:12:05Z</time>
      </trkpt>
      <trkpt lat="50.33879" lon="4.79612">
        <ele>213.975</ele>
        <time>2015-12-13T10:12:06Z</time>
      </trkpt>
      <trkpt lat="50.33872" lon="4.79615">
        <ele>213.952</ele>
        <time>2015-12-13T10:12:11Z</time>
      </trkpt>
      <trkpt lat="50.33873" lon="4.79617">
        <ele>213.914</ele>
        <time>2015-12-13T10:12:22Z</time>
      </trkpt>
      <trkpt lat="50.33876" lon="4.79618">
        <ele>213.859</ele>
        <time>2015-12-13T10:12:31Z</time>
      </trkpt>
      <trkpt lat="50.3387" lon="4.79621">
        <ele>213.877</ele>
        <time>2015-12-13T10:12:40Z</time>
      </trkpt>
      <trkpt lat="50.33863" lon="4.7962">
        <ele>213.974</ele>
        <time>2015-12-13T10:12:50Z</time>
      </trkpt>
      <trkpt lat="50.33851" lon="4.79619">
        <ele>214.368</ele>
        <time>2015-12-13T10:13:00Z</time>
      </trkpt>
      <trkpt lat="50.33847" lon="4.79618">
        <ele>214.515</ele>
        <time>2015-12-13T10:13:03Z</time>
      </trkpt>
      <trkpt lat="50.33841" lon="4.79617">
        <ele>214.713</ele>
        <time>2015-12-13T10:13:10Z</time>
      </trkpt>
      <trkpt lat="50.33839" lon="4.79616">
        <ele>214.789</ele>
        <time>2015-12-13T10:13:11Z</time>
      </trkpt>
      <trkpt lat="50.33827" lon="4.79608">
        <ele>216.117</ele>
        <time>2015-12-13T10:13:20Z</time>
      </trkpt>
      <trkpt lat="50.33819" lon="4.79601">
        <ele>217.597</ele>
        <time>2015-12-13T10:13:32Z</time>
      </trkpt>
      <trkpt lat="50.33815" lon="4.79591">
        <ele>219.163</ele>
        <time>2015-12-13T10:13:39Z</time>
      </trkpt>
      <trkpt lat="50.33814" lon="4.7959">
        <ele>219.422</ele>
        <time>2015-12-13T10:13:40Z</time>
      </trkpt>
      <trkpt lat="50.33807" lon="4.79572">
        <ele>222.1</ele>
        <time>2015-12-13T10:13:52Z</time>
      </trkpt>
      <trkpt lat="50.338" lon="4.79551">
        <ele>224.26</ele>
        <time>2015-12-13T10:14:05Z</time>
      </trkpt>
      <trkpt lat="50.33797" lon="4.79547">
        <ele>224.544</ele>
        <time>2015-12-13T10:14:08Z</time>
      </trkpt>
      <trkpt lat="50.33792" lon="4.7953">
        <ele>225.384</ele>
        <time>2015-12-13T10:14:19Z</time>
      </trkpt>
      <trkpt lat="50.33784" lon="4.79511">
        <ele>225.504</ele>
        <time>2015-12-13T10:14:32Z</time>
      </trkpt>
      <trkpt lat="50.33772" lon="4.79489">
        <ele>226.869</ele>
        <time>2015-12-13T10:14:46Z</time>
      </trkpt>
      <trkpt lat="50.33771" lon="4.79487">
        <ele>227.312</ele>
        <time>2015-12-13T10:14:48Z</time>
      </trkpt>
      <trkpt lat="50.33761" lon="4.79473">
        <ele>229.985</ele>
        <time>2015-12-13T10:14:59Z</time>
      </trkpt>
      <trkpt lat="50.33749" lon="4.79465">
        <ele>232.171</ele>
        <time>2015-12-13T10:15:11Z</time>
      </trkpt>
      <trkpt lat="50.33748" lon="4.79463">
        <ele>232.582</ele>
        <time>2015-12-13T10:15:13Z</time>
      </trkpt>
      <trkpt lat="50.33747" lon="4.79462">
        <ele>232.813</ele>
        <time>2015-12-13T10:15:14Z</time>
      </trkpt>
      <trkpt lat="50.33733" lon="4.79453">
        <ele>235.234</ele>
        <time>2015-12-13T10:15:29Z</time>
      </trkpt>
      <trkpt lat="50.33732" lon="4.79452">
        <ele>235.429</ele>
        <time>2015-12-13T10:15:30Z</time>
      </trkpt>
      <trkpt lat="50.33716" lon="4.79436">
        <ele>236.815</ele>
        <time>2015-12-13T10:15:46Z</time>
      </trkpt>
      <trkpt lat="50.33706" lon="4.79424">
        <ele>236.096</ele>
        <time>2015-12-13T10:15:57Z</time>
      </trkpt>
      <trkpt lat="50.33696" lon="4.79413">
        <ele>235.2</ele>
        <time>2015-12-13T10:16:06Z</time>
      </trkpt>
      <trkpt lat="50.33694" lon="4.79412">
        <ele>234.98</ele>
        <time>2015-12-13T10:16:19Z</time>
      </trkpt>
      <trkpt lat="50.33692" lon="4.79409">
        <ele>234.685</ele>
        <time>2015-12-13T10:16:24Z</time>
      </trkpt>
      <trkpt lat="50.33683" lon="4.79393">
        <ele>233.716</ele>
        <time>2015-12-13T10:16:37Z</time>
      </trkpt>
      <trkpt lat="50.33671" lon="4.79375">
        <ele>233.413</ele>
        <time>2015-12-13T10:16:47Z</time>
      </trkpt>
      <trkpt lat="50.3367" lon="4.79374">
        <ele>233.406</ele>
        <time>2015-12-13T10:16:48Z</time>
      </trkpt>
      <trkpt lat="50.33669" lon="4.79372">
        <ele>233.438</ele>
        <time>2015-12-13T10:16:49Z</time>
      </trkpt>
      <trkpt lat="50.33651" lon="4.79344">
        <ele>234.991</ele>
        <time>2015-12-13T10:17:03Z</time>
      </trkpt>
      <trkpt lat="50.3363" lon="4.79312">
        <ele>237.074</ele>
        <time>2015-12-13T10:17:18Z</time>
      </trkpt>
      <trkpt lat="50.3362" lon="4.79298">
        <ele>237.956</ele>
        <time>2015-12-13T10:17:25Z</time>
      </trkpt>
      <trkpt lat="50.33594" lon="4.79265">
        <ele>240.094</ele>
        <time>2015-12-13T10:17:40Z</time>
      </trkpt>
      <trkpt lat="50.33568" lon="4.79225">
        <ele>241.911</ele>
        <time>2015-12-13T10:17:52Z</time>
      </trkpt>
      <trkpt lat="50.33555" lon="4.79206">
        <ele>242.589</ele>
        <time>2015-12-13T10:18:03Z</time>
      </trkpt>
      <trkpt lat="50.33555" lon="4.79206">
        <ele>242.589</ele>
        <time>2015-12-13T10:18:40Z</time>
      </trkpt>
      <trkpt lat="50.33554" lon="4.79205">
        <ele>242.568</ele>
        <time>2015-12-13T10:19:03Z</time>
      </trkpt>
      <trkpt lat="50.33553" lon="4.79205">
        <ele>242.521</ele>
        <time>2015-12-13T10:19:04Z</time>
      </trkpt>
      <trkpt lat="50.33534" lon="4.79222">
        <ele>241.261</ele>
        <time>2015-12-13T10:19:14Z</time>
      </trkpt>
      <trkpt lat="50.33533" lon="4.79226">
        <ele>241.175</ele>
        <time>2015-12-13T10:19:15Z</time>
      </trkpt>
      <trkpt lat="50.33532" lon="4.7923">
        <ele>241.118</ele>
        <time>2015-12-13T10:19:16Z</time>
      </trkpt>
      <trkpt lat="50.33531" lon="4.79235">
        <ele>241.07</ele>
        <time>2015-12-13T10:19:17Z</time>
      </trkpt>
      <trkpt lat="50.3353" lon="4.79239">
        <ele>241.036</ele>
        <time>2015-12-13T10:19:18Z</time>
      </trkpt>
      <trkpt lat="50.33514" lon="4.79309">
        <ele>239.997</ele>
        <time>2015-12-13T10:19:33Z</time>
      </trkpt>
      <trkpt lat="50.33511" lon="4.79369">
        <ele>238.188</ele>
        <time>2015-12-13T10:19:44Z</time>
      </trkpt>
      <trkpt lat="50.33502" lon="4.79441">
        <ele>233.281</ele>
        <time>2015-12-13T10:19:57Z</time>
      </trkpt>
      <trkpt lat="50.33495" lon="4.79469">
        <ele>233.169</ele>
        <time>2015-12-13T10:20:02Z</time>
      </trkpt>
      <trkpt lat="50.33483" lon="4.7952">
        <ele>232.868</ele>
        <time>2015-12-13T10:20:13Z</time>
      </trkpt>
      <trkpt lat="50.33479" lon="4.79534">
        <ele>231.693</ele>
        <time>2015-12-13T10:20:15Z</time>
      </trkpt>
      <trkpt lat="50.33469" lon="4.79574">
        <ele>225.989</ele>
        <time>2015-12-13T10:20:22Z</time>
      </trkpt>
      <trkpt lat="50.33462" lon="4.79602">
        <ele>221.445</ele>
        <time>2015-12-13T10:20:30Z</time>
      </trkpt>
      <trkpt lat="50.33453" lon="4.79644">
        <ele>220.064</ele>
        <time>2015-12-13T10:20:40Z</time>
      </trkpt>
      <trkpt lat="50.33438" lon="4.7968">
        <ele>221.233</ele>
        <time>2015-12-13T10:20:51Z</time>
      </trkpt>
      <trkpt lat="50.33408" lon="4.79683">
        <ele>222.336</ele>
        <time>2015-12-13T10:21:02Z</time>
      </trkpt>
      <trkpt lat="50.33401" lon="4.79679">
        <ele>222.19</ele>
        <time>2015-12-13T10:21:05Z</time>
      </trkpt>
      <trkpt lat="50.33399" lon="4.79678">
        <ele>222.214</ele>
        <time>2015-12-13T10:21:06Z</time>
      </trkpt>
      <trkpt lat="50.33397" lon="4.79678">
        <ele>222.242</ele>
        <time>2015-12-13T10:21:07Z</time>
      </trkpt>
      <trkpt lat="50.33393" lon="4.79678">
        <ele>222.322</ele>
        <time>2015-12-13T10:21:09Z</time>
      </trkpt>
      <trkpt lat="50.33392" lon="4.7968">
        <ele>222.424</ele>
        <time>2015-12-13T10:21:10Z</time>
      </trkpt>
      <trkpt lat="50.3339" lon="4.79683">
        <ele>222.549</ele>
        <time>2015-12-13T10:21:11Z</time>
      </trkpt>
      <trkpt lat="50.3339" lon="4.79686">
        <ele>222.673</ele>
        <time>2015-12-13T10:21:12Z</time>
      </trkpt>
      <trkpt lat="50.3339" lon="4.79689">
        <ele>222.81</ele>
        <time>2015-12-13T10:21:13Z</time>
      </trkpt>
      <trkpt lat="50.33391" lon="4.79693">
        <ele>222.937</ele>
        <time>2015-12-13T10:21:14Z</time>
      </trkpt>
      <trkpt lat="50.33391" lon="4.79696">
        <ele>223.134</ele>
        <time>2015-12-13T10:21:15Z</time>
      </trkpt>
      <trkpt lat="50.33387" lon="4.79757">
        <ele>225.049</ele>
        <time>2015-12-13T10:21:27Z</time>
      </trkpt>
      <trkpt lat="50.33383" lon="4.79807">
        <ele>223.218</ele>
        <time>2015-12-13T10:21:34Z</time>
      </trkpt>
      <trkpt lat="50.33383" lon="4.79824">
        <ele>222.137</ele>
        <time>2015-12-13T10:21:36Z</time>
      </trkpt>
      <trkpt lat="50.33382" lon="4.79832">
        <ele>221.566</ele>
        <time>2015-12-13T10:21:37Z</time>
      </trkpt>
      <trkpt lat="50.3338" lon="4.79839">
        <ele>221.374</ele>
        <time>2015-12-13T10:21:38Z</time>
      </trkpt>
      <trkpt lat="50.33378" lon="4.79846">
        <ele>221.238</ele>
        <time>2015-12-13T10:21:39Z</time>
      </trkpt>
      <trkpt lat="50.33376" lon="4.79851">
        <ele>221.036</ele>
        <time>2015-12-13T10:21:40Z</time>
      </trkpt>
      <trkpt lat="50.33372" lon="4.79855">
        <ele>220.777</ele>
        <time>2015-12-13T10:21:41Z</time>
      </trkpt>
      <trkpt lat="50.33368" lon="4.7986">
        <ele>220.518</ele>
        <time>2015-12-13T10:21:42Z</time>
      </trkpt>
      <trkpt lat="50.3336" lon="4.79867">
        <ele>219.715</ele>
        <time>2015-12-13T10:21:44Z</time>
      </trkpt>
      <trkpt lat="50.33356" lon="4.79868">
        <ele>219.189</ele>
        <time>2015-12-13T10:21:45Z</time>
      </trkpt>
      <trkpt lat="50.33353" lon="4.79869">
        <ele>218.79</ele>
        <time>2015-12-13T10:21:46Z</time>
      </trkpt>
      <trkpt lat="50.3335" lon="4.79868">
        <ele>218.494</ele>
        <time>2015-12-13T10:21:47Z</time>
      </trkpt>
      <trkpt lat="50.33347" lon="4.79868">
        <ele>218.25</ele>
        <time>2015-12-13T10:21:48Z</time>
      </trkpt>
      <trkpt lat="50.33345" lon="4.79867">
        <ele>218.012</ele>
        <time>2015-12-13T10:21:49Z</time>
      </trkpt>
      <trkpt lat="50.33318" lon="4.7986">
        <ele>215.333</ele>
        <time>2015-12-13T10:21:59Z</time>
      </trkpt>
      <trkpt lat="50.33316" lon="4.79862">
        <ele>215.144</ele>
        <time>2015-12-13T10:22:00Z</time>
      </trkpt>
      <trkpt lat="50.33315" lon="4.79864">
        <ele>214.979</ele>
        <time>2015-12-13T10:22:01Z</time>
      </trkpt>
      <trkpt lat="50.33314" lon="4.79866">
        <ele>214.83</ele>
        <time>2015-12-13T10:22:02Z</time>
      </trkpt>
      <trkpt lat="50.33312" lon="4.79868">
        <ele>214.632</ele>
        <time>2015-12-13T10:22:03Z</time>
      </trkpt>
      <trkpt lat="50.3331" lon="4.79868">
        <ele>214.388</ele>
        <time>2015-12-13T10:22:04Z</time>
      </trkpt>
      <trkpt lat="50.33307" lon="4.7987">
        <ele>214.111</ele>
        <time>2015-12-13T10:22:05Z</time>
      </trkpt>
      <trkpt lat="50.33303" lon="4.79871">
        <ele>214.078</ele>
        <time>2015-12-13T10:22:06Z</time>
      </trkpt>
      <trkpt lat="50.33281" lon="4.79883">
        <ele>214.87</ele>
        <time>2015-12-13T10:22:11Z</time>
      </trkpt>
      <trkpt lat="50.33229" lon="4.79915">
        <ele>213.208</ele>
        <time>2015-12-13T10:22:21Z</time>
      </trkpt>
      <trkpt lat="50.33225" lon="4.7992">
        <ele>213.278</ele>
        <time>2015-12-13T10:22:22Z</time>
      </trkpt>
      <trkpt lat="50.33209" lon="4.79931">
        <ele>214.054</ele>
        <time>2015-12-13T10:22:26Z</time>
      </trkpt>
      <trkpt lat="50.33205" lon="4.79934">
        <ele>214.212</ele>
        <time>2015-12-13T10:22:27Z</time>
      </trkpt>
      <trkpt lat="50.33201" lon="4.79935">
        <ele>214.313</ele>
        <time>2015-12-13T10:22:28Z</time>
      </trkpt>
      <trkpt lat="50.33178" lon="4.79939">
        <ele>214.135</ele>
        <time>2015-12-13T10:22:34Z</time>
      </trkpt>
      <trkpt lat="50.33175" lon="4.79939">
        <ele>214.033</ele>
        <time>2015-12-13T10:22:35Z</time>
      </trkpt>
      <trkpt lat="50.33172" lon="4.79938">
        <ele>213.897</ele>
        <time>2015-12-13T10:22:36Z</time>
      </trkpt>
      <trkpt lat="50.33169" lon="4.79937">
        <ele>213.808</ele>
        <time>2015-12-13T10:22:37Z</time>
      </trkpt>
      <trkpt lat="50.33167" lon="4.79937">
        <ele>213.743</ele>
        <time>2015-12-13T10:22:38Z</time>
      </trkpt>
      <trkpt lat="50.33165" lon="4.79937">
        <ele>213.859</ele>
        <time>2015-12-13T10:22:39Z</time>
      </trkpt>
      <trkpt lat="50.33163" lon="4.79937">
        <ele>213.975</ele>
        <time>2015-12-13T10:22:40Z</time>
      </trkpt>
      <trkpt lat="50.33161" lon="4.79937">
        <ele>214.062</ele>
        <time>2015-12-13T10:22:41Z</time>
      </trkpt>
      <trkpt lat="50.33159" lon="4.79936">
        <ele>214.137</ele>
        <time>2015-12-13T10:22:42Z</time>
      </trkpt>
      <trkpt lat="50.33157" lon="4.79936">
        <ele>214.23</ele>
        <time>2015-12-13T10:22:43Z</time>
      </trkpt>
      <trkpt lat="50.33156" lon="4.79936">
        <ele>214.34</ele>
        <time>2015-12-13T10:22:44Z</time>
      </trkpt>
      <trkpt lat="50.33153" lon="4.79936">
        <ele>214.475</ele>
        <time>2015-12-13T10:22:45Z</time>
      </trkpt>
      <trkpt lat="50.33151" lon="4.79935">
        <ele>214.609</ele>
        <time>2015-12-13T10:22:46Z</time>
      </trkpt>
      <trkpt lat="50.33149" lon="4.79934">
        <ele>214.771</ele>
        <time>2015-12-13T10:22:47Z</time>
      </trkpt>
      <trkpt lat="50.33146" lon="4.79934">
        <ele>214.931</ele>
        <time>2015-12-13T10:22:48Z</time>
      </trkpt>
      <trkpt lat="50.33117" lon="4.79923">
        <ele>218.143</ele>
        <time>2015-12-13T10:23:00Z</time>
      </trkpt>
      <trkpt lat="50.33115" lon="4.79921">
        <ele>218.417</ele>
        <time>2015-12-13T10:23:01Z</time>
      </trkpt>
      <trkpt lat="50.33113" lon="4.7992">
        <ele>218.723</ele>
        <time>2015-12-13T10:23:02Z</time>
      </trkpt>
      <trkpt lat="50.33111" lon="4.79918">
        <ele>218.992</ele>
        <time>2015-12-13T10:23:03Z</time>
      </trkpt>
      <trkpt lat="50.33108" lon="4.79917">
        <ele>219.257</ele>
        <time>2015-12-13T10:23:04Z</time>
      </trkpt>
      <trkpt lat="50.33086" lon="4.79906">
        <ele>222.471</ele>
        <time>2015-12-13T10:23:16Z</time>
      </trkpt>
      <trkpt lat="50.33083" lon="4.79904">
        <ele>222.998</ele>
        <time>2015-12-13T10:23:18Z</time>
      </trkpt>
      <trkpt lat="50.33082" lon="4.79902">
        <ele>223.215</ele>
        <time>2015-12-13T10:23:19Z</time>
      </trkpt>
      <trkpt lat="50.33081" lon="4.799">
        <ele>223.393</ele>
        <time>2015-12-13T10:23:20Z</time>
      </trkpt>
      <trkpt lat="50.33075" lon="4.7989">
        <ele>224.52</ele>
        <time>2015-12-13T10:23:27Z</time>
      </trkpt>
      <trkpt lat="50.33067" lon="4.79879">
        <ele>225.424</ele>
        <time>2015-12-13T10:23:36Z</time>
      </trkpt>
      <trkpt lat="50.33064" lon="4.79872">
        <ele>225.822</ele>
        <time>2015-12-13T10:23:41Z</time>
      </trkpt>
      <trkpt lat="50.33059" lon="4.79862">
        <ele>226.626</ele>
        <time>2015-12-13T10:23:50Z</time>
      </trkpt>
      <trkpt lat="50.33058" lon="4.79859">
        <ele>226.79</ele>
        <time>2015-12-13T10:24:01Z</time>
      </trkpt>
      <trkpt lat="50.33058" lon="4.79839">
        <ele>226.714</ele>
        <time>2015-12-13T10:24:17Z</time>
      </trkpt>
      <trkpt lat="50.33045" lon="4.79813">
        <ele>228.912</ele>
        <time>2015-12-13T10:24:29Z</time>
      </trkpt>
      <trkpt lat="50.33011" lon="4.79813">
        <ele>230.894</ele>
        <time>2015-12-13T10:24:43Z</time>
      </trkpt>
      <trkpt lat="50.32966" lon="4.79822">
        <ele>233.044</ele>
        <time>2015-12-13T10:25:00Z</time>
      </trkpt>
      <trkpt lat="50.32932" lon="4.79838">
        <ele>235.452</ele>
        <time>2015-12-13T10:25:14Z</time>
      </trkpt>
      <trkpt lat="50.32926" lon="4.79843">
        <ele>235.65</ele>
        <time>2015-12-13T10:25:17Z</time>
      </trkpt>
      <trkpt lat="50.32924" lon="4.79845">
        <ele>235.736</ele>
        <time>2015-12-13T10:25:18Z</time>
      </trkpt>
      <trkpt lat="50.32888" lon="4.79858">
        <ele>237.002</ele>
        <time>2015-12-13T10:25:32Z</time>
      </trkpt>
      <trkpt lat="50.3286" lon="4.79861">
        <ele>237.04</ele>
        <time>2015-12-13T10:25:44Z</time>
      </trkpt>
      <trkpt lat="50.32807" lon="4.79874">
        <ele>237.975</ele>
        <time>2015-12-13T10:26:00Z</time>
      </trkpt>
      <trkpt lat="50.328" lon="4.79875">
        <ele>238.11</ele>
        <time>2015-12-13T10:26:02Z</time>
      </trkpt>
      <trkpt lat="50.32782" lon="4.79877">
        <ele>238.494</ele>
        <time>2015-12-13T10:26:07Z</time>
      </trkpt>
      <trkpt lat="50.3273" lon="4.7988">
        <ele>237.487</ele>
        <time>2015-12-13T10:26:23Z</time>
      </trkpt>
      <trkpt lat="50.32707" lon="4.79883">
        <ele>236.875</ele>
        <time>2015-12-13T10:26:31Z</time>
      </trkpt>
      <trkpt lat="50.32659" lon="4.79884">
        <ele>237.82</ele>
        <time>2015-12-13T10:26:46Z</time>
      </trkpt>
      <trkpt lat="50.32628" lon="4.79896">
        <ele>238.406</ele>
        <time>2015-12-13T10:26:56Z</time>
      </trkpt>
      <trkpt lat="50.32603" lon="4.79913">
        <ele>238.603</ele>
        <time>2015-12-13T10:27:07Z</time>
      </trkpt>
      <trkpt lat="50.32599" lon="4.79918">
        <ele>238.626</ele>
        <time>2015-12-13T10:27:18Z</time>
      </trkpt>
      <trkpt lat="50.32597" lon="4.79919">
        <ele>238.59</ele>
        <time>2015-12-13T10:27:19Z</time>
      </trkpt>
      <trkpt lat="50.32595" lon="4.79921">
        <ele>238.572</ele>
        <time>2015-12-13T10:27:20Z</time>
      </trkpt>
      <trkpt lat="50.32556" lon="4.79948">
        <ele>239.989</ele>
        <time>2015-12-13T10:27:35Z</time>
      </trkpt>
      <trkpt lat="50.3253" lon="4.79967">
        <ele>240.906</ele>
        <time>2015-12-13T10:27:47Z</time>
      </trkpt>
      <trkpt lat="50.32513" lon="4.79983">
        <ele>240.279</ele>
        <time>2015-12-13T10:27:56Z</time>
      </trkpt>
      <trkpt lat="50.32508" lon="4.79986">
        <ele>240.144</ele>
        <time>2015-12-13T10:27:58Z</time>
      </trkpt>
      <trkpt lat="50.32477" lon="4.80016">
        <ele>239.186</ele>
        <time>2015-12-13T10:28:10Z</time>
      </trkpt>
      <trkpt lat="50.32439" lon="4.80032">
        <ele>238.793</ele>
        <time>2015-12-13T10:28:23Z</time>
      </trkpt>
      <trkpt lat="50.32413" lon="4.80046">
        <ele>237.861</ele>
        <time>2015-12-13T10:28:31Z</time>
      </trkpt>
      <trkpt lat="50.32357" lon="4.80069">
        <ele>234.726</ele>
        <time>2015-12-13T10:28:47Z</time>
      </trkpt>
      <trkpt lat="50.32312" lon="4.80091">
        <ele>231.758</ele>
        <time>2015-12-13T10:28:59Z</time>
      </trkpt>
      <trkpt lat="50.32277" lon="4.8011">
        <ele>229.933</ele>
        <time>2015-12-13T10:29:09Z</time>
      </trkpt>
      <trkpt lat="50.32244" lon="4.80126">
        <ele>228.212</ele>
        <time>2015-12-13T10:29:21Z</time>
      </trkpt>
      <trkpt lat="50.32242" lon="4.80124">
        <ele>228.048</ele>
        <time>2015-12-13T10:29:22Z</time>
      </trkpt>
      <trkpt lat="50.32241" lon="4.8012">
        <ele>227.883</ele>
        <time>2015-12-13T10:29:23Z</time>
      </trkpt>
      <trkpt lat="50.3224" lon="4.80115">
        <ele>227.741</ele>
        <time>2015-12-13T10:29:24Z</time>
      </trkpt>
      <trkpt lat="50.3224" lon="4.80109">
        <ele>227.638</ele>
        <time>2015-12-13T10:29:25Z</time>
      </trkpt>
      <trkpt lat="50.32241" lon="4.80103">
        <ele>227.603</ele>
        <time>2015-12-13T10:29:26Z</time>
      </trkpt>
      <trkpt lat="50.32243" lon="4.8009">
        <ele>227.55</ele>
        <time>2015-12-13T10:29:28Z</time>
      </trkpt>
      <trkpt lat="50.32243" lon="4.80083">
        <ele>227.518</ele>
        <time>2015-12-13T10:29:29Z</time>
      </trkpt>
      <trkpt lat="50.32246" lon="4.80051">
        <ele>227.676</ele>
        <time>2015-12-13T10:29:33Z</time>
      </trkpt>
      <trkpt lat="50.3225" lon="4.79932">
        <ele>228.005</ele>
        <time>2015-12-13T10:29:48Z</time>
      </trkpt>
      <trkpt lat="50.32253" lon="4.79837">
        <ele>228.223</ele>
        <time>2015-12-13T10:30:04Z</time>
      </trkpt>
      <trkpt lat="50.32253" lon="4.79825">
        <ele>228.52</ele>
        <time>2015-12-13T10:30:07Z</time>
      </trkpt>
      <trkpt lat="50.32251" lon="4.79822">
        <ele>228.509</ele>
        <time>2015-12-13T10:30:08Z</time>
      </trkpt>
      <trkpt lat="50.32249" lon="4.7982">
        <ele>228.429</ele>
        <time>2015-12-13T10:30:09Z</time>
      </trkpt>
      <trkpt lat="50.32247" lon="4.7982">
        <ele>228.308</ele>
        <time>2015-12-13T10:30:10Z</time>
      </trkpt>
      <trkpt lat="50.32244" lon="4.7982">
        <ele>228.142</ele>
        <time>2015-12-13T10:30:11Z</time>
      </trkpt>
      <trkpt lat="50.3224" lon="4.7982">
        <ele>227.968</ele>
        <time>2015-12-13T10:30:12Z</time>
      </trkpt>
      <trkpt lat="50.32226" lon="4.79821">
        <ele>227.18</ele>
        <time>2015-12-13T10:30:16Z</time>
      </trkpt>
      <trkpt lat="50.32165" lon="4.79818">
        <ele>224.476</ele>
        <time>2015-12-13T10:30:29Z</time>
      </trkpt>
      <trkpt lat="50.32112" lon="4.79815">
        <ele>220.758</ele>
        <time>2015-12-13T10:30:39Z</time>
      </trkpt>
      <trkpt lat="50.32044" lon="4.79813">
        <ele>218.732</ele>
        <time>2015-12-13T10:30:53Z</time>
      </trkpt>
      <trkpt lat="50.32039" lon="4.79814">
        <ele>218.707</ele>
        <time>2015-12-13T10:30:54Z</time>
      </trkpt>
      <trkpt lat="50.31972" lon="4.79809">
        <ele>217</ele>
        <time>2015-12-13T10:31:09Z</time>
      </trkpt>
      <trkpt lat="50.31921" lon="4.79784">
        <ele>216.167</ele>
        <time>2015-12-13T10:31:21Z</time>
      </trkpt>
      <trkpt lat="50.31917" lon="4.79782">
        <ele>216</ele>
        <time>2015-12-13T10:31:22Z</time>
      </trkpt>
      <trkpt lat="50.31912" lon="4.7978">
        <ele>215.984</ele>
        <time>2015-12-13T10:31:23Z</time>
      </trkpt>
      <trkpt lat="50.31891" lon="4.79776">
        <ele>215.957</ele>
        <time>2015-12-13T10:31:27Z</time>
      </trkpt>
      <trkpt lat="50.31885" lon="4.79777">
        <ele>215.551</ele>
        <time>2015-12-13T10:31:28Z</time>
      </trkpt>
      <trkpt lat="50.31879" lon="4.79778">
        <ele>214.931</ele>
        <time>2015-12-13T10:31:29Z</time>
      </trkpt>
      <trkpt lat="50.31873" lon="4.7978">
        <ele>214.259</ele>
        <time>2015-12-13T10:31:30Z</time>
      </trkpt>
      <trkpt lat="50.31867" lon="4.79783">
        <ele>213.599</ele>
        <time>2015-12-13T10:31:31Z</time>
      </trkpt>
      <trkpt lat="50.31861" lon="4.79786">
        <ele>212.945</ele>
        <time>2015-12-13T10:31:32Z</time>
      </trkpt>
      <trkpt lat="50.31834" lon="4.79799">
        <ele>210.126</ele>
        <time>2015-12-13T10:31:36Z</time>
      </trkpt>
      <trkpt lat="50.31807" lon="4.79816">
        <ele>208.072</ele>
        <time>2015-12-13T10:31:41Z</time>
      </trkpt>
      <trkpt lat="50.31803" lon="4.79819">
        <ele>208</ele>
        <time>2015-12-13T10:31:42Z</time>
      </trkpt>
      <trkpt lat="50.31764" lon="4.79819">
        <ele>208.709</ele>
        <time>2015-12-13T10:31:53Z</time>
      </trkpt>
      <trkpt lat="50.31705" lon="4.79788">
        <ele>213.817</ele>
        <time>2015-12-13T10:32:10Z</time>
      </trkpt>
      <trkpt lat="50.31666" lon="4.79772">
        <ele>218.057</ele>
        <time>2015-12-13T10:32:21Z</time>
      </trkpt>
      <trkpt lat="50.3165" lon="4.79767">
        <ele>219.521</ele>
        <time>2015-12-13T10:32:26Z</time>
      </trkpt>
      <trkpt lat="50.31647" lon="4.79767">
        <ele>219.827</ele>
        <time>2015-12-13T10:32:27Z</time>
      </trkpt>
      <trkpt lat="50.31644" lon="4.79767">
        <ele>220.145</ele>
        <time>2015-12-13T10:32:28Z</time>
      </trkpt>
      <trkpt lat="50.31638" lon="4.79767">
        <ele>220.701</ele>
        <time>2015-12-13T10:32:30Z</time>
      </trkpt>
      <trkpt lat="50.31599" lon="4.79782">
        <ele>223.425</ele>
        <time>2015-12-13T10:32:41Z</time>
      </trkpt>
      <trkpt lat="50.31572" lon="4.79802">
        <ele>225.77</ele>
        <time>2015-12-13T10:32:50Z</time>
      </trkpt>
      <trkpt lat="50.31568" lon="4.79803">
        <ele>226.306</ele>
        <time>2015-12-13T10:32:51Z</time>
      </trkpt>
      <trkpt lat="50.31565" lon="4.79805">
        <ele>226.739</ele>
        <time>2015-12-13T10:32:52Z</time>
      </trkpt>
      <trkpt lat="50.31561" lon="4.79806">
        <ele>227.115</ele>
        <time>2015-12-13T10:32:53Z</time>
      </trkpt>
      <trkpt lat="50.31531" lon="4.79826">
        <ele>229.159</ele>
        <time>2015-12-13T10:33:03Z</time>
      </trkpt>
      <trkpt lat="50.31507" lon="4.79836">
        <ele>232.671</ele>
        <time>2015-12-13T10:33:14Z</time>
      </trkpt>
      <trkpt lat="50.31502" lon="4.79838">
        <ele>233.407</ele>
        <time>2015-12-13T10:33:26Z</time>
      </trkpt>
      <trkpt lat="50.31499" lon="4.79842">
        <ele>233.874</ele>
        <time>2015-12-13T10:33:56Z</time>
      </trkpt>
      <trkpt lat="50.31497" lon="4.79841">
        <ele>234.179</ele>
        <time>2015-12-13T10:34:13Z</time>
      </trkpt>
      <trkpt lat="50.31495" lon="4.79839">
        <ele>234.643</ele>
        <time>2015-12-13T10:34:15Z</time>
      </trkpt>
      <trkpt lat="50.31492" lon="4.79837">
        <ele>235.019</ele>
        <time>2015-12-13T10:34:17Z</time>
      </trkpt>
      <trkpt lat="50.31488" lon="4.79835">
        <ele>235.646</ele>
        <time>2015-12-13T10:34:20Z</time>
      </trkpt>
      <trkpt lat="50.31487" lon="4.79834">
        <ele>235.89</ele>
        <time>2015-12-13T10:34:21Z</time>
      </trkpt>
      <trkpt lat="50.31477" lon="4.79819">
        <ele>237.45</ele>
        <time>2015-12-13T10:34:32Z</time>
      </trkpt>
      <trkpt lat="50.3147" lon="4.79803">
        <ele>238.328</ele>
        <time>2015-12-13T10:34:42Z</time>
      </trkpt>
      <trkpt lat="50.31455" lon="4.79784">
        <ele>241.046</ele>
        <time>2015-12-13T10:34:55Z</time>
      </trkpt>
      <trkpt lat="50.31451" lon="4.79777">
        <ele>241.845</ele>
        <time>2015-12-13T10:35:03Z</time>
      </trkpt>
      <trkpt lat="50.3145" lon="4.79773">
        <ele>242.387</ele>
        <time>2015-12-13T10:35:06Z</time>
      </trkpt>
      <trkpt lat="50.31443" lon="4.79766">
        <ele>244.119</ele>
        <time>2015-12-13T10:35:17Z</time>
      </trkpt>
      <trkpt lat="50.31434" lon="4.79759">
        <ele>245.706</ele>
        <time>2015-12-13T10:35:29Z</time>
      </trkpt>
      <trkpt lat="50.31427" lon="4.79744">
        <ele>246.974</ele>
        <time>2015-12-13T10:35:40Z</time>
      </trkpt>
      <trkpt lat="50.31424" lon="4.79741">
        <ele>247.3</ele>
        <time>2015-12-13T10:35:43Z</time>
      </trkpt>
      <trkpt lat="50.31415" lon="4.79734">
        <ele>248.137</ele>
        <time>2015-12-13T10:35:53Z</time>
      </trkpt>
      <trkpt lat="50.31414" lon="4.79733">
        <ele>248.288</ele>
        <time>2015-12-13T10:35:54Z</time>
      </trkpt>
      <trkpt lat="50.31412" lon="4.79732">
        <ele>248.547</ele>
        <time>2015-12-13T10:35:56Z</time>
      </trkpt>
      <trkpt lat="50.31404" lon="4.7973">
        <ele>249.4</ele>
        <time>2015-12-13T10:36:05Z</time>
      </trkpt>
      <trkpt lat="50.31402" lon="4.79728">
        <ele>249.541</ele>
        <time>2015-12-13T10:36:08Z</time>
      </trkpt>
      <trkpt lat="50.31395" lon="4.79721">
        <ele>250.409</ele>
        <time>2015-12-13T10:36:15Z</time>
      </trkpt>
      <trkpt lat="50.31392" lon="4.79718">
        <ele>250.827</ele>
        <time>2015-12-13T10:36:18Z</time>
      </trkpt>
      <trkpt lat="50.31385" lon="4.79709">
        <ele>251.917</ele>
        <time>2015-12-13T10:36:26Z</time>
      </trkpt>
      <trkpt lat="50.31379" lon="4.797">
        <ele>253.191</ele>
        <time>2015-12-13T10:36:36Z</time>
      </trkpt>
      <trkpt lat="50.3137" lon="4.79684">
        <ele>255.15</ele>
        <time>2015-12-13T10:36:47Z</time>
      </trkpt>
      <trkpt lat="50.31362" lon="4.79671">
        <ele>256.655</ele>
        <time>2015-12-13T10:36:58Z</time>
      </trkpt>
      <trkpt lat="50.31355" lon="4.79656">
        <ele>257.792</ele>
        <time>2015-12-13T10:37:08Z</time>
      </trkpt>
      <trkpt lat="50.31344" lon="4.79643">
        <ele>259.077</ele>
        <time>2015-12-13T10:37:21Z</time>
      </trkpt>
      <trkpt lat="50.31332" lon="4.79643">
        <ele>259.852</ele>
        <time>2015-12-13T10:37:31Z</time>
      </trkpt>
      <trkpt lat="50.31327" lon="4.79646">
        <ele>259.744</ele>
        <time>2015-12-13T10:37:36Z</time>
      </trkpt>
      <trkpt lat="50.31325" lon="4.79646">
        <ele>259.751</ele>
        <time>2015-12-13T10:37:38Z</time>
      </trkpt>
      <trkpt lat="50.31315" lon="4.79638">
        <ele>260.014</ele>
        <time>2015-12-13T10:37:48Z</time>
      </trkpt>
      <trkpt lat="50.31305" lon="4.79636">
        <ele>260.104</ele>
        <time>2015-12-13T10:38:12Z</time>
      </trkpt>
      <trkpt lat="50.31293" lon="4.79635">
        <ele>260.136</ele>
        <time>2015-12-13T10:38:25Z</time>
      </trkpt>
      <trkpt lat="50.31287" lon="4.79634">
        <ele>260.183</ele>
        <time>2015-12-13T10:38:28Z</time>
      </trkpt>
      <trkpt lat="50.31285" lon="4.79634">
        <ele>260.162</ele>
        <time>2015-12-13T10:38:29Z</time>
      </trkpt>
      <trkpt lat="50.31283" lon="4.79635">
        <ele>260.129</ele>
        <time>2015-12-13T10:38:30Z</time>
      </trkpt>
      <trkpt lat="50.3127" lon="4.79636">
        <ele>260.078</ele>
        <time>2015-12-13T10:38:34Z</time>
      </trkpt>
      <trkpt lat="50.31267" lon="4.79634">
        <ele>260.101</ele>
        <time>2015-12-13T10:38:35Z</time>
      </trkpt>
      <trkpt lat="50.31264" lon="4.79634">
        <ele>260.085</ele>
        <time>2015-12-13T10:38:36Z</time>
      </trkpt>
      <trkpt lat="50.31261" lon="4.79635">
        <ele>260.057</ele>
        <time>2015-12-13T10:38:37Z</time>
      </trkpt>
      <trkpt lat="50.31258" lon="4.79636">
        <ele>260.036</ele>
        <time>2015-12-13T10:38:38Z</time>
      </trkpt>
      <trkpt lat="50.31225" lon="4.79642">
        <ele>257.206</ele>
        <time>2015-12-13T10:38:48Z</time>
      </trkpt>
      <trkpt lat="50.31215" lon="4.79641">
        <ele>256.657</ele>
        <time>2015-12-13T10:38:51Z</time>
      </trkpt>
      <trkpt lat="50.31183" lon="4.79645">
        <ele>255.452</ele>
        <time>2015-12-13T10:39:01Z</time>
      </trkpt>
      <trkpt lat="50.31172" lon="4.79646">
        <ele>255.148</ele>
        <time>2015-12-13T10:39:05Z</time>
      </trkpt>
      <trkpt lat="50.31168" lon="4.79649">
        <ele>255.034</ele>
        <time>2015-12-13T10:39:07Z</time>
      </trkpt>
      <trkpt lat="50.31166" lon="4.79651">
        <ele>255</ele>
        <time>2015-12-13T10:39:08Z</time>
      </trkpt>
      <trkpt lat="50.31164" lon="4.79654">
        <ele>255</ele>
        <time>2015-12-13T10:39:09Z</time>
      </trkpt>
      <trkpt lat="50.31163" lon="4.79655">
        <ele>255</ele>
        <time>2015-12-13T10:39:10Z</time>
      </trkpt>
      <trkpt lat="50.31161" lon="4.79655">
        <ele>255</ele>
        <time>2015-12-13T10:39:11Z</time>
      </trkpt>
      <trkpt lat="50.31159" lon="4.79656">
        <ele>255</ele>
        <time>2015-12-13T10:39:12Z</time>
      </trkpt>
      <trkpt lat="50.31157" lon="4.79656">
        <ele>255</ele>
        <time>2015-12-13T10:39:13Z</time>
      </trkpt>
      <trkpt lat="50.31154" lon="4.79655">
        <ele>255</ele>
        <time>2015-12-13T10:39:14Z</time>
      </trkpt>
      <trkpt lat="50.31152" lon="4.79656">
        <ele>255</ele>
        <time>2015-12-13T10:39:15Z</time>
      </trkpt>
      <trkpt lat="50.31149" lon="4.79656">
        <ele>255</ele>
        <time>2015-12-13T10:39:16Z</time>
      </trkpt>
      <trkpt lat="50.31147" lon="4.79655">
        <ele>255</ele>
        <time>2015-12-13T10:39:17Z</time>
      </trkpt>
      <trkpt lat="50.31125" lon="4.79656">
        <ele>254.507</ele>
        <time>2015-12-13T10:39:24Z</time>
      </trkpt>
      <trkpt lat="50.31122" lon="4.79656">
        <ele>254.399</ele>
        <time>2015-12-13T10:39:25Z</time>
      </trkpt>
      <trkpt lat="50.31109" lon="4.7966">
        <ele>253.672</ele>
        <time>2015-12-13T10:39:29Z</time>
      </trkpt>
      <trkpt lat="50.31107" lon="4.79664">
        <ele>253.311</ele>
        <time>2015-12-13T10:39:30Z</time>
      </trkpt>
      <trkpt lat="50.31104" lon="4.79667">
        <ele>252.739</ele>
        <time>2015-12-13T10:39:31Z</time>
      </trkpt>
      <trkpt lat="50.311" lon="4.79668">
        <ele>252.018</ele>
        <time>2015-12-13T10:39:32Z</time>
      </trkpt>
      <trkpt lat="50.31096" lon="4.79669">
        <ele>251.352</ele>
        <time>2015-12-13T10:39:33Z</time>
      </trkpt>
      <trkpt lat="50.31057" lon="4.79673">
        <ele>244.483</ele>
        <time>2015-12-13T10:39:42Z</time>
      </trkpt>
      <trkpt lat="50.31053" lon="4.79675">
        <ele>243.95</ele>
        <time>2015-12-13T10:39:43Z</time>
      </trkpt>
      <trkpt lat="50.3105" lon="4.79677">
        <ele>243.612</ele>
        <time>2015-12-13T10:39:44Z</time>
      </trkpt>
      <trkpt lat="50.31048" lon="4.79679">
        <ele>243.316</ele>
        <time>2015-12-13T10:39:45Z</time>
      </trkpt>
      <trkpt lat="50.31045" lon="4.79681">
        <ele>243.061</ele>
        <time>2015-12-13T10:39:46Z</time>
      </trkpt>
      <trkpt lat="50.31044" lon="4.79683">
        <ele>242.978</ele>
        <time>2015-12-13T10:39:47Z</time>
      </trkpt>
      <trkpt lat="50.31042" lon="4.79686">
        <ele>242.816</ele>
        <time>2015-12-13T10:39:48Z</time>
      </trkpt>
      <trkpt lat="50.3104" lon="4.79686">
        <ele>242.442</ele>
        <time>2015-12-13T10:39:49Z</time>
      </trkpt>
      <trkpt lat="50.31037" lon="4.79687">
        <ele>241.984</ele>
        <time>2015-12-13T10:39:50Z</time>
      </trkpt>
      <trkpt lat="50.31033" lon="4.79686">
        <ele>241.52</ele>
        <time>2015-12-13T10:39:51Z</time>
      </trkpt>
      <trkpt lat="50.30995" lon="4.79675">
        <ele>238.525</ele>
        <time>2015-12-13T10:40:00Z</time>
      </trkpt>
      <trkpt lat="50.30974" lon="4.79672">
        <ele>238.222</ele>
        <time>2015-12-13T10:40:05Z</time>
      </trkpt>
      <trkpt lat="50.30968" lon="4.79672">
        <ele>237.769</ele>
        <time>2015-12-13T10:40:07Z</time>
      </trkpt>
      <trkpt lat="50.30965" lon="4.79673">
        <ele>237.489</ele>
        <time>2015-12-13T10:40:08Z</time>
      </trkpt>
      <trkpt lat="50.30962" lon="4.79673">
        <ele>237.163</ele>
        <time>2015-12-13T10:40:09Z</time>
      </trkpt>
      <trkpt lat="50.30959" lon="4.79673">
        <ele>236.869</ele>
        <time>2015-12-13T10:40:10Z</time>
      </trkpt>
      <trkpt lat="50.30955" lon="4.79674">
        <ele>236.586</ele>
        <time>2015-12-13T10:40:11Z</time>
      </trkpt>
      <trkpt lat="50.30943" lon="4.79677">
        <ele>235.589</ele>
        <time>2015-12-13T10:40:14Z</time>
      </trkpt>
      <trkpt lat="50.3094" lon="4.79677">
        <ele>235.15</ele>
        <time>2015-12-13T10:40:15Z</time>
      </trkpt>
      <trkpt lat="50.30936" lon="4.79679">
        <ele>234.816</ele>
        <time>2015-12-13T10:40:16Z</time>
      </trkpt>
      <trkpt lat="50.30932" lon="4.7968">
        <ele>234.457</ele>
        <time>2015-12-13T10:40:17Z</time>
      </trkpt>
      <trkpt lat="50.30928" lon="4.79681">
        <ele>234.017</ele>
        <time>2015-12-13T10:40:18Z</time>
      </trkpt>
      <trkpt lat="50.30924" lon="4.79683">
        <ele>233.531</ele>
        <time>2015-12-13T10:40:19Z</time>
      </trkpt>
      <trkpt lat="50.3092" lon="4.79684">
        <ele>232.994</ele>
        <time>2015-12-13T10:40:20Z</time>
      </trkpt>
      <trkpt lat="50.30915" lon="4.79685">
        <ele>232.411</ele>
        <time>2015-12-13T10:40:21Z</time>
      </trkpt>
      <trkpt lat="50.30907" lon="4.79689">
        <ele>231.177</ele>
        <time>2015-12-13T10:40:23Z</time>
      </trkpt>
      <trkpt lat="50.30895" lon="4.79699">
        <ele>229.263</ele>
        <time>2015-12-13T10:40:33Z</time>
      </trkpt>
      <trkpt lat="50.30891" lon="4.79702">
        <ele>228.787</ele>
        <time>2015-12-13T10:41:08Z</time>
      </trkpt>
      <trkpt lat="50.30888" lon="4.79706">
        <ele>228.236</ele>
        <time>2015-12-13T10:41:14Z</time>
      </trkpt>
      <trkpt lat="50.30886" lon="4.79697">
        <ele>227.704</ele>
        <time>2015-12-13T10:41:24Z</time>
      </trkpt>
      <trkpt lat="50.30887" lon="4.79688">
        <ele>227.728</ele>
        <time>2015-12-13T10:41:40Z</time>
      </trkpt>
      <trkpt lat="50.30886" lon="4.79671">
        <ele>227.57</ele>
        <time>2015-12-13T10:41:50Z</time>
      </trkpt>
      <trkpt lat="50.30885" lon="4.79663">
        <ele>227.553</ele>
        <time>2015-12-13T10:41:54Z</time>
      </trkpt>
      <trkpt lat="50.30883" lon="4.79658">
        <ele>227.596</ele>
        <time>2015-12-13T10:41:57Z</time>
      </trkpt>
      <trkpt lat="50.30882" lon="4.79654">
        <ele>227.611</ele>
        <time>2015-12-13T10:41:59Z</time>
      </trkpt>
      <trkpt lat="50.30881" lon="4.7965">
        <ele>227.645</ele>
        <time>2015-12-13T10:42:01Z</time>
      </trkpt>
      <trkpt lat="50.30875" lon="4.79631">
        <ele>227.685</ele>
        <time>2015-12-13T10:42:07Z</time>
      </trkpt>
      <trkpt lat="50.30875" lon="4.79628">
        <ele>227.728</ele>
        <time>2015-12-13T10:42:08Z</time>
      </trkpt>
      <trkpt lat="50.30875" lon="4.79625">
        <ele>227.786</ele>
        <time>2015-12-13T10:42:09Z</time>
      </trkpt>
      <trkpt lat="50.30869" lon="4.79585">
        <ele>228.777</ele>
        <time>2015-12-13T10:42:20Z</time>
      </trkpt>
      <trkpt lat="50.30865" lon="4.79559">
        <ele>228.573</ele>
        <time>2015-12-13T10:42:26Z</time>
      </trkpt>
      <trkpt lat="50.30857" lon="4.795">
        <ele>227.278</ele>
        <time>2015-12-13T10:42:38Z</time>
      </trkpt>
      <trkpt lat="50.30856" lon="4.79466">
        <ele>228.67</ele>
        <time>2015-12-13T10:42:48Z</time>
      </trkpt>
      <trkpt lat="50.30859" lon="4.79451">
        <ele>229.607</ele>
        <time>2015-12-13T10:42:52Z</time>
      </trkpt>
      <trkpt lat="50.30864" lon="4.79409">
        <ele>232.919</ele>
        <time>2015-12-13T10:43:04Z</time>
      </trkpt>
      <trkpt lat="50.30865" lon="4.79404">
        <ele>233.377</ele>
        <time>2015-12-13T10:43:06Z</time>
      </trkpt>
      <trkpt lat="50.30867" lon="4.7939">
        <ele>234.576</ele>
        <time>2015-12-13T10:43:13Z</time>
      </trkpt>
      <trkpt lat="50.30869" lon="4.79384">
        <ele>235.003</ele>
        <time>2015-12-13T10:43:31Z</time>
      </trkpt>
      <trkpt lat="50.30871" lon="4.79376">
        <ele>235.521</ele>
        <time>2015-12-13T10:43:39Z</time>
      </trkpt>
      <trkpt lat="50.30877" lon="4.7935">
        <ele>237.102</ele>
        <time>2015-12-13T10:43:51Z</time>
      </trkpt>
      <trkpt lat="50.3088" lon="4.79342">
        <ele>237.717</ele>
        <time>2015-12-13T10:43:56Z</time>
      </trkpt>
      <trkpt lat="50.30879" lon="4.7933">
        <ele>238.045</ele>
        <time>2015-12-13T10:44:02Z</time>
      </trkpt>
      <trkpt lat="50.30879" lon="4.79329">
        <ele>238.142</ele>
        <time>2015-12-13T10:44:03Z</time>
      </trkpt>
      <trkpt lat="50.30882" lon="4.79314">
        <ele>238.945</ele>
        <time>2015-12-13T10:44:13Z</time>
      </trkpt>
      <trkpt lat="50.30883" lon="4.79308">
        <ele>239.258</ele>
        <time>2015-12-13T10:44:16Z</time>
      </trkpt>
      <trkpt lat="50.30883" lon="4.79305">
        <ele>239.415</ele>
        <time>2015-12-13T10:44:18Z</time>
      </trkpt>
      <trkpt lat="50.30884" lon="4.79302">
        <ele>239.546</ele>
        <time>2015-12-13T10:44:19Z</time>
      </trkpt>
      <trkpt lat="50.30884" lon="4.79299">
        <ele>239.62</ele>
        <time>2015-12-13T10:44:20Z</time>
      </trkpt>
      <trkpt lat="50.30884" lon="4.79295">
        <ele>239.752</ele>
        <time>2015-12-13T10:44:22Z</time>
      </trkpt>
      <trkpt lat="50.30886" lon="4.79285">
        <ele>240.307</ele>
        <time>2015-12-13T10:44:30Z</time>
      </trkpt>
      <trkpt lat="50.30886" lon="4.79283">
        <ele>240.374</ele>
        <time>2015-12-13T10:44:31Z</time>
      </trkpt>
      <trkpt lat="50.30886" lon="4.79272">
        <ele>240.813</ele>
        <time>2015-12-13T10:44:43Z</time>
      </trkpt>
      <trkpt lat="50.30887" lon="4.79264">
        <ele>241.226</ele>
        <time>2015-12-13T10:44:55Z</time>
      </trkpt>
      <trkpt lat="50.30891" lon="4.79259">
        <ele>241.965</ele>
        <time>2015-12-13T10:45:00Z</time>
      </trkpt>
      <trkpt lat="50.30898" lon="4.79246">
        <ele>243.37</ele>
        <time>2015-12-13T10:45:07Z</time>
      </trkpt>
      <trkpt lat="50.30898" lon="4.79218">
        <ele>243.156</ele>
        <time>2015-12-13T10:45:14Z</time>
      </trkpt>
      <trkpt lat="50.30901" lon="4.79195">
        <ele>242.764</ele>
        <time>2015-12-13T10:45:21Z</time>
      </trkpt>
      <trkpt lat="50.30902" lon="4.79177">
        <ele>242.289</ele>
        <time>2015-12-13T10:45:29Z</time>
      </trkpt>
      <trkpt lat="50.30907" lon="4.79162">
        <ele>242.321</ele>
        <time>2015-12-13T10:45:36Z</time>
      </trkpt>
      <trkpt lat="50.30908" lon="4.79152">
        <ele>241.848</ele>
        <time>2015-12-13T10:45:39Z</time>
      </trkpt>
      <trkpt lat="50.30914" lon="4.79144">
        <ele>242.071</ele>
        <time>2015-12-13T10:45:44Z</time>
      </trkpt>
      <trkpt lat="50.30916" lon="4.79109">
        <ele>240.899</ele>
        <time>2015-12-13T10:45:53Z</time>
      </trkpt>
      <trkpt lat="50.30919" lon="4.79093">
        <ele>240.5</ele>
        <time>2015-12-13T10:46:03Z</time>
      </trkpt>
      <trkpt lat="50.30917" lon="4.7908">
        <ele>240.016</ele>
        <time>2015-12-13T10:46:08Z</time>
      </trkpt>
      <trkpt lat="50.30915" lon="4.79052">
        <ele>239.941</ele>
        <time>2015-12-13T10:46:19Z</time>
      </trkpt>
      <trkpt lat="50.30919" lon="4.79031">
        <ele>240.01</ele>
        <time>2015-12-13T10:46:31Z</time>
      </trkpt>
      <trkpt lat="50.3092" lon="4.79006">
        <ele>240</ele>
        <time>2015-12-13T10:46:41Z</time>
      </trkpt>
      <trkpt lat="50.30919" lon="4.79">
        <ele>239.994</ele>
        <time>2015-12-13T10:46:44Z</time>
      </trkpt>
      <trkpt lat="50.30922" lon="4.78989">
        <ele>239.677</ele>
        <time>2015-12-13T10:46:49Z</time>
      </trkpt>
      <trkpt lat="50.30924" lon="4.78963">
        <ele>239.021</ele>
        <time>2015-12-13T10:46:57Z</time>
      </trkpt>
      <trkpt lat="50.30926" lon="4.78956">
        <ele>238.94</ele>
        <time>2015-12-13T10:46:59Z</time>
      </trkpt>
      <trkpt lat="50.30928" lon="4.78925">
        <ele>239.081</ele>
        <time>2015-12-13T10:47:08Z</time>
      </trkpt>
      <trkpt lat="50.30932" lon="4.78885">
        <ele>239.767</ele>
        <time>2015-12-13T10:47:20Z</time>
      </trkpt>
      <trkpt lat="50.30932" lon="4.78882">
        <ele>239.805</ele>
        <time>2015-12-13T10:47:21Z</time>
      </trkpt>
      <trkpt lat="50.30932" lon="4.78869">
        <ele>240.059</ele>
        <time>2015-12-13T10:47:25Z</time>
      </trkpt>
      <trkpt lat="50.30931" lon="4.78853">
        <ele>240.156</ele>
        <time>2015-12-13T10:47:31Z</time>
      </trkpt>
      <trkpt lat="50.30933" lon="4.78841">
        <ele>240.716</ele>
        <time>2015-12-13T10:47:36Z</time>
      </trkpt>
      <trkpt lat="50.30931" lon="4.78824">
        <ele>240.58</ele>
        <time>2015-12-13T10:47:41Z</time>
      </trkpt>
      <trkpt lat="50.30929" lon="4.78782">
        <ele>240.274</ele>
        <time>2015-12-13T10:47:52Z</time>
      </trkpt>
      <trkpt lat="50.30927" lon="4.78768">
        <ele>240.309</ele>
        <time>2015-12-13T10:48:01Z</time>
      </trkpt>
      <trkpt lat="50.30931" lon="4.78753">
        <ele>241.53</ele>
        <time>2015-12-13T10:48:10Z</time>
      </trkpt>
      <trkpt lat="50.30934" lon="4.78744">
        <ele>242.269</ele>
        <time>2015-12-13T10:48:16Z</time>
      </trkpt>
      <trkpt lat="50.30935" lon="4.78739">
        <ele>242.578</ele>
        <time>2015-12-13T10:48:19Z</time>
      </trkpt>
      <trkpt lat="50.30937" lon="4.78734">
        <ele>243.167</ele>
        <time>2015-12-13T10:48:23Z</time>
      </trkpt>
      <trkpt lat="50.30943" lon="4.78718">
        <ele>244.59</ele>
        <time>2015-12-13T10:48:33Z</time>
      </trkpt>
      <trkpt lat="50.3095" lon="4.78696">
        <ele>245.863</ele>
        <time>2015-12-13T10:48:47Z</time>
      </trkpt>
      <trkpt lat="50.30956" lon="4.78681">
        <ele>246.693</ele>
        <time>2015-12-13T10:48:57Z</time>
      </trkpt>
      <trkpt lat="50.30959" lon="4.78665">
        <ele>247.079</ele>
        <time>2015-12-13T10:49:08Z</time>
      </trkpt>
      <trkpt lat="50.3096" lon="4.78664">
        <ele>247.172</ele>
        <time>2015-12-13T10:49:09Z</time>
      </trkpt>
      <trkpt lat="50.30963" lon="4.78658">
        <ele>247.566</ele>
        <time>2015-12-13T10:49:14Z</time>
      </trkpt>
      <trkpt lat="50.30966" lon="4.78648">
        <ele>247.704</ele>
        <time>2015-12-13T10:49:32Z</time>
      </trkpt>
      <trkpt lat="50.30967" lon="4.78646">
        <ele>247.739</ele>
        <time>2015-12-13T10:50:48Z</time>
      </trkpt>
      <trkpt lat="50.30968" lon="4.78632">
        <ele>247.689</ele>
        <time>2015-12-13T10:50:56Z</time>
      </trkpt>
      <trkpt lat="50.30971" lon="4.78621">
        <ele>247.883</ele>
        <time>2015-12-13T10:51:01Z</time>
      </trkpt>
      <trkpt lat="50.30974" lon="4.78594">
        <ele>247.594</ele>
        <time>2015-12-13T10:51:10Z</time>
      </trkpt>
      <trkpt lat="50.30977" lon="4.78584">
        <ele>247.508</ele>
        <time>2015-12-13T10:51:14Z</time>
      </trkpt>
      <trkpt lat="50.30983" lon="4.78539">
        <ele>247.158</ele>
        <time>2015-12-13T10:51:27Z</time>
      </trkpt>
      <trkpt lat="50.30995" lon="4.78482">
        <ele>248.126</ele>
        <time>2015-12-13T10:51:40Z</time>
      </trkpt>
      <trkpt lat="50.30998" lon="4.78462">
        <ele>248.816</ele>
        <time>2015-12-13T10:51:44Z</time>
      </trkpt>
      <trkpt lat="50.31007" lon="4.78429">
        <ele>249.801</ele>
        <time>2015-12-13T10:51:52Z</time>
      </trkpt>
      <trkpt lat="50.31019" lon="4.78381">
        <ele>251.295</ele>
        <time>2015-12-13T10:52:03Z</time>
      </trkpt>
      <trkpt lat="50.3103" lon="4.78342">
        <ele>251.913</ele>
        <time>2015-12-13T10:52:12Z</time>
      </trkpt>
      <trkpt lat="50.31035" lon="4.78328">
        <ele>251.614</ele>
        <time>2015-12-13T10:52:16Z</time>
      </trkpt>
      <trkpt lat="50.31049" lon="4.78286">
        <ele>251</ele>
        <time>2015-12-13T10:52:27Z</time>
      </trkpt>
      <trkpt lat="50.31053" lon="4.78275">
        <ele>250.914</ele>
        <time>2015-12-13T10:52:30Z</time>
      </trkpt>
      <trkpt lat="50.31056" lon="4.78263">
        <ele>250.453</ele>
        <time>2015-12-13T10:52:33Z</time>
      </trkpt>
      <trkpt lat="50.31079" lon="4.7821">
        <ele>249.567</ele>
        <time>2015-12-13T10:52:45Z</time>
      </trkpt>
      <trkpt lat="50.31085" lon="4.78176">
        <ele>248.955</ele>
        <time>2015-12-13T10:52:50Z</time>
      </trkpt>
      <trkpt lat="50.31086" lon="4.78168">
        <ele>248.913</ele>
        <time>2015-12-13T10:52:51Z</time>
      </trkpt>
      <trkpt lat="50.31086" lon="4.78162">
        <ele>248.74</ele>
        <time>2015-12-13T10:52:52Z</time>
      </trkpt>
      <trkpt lat="50.31086" lon="4.78155">
        <ele>248.523</ele>
        <time>2015-12-13T10:52:53Z</time>
      </trkpt>
      <trkpt lat="50.31087" lon="4.78148">
        <ele>248.276</ele>
        <time>2015-12-13T10:52:54Z</time>
      </trkpt>
      <trkpt lat="50.31088" lon="4.7814">
        <ele>248.027</ele>
        <time>2015-12-13T10:52:55Z</time>
      </trkpt>
      <trkpt lat="50.31089" lon="4.78132">
        <ele>248</ele>
        <time>2015-12-13T10:52:56Z</time>
      </trkpt>
      <trkpt lat="50.31095" lon="4.78076">
        <ele>249.115</ele>
        <time>2015-12-13T10:53:05Z</time>
      </trkpt>
      <trkpt lat="50.31099" lon="4.78044">
        <ele>250.144</ele>
        <time>2015-12-13T10:53:10Z</time>
      </trkpt>
      <trkpt lat="50.31104" lon="4.78018">
        <ele>251.185</ele>
        <time>2015-12-13T10:53:14Z</time>
      </trkpt>
      <trkpt lat="50.31105" lon="4.7801">
        <ele>251.286</ele>
        <time>2015-12-13T10:53:15Z</time>
      </trkpt>
      <trkpt lat="50.31106" lon="4.78003">
        <ele>251.336</ele>
        <time>2015-12-13T10:53:16Z</time>
      </trkpt>
      <trkpt lat="50.31107" lon="4.77997">
        <ele>251.225</ele>
        <time>2015-12-13T10:53:17Z</time>
      </trkpt>
      <trkpt lat="50.31108" lon="4.77991">
        <ele>250.946</ele>
        <time>2015-12-13T10:53:18Z</time>
      </trkpt>
      <trkpt lat="50.3111" lon="4.77986">
        <ele>250.58</ele>
        <time>2015-12-13T10:53:19Z</time>
      </trkpt>
      <trkpt lat="50.31112" lon="4.77981">
        <ele>250.126</ele>
        <time>2015-12-13T10:53:20Z</time>
      </trkpt>
      <trkpt lat="50.31125" lon="4.7793">
        <ele>246.774</ele>
        <time>2015-12-13T10:53:29Z</time>
      </trkpt>
      <trkpt lat="50.31125" lon="4.77913">
        <ele>246.5</ele>
        <time>2015-12-13T10:53:32Z</time>
      </trkpt>
      <trkpt lat="50.31125" lon="4.77909">
        <ele>246.543</ele>
        <time>2015-12-13T10:53:33Z</time>
      </trkpt>
      <trkpt lat="50.31124" lon="4.77907">
        <ele>246.608</ele>
        <time>2015-12-13T10:53:34Z</time>
      </trkpt>
      <trkpt lat="50.31124" lon="4.77906">
        <ele>246.662</ele>
        <time>2015-12-13T10:53:48Z</time>
      </trkpt>
      <trkpt lat="50.31117" lon="4.77893">
        <ele>247.364</ele>
        <time>2015-12-13T10:54:07Z</time>
      </trkpt>
      <trkpt lat="50.31116" lon="4.77889">
        <ele>247.494</ele>
        <time>2015-12-13T10:54:08Z</time>
      </trkpt>
      <trkpt lat="50.31106" lon="4.7787">
        <ele>248.219</ele>
        <time>2015-12-13T10:54:14Z</time>
      </trkpt>
      <trkpt lat="50.31082" lon="4.77822">
        <ele>247.422</ele>
        <time>2015-12-13T10:54:28Z</time>
      </trkpt>
      <trkpt lat="50.31081" lon="4.77819">
        <ele>247.327</ele>
        <time>2015-12-13T10:54:29Z</time>
      </trkpt>
      <trkpt lat="50.31079" lon="4.77816">
        <ele>247.294</ele>
        <time>2015-12-13T10:54:30Z</time>
      </trkpt>
      <trkpt lat="50.31078" lon="4.77813">
        <ele>247.241</ele>
        <time>2015-12-13T10:54:31Z</time>
      </trkpt>
      <trkpt lat="50.31077" lon="4.77811">
        <ele>247.178</ele>
        <time>2015-12-13T10:54:32Z</time>
      </trkpt>
      <trkpt lat="50.31076" lon="4.77809">
        <ele>247.161</ele>
        <time>2015-12-13T10:54:33Z</time>
      </trkpt>
      <trkpt lat="50.31074" lon="4.77807">
        <ele>247.097</ele>
        <time>2015-12-13T10:54:34Z</time>
      </trkpt>
      <trkpt lat="50.31059" lon="4.77777">
        <ele>245.696</ele>
        <time>2015-12-13T10:54:41Z</time>
      </trkpt>
      <trkpt lat="50.31056" lon="4.77772">
        <ele>245.559</ele>
        <time>2015-12-13T10:54:42Z</time>
      </trkpt>
      <trkpt lat="50.31046" lon="4.77752">
        <ele>244.477</ele>
        <time>2015-12-13T10:54:46Z</time>
      </trkpt>
      <trkpt lat="50.31027" lon="4.77718">
        <ele>243.794</ele>
        <time>2015-12-13T10:54:54Z</time>
      </trkpt>
      <trkpt lat="50.31013" lon="4.77693">
        <ele>241.341</ele>
        <time>2015-12-13T10:55:00Z</time>
      </trkpt>
      <trkpt lat="50.3101" lon="4.77691">
        <ele>240.91</ele>
        <time>2015-12-13T10:55:01Z</time>
      </trkpt>
      <trkpt lat="50.31008" lon="4.77688">
        <ele>240.455</ele>
        <time>2015-12-13T10:55:02Z</time>
      </trkpt>
      <trkpt lat="50.31006" lon="4.77686">
        <ele>240.101</ele>
        <time>2015-12-13T10:55:03Z</time>
      </trkpt>
      <trkpt lat="50.31004" lon="4.77685">
        <ele>239.814</ele>
        <time>2015-12-13T10:55:04Z</time>
      </trkpt>
      <trkpt lat="50.31002" lon="4.77683">
        <ele>239.422</ele>
        <time>2015-12-13T10:55:05Z</time>
      </trkpt>
      <trkpt lat="50.31" lon="4.7768">
        <ele>238.996</ele>
        <time>2015-12-13T10:55:06Z</time>
      </trkpt>
      <trkpt lat="50.30983" lon="4.77658">
        <ele>237.197</ele>
        <time>2015-12-13T10:55:12Z</time>
      </trkpt>
      <trkpt lat="50.30979" lon="4.77654">
        <ele>236.899</ele>
        <time>2015-12-13T10:55:13Z</time>
      </trkpt>
      <trkpt lat="50.30976" lon="4.77649">
        <ele>236.56</ele>
        <time>2015-12-13T10:55:14Z</time>
      </trkpt>
      <trkpt lat="50.30962" lon="4.77631">
        <ele>235.621</ele>
        <time>2015-12-13T10:55:18Z</time>
      </trkpt>
      <trkpt lat="50.30958" lon="4.77626">
        <ele>235.492</ele>
        <time>2015-12-13T10:55:19Z</time>
      </trkpt>
      <trkpt lat="50.30955" lon="4.77623">
        <ele>235.38</ele>
        <time>2015-12-13T10:55:20Z</time>
      </trkpt>
      <trkpt lat="50.30913" lon="4.77577">
        <ele>237.092</ele>
        <time>2015-12-13T10:55:33Z</time>
      </trkpt>
      <trkpt lat="50.30884" lon="4.77544">
        <ele>237.333</ele>
        <time>2015-12-13T10:55:42Z</time>
      </trkpt>
      <trkpt lat="50.3088" lon="4.7754">
        <ele>237.232</ele>
        <time>2015-12-13T10:55:43Z</time>
      </trkpt>
      <trkpt lat="50.30876" lon="4.77535">
        <ele>237.106</ele>
        <time>2015-12-13T10:55:44Z</time>
      </trkpt>
      <trkpt lat="50.30873" lon="4.77532">
        <ele>236.966</ele>
        <time>2015-12-13T10:55:45Z</time>
      </trkpt>
      <trkpt lat="50.30866" lon="4.77525">
        <ele>236.682</ele>
        <time>2015-12-13T10:55:47Z</time>
      </trkpt>
      <trkpt lat="50.30862" lon="4.77521">
        <ele>236.606</ele>
        <time>2015-12-13T10:55:48Z</time>
      </trkpt>
      <trkpt lat="50.30851" lon="4.77509">
        <ele>235.738</ele>
        <time>2015-12-13T10:55:51Z</time>
      </trkpt>
      <trkpt lat="50.30847" lon="4.77504">
        <ele>235.535</ele>
        <time>2015-12-13T10:55:52Z</time>
      </trkpt>
      <trkpt lat="50.30843" lon="4.77499">
        <ele>235.374</ele>
        <time>2015-12-13T10:55:53Z</time>
      </trkpt>
      <trkpt lat="50.30822" lon="4.77457">
        <ele>231.754</ele>
        <time>2015-12-13T10:56:02Z</time>
      </trkpt>
      <trkpt lat="50.30818" lon="4.77447">
        <ele>231.165</ele>
        <time>2015-12-13T10:56:04Z</time>
      </trkpt>
      <trkpt lat="50.30817" lon="4.77443">
        <ele>230.95</ele>
        <time>2015-12-13T10:56:05Z</time>
      </trkpt>
      <trkpt lat="50.30815" lon="4.77439">
        <ele>230.562</ele>
        <time>2015-12-13T10:56:06Z</time>
      </trkpt>
      <trkpt lat="50.30807" lon="4.7742">
        <ele>228.466</ele>
        <time>2015-12-13T10:56:11Z</time>
      </trkpt>
      <trkpt lat="50.30796" lon="4.77404">
        <ele>227.129</ele>
        <time>2015-12-13T10:56:15Z</time>
      </trkpt>
      <trkpt lat="50.30781" lon="4.77389">
        <ele>226.217</ele>
        <time>2015-12-13T10:56:19Z</time>
      </trkpt>
      <trkpt lat="50.30777" lon="4.77384">
        <ele>225.355</ele>
        <time>2015-12-13T10:56:20Z</time>
      </trkpt>
      <trkpt lat="50.30773" lon="4.77379">
        <ele>224.592</ele>
        <time>2015-12-13T10:56:21Z</time>
      </trkpt>
      <trkpt lat="50.30768" lon="4.77374">
        <ele>223.756</ele>
        <time>2015-12-13T10:56:22Z</time>
      </trkpt>
      <trkpt lat="50.30765" lon="4.7737">
        <ele>222.964</ele>
        <time>2015-12-13T10:56:23Z</time>
      </trkpt>
      <trkpt lat="50.30762" lon="4.77364">
        <ele>222.216</ele>
        <time>2015-12-13T10:56:24Z</time>
      </trkpt>
      <trkpt lat="50.3076" lon="4.7736">
        <ele>221.662</ele>
        <time>2015-12-13T10:56:25Z</time>
      </trkpt>
      <trkpt lat="50.30758" lon="4.77356">
        <ele>221.215</ele>
        <time>2015-12-13T10:56:26Z</time>
      </trkpt>
      <trkpt lat="50.30756" lon="4.77353">
        <ele>220.812</ele>
        <time>2015-12-13T10:56:27Z</time>
      </trkpt>
      <trkpt lat="50.30754" lon="4.77349">
        <ele>220.409</ele>
        <time>2015-12-13T10:56:28Z</time>
      </trkpt>
      <trkpt lat="50.30752" lon="4.77345">
        <ele>219.984</ele>
        <time>2015-12-13T10:56:29Z</time>
      </trkpt>
      <trkpt lat="50.3075" lon="4.77341">
        <ele>219.595</ele>
        <time>2015-12-13T10:56:30Z</time>
      </trkpt>
      <trkpt lat="50.30749" lon="4.77338">
        <ele>219.316</ele>
        <time>2015-12-13T10:56:31Z</time>
      </trkpt>
      <trkpt lat="50.30748" lon="4.77335">
        <ele>219.041</ele>
        <time>2015-12-13T10:56:32Z</time>
      </trkpt>
      <trkpt lat="50.30747" lon="4.77331">
        <ele>218.98</ele>
        <time>2015-12-13T10:56:33Z</time>
      </trkpt>
      <trkpt lat="50.30746" lon="4.77327">
        <ele>219.077</ele>
        <time>2015-12-13T10:56:34Z</time>
      </trkpt>
      <trkpt lat="50.30745" lon="4.77323">
        <ele>219.185</ele>
        <time>2015-12-13T10:56:35Z</time>
      </trkpt>
      <trkpt lat="50.30744" lon="4.77319">
        <ele>219.307</ele>
        <time>2015-12-13T10:56:36Z</time>
      </trkpt>
      <trkpt lat="50.30737" lon="4.77276">
        <ele>219.461</ele>
        <time>2015-12-13T10:56:44Z</time>
      </trkpt>
      <trkpt lat="50.3073" lon="4.77235">
        <ele>217.729</ele>
        <time>2015-12-13T10:56:51Z</time>
      </trkpt>
      <trkpt lat="50.30729" lon="4.77228">
        <ele>217.43</ele>
        <time>2015-12-13T10:56:52Z</time>
      </trkpt>
      <trkpt lat="50.30721" lon="4.77197">
        <ele>216.011</ele>
        <time>2015-12-13T10:56:57Z</time>
      </trkpt>
      <trkpt lat="50.3072" lon="4.7719">
        <ele>215.658</ele>
        <time>2015-12-13T10:56:58Z</time>
      </trkpt>
      <trkpt lat="50.30718" lon="4.77184">
        <ele>215.32</ele>
        <time>2015-12-13T10:56:59Z</time>
      </trkpt>
      <trkpt lat="50.30716" lon="4.77178">
        <ele>215.003</ele>
        <time>2015-12-13T10:57:00Z</time>
      </trkpt>
      <trkpt lat="50.30715" lon="4.77173">
        <ele>214.73</ele>
        <time>2015-12-13T10:57:01Z</time>
      </trkpt>
      <trkpt lat="50.30714" lon="4.77166">
        <ele>214.421</ele>
        <time>2015-12-13T10:57:02Z</time>
      </trkpt>
      <trkpt lat="50.30713" lon="4.77161">
        <ele>213.958</ele>
        <time>2015-12-13T10:57:03Z</time>
      </trkpt>
      <trkpt lat="50.30711" lon="4.77156">
        <ele>213.591</ele>
        <time>2015-12-13T10:57:04Z</time>
      </trkpt>
      <trkpt lat="50.30711" lon="4.7715">
        <ele>213.248</ele>
        <time>2015-12-13T10:57:05Z</time>
      </trkpt>
      <trkpt lat="50.30708" lon="4.77141">
        <ele>212.599</ele>
        <time>2015-12-13T10:57:07Z</time>
      </trkpt>
      <trkpt lat="50.30707" lon="4.77137">
        <ele>212.327</ele>
        <time>2015-12-13T10:57:08Z</time>
      </trkpt>
      <trkpt lat="50.30706" lon="4.77132">
        <ele>212.036</ele>
        <time>2015-12-13T10:57:09Z</time>
      </trkpt>
      <trkpt lat="50.30703" lon="4.77122">
        <ele>211.514</ele>
        <time>2015-12-13T10:57:11Z</time>
      </trkpt>
      <trkpt lat="50.30701" lon="4.77104">
        <ele>210.186</ele>
        <time>2015-12-13T10:57:14Z</time>
      </trkpt>
      <trkpt lat="50.30699" lon="4.77099">
        <ele>209.58</ele>
        <time>2015-12-13T10:57:15Z</time>
      </trkpt>
      <trkpt lat="50.30699" lon="4.77092">
        <ele>208.89</ele>
        <time>2015-12-13T10:57:16Z</time>
      </trkpt>
      <trkpt lat="50.30698" lon="4.77086">
        <ele>208.174</ele>
        <time>2015-12-13T10:57:17Z</time>
      </trkpt>
      <trkpt lat="50.30697" lon="4.77079">
        <ele>207.458</ele>
        <time>2015-12-13T10:57:18Z</time>
      </trkpt>
      <trkpt lat="50.30696" lon="4.77072">
        <ele>206.767</ele>
        <time>2015-12-13T10:57:19Z</time>
      </trkpt>
      <trkpt lat="50.30695" lon="4.77065">
        <ele>206.065</ele>
        <time>2015-12-13T10:57:20Z</time>
      </trkpt>
      <trkpt lat="50.30694" lon="4.77059">
        <ele>205.327</ele>
        <time>2015-12-13T10:57:21Z</time>
      </trkpt>
      <trkpt lat="50.30688" lon="4.77019">
        <ele>201.474</ele>
        <time>2015-12-13T10:57:28Z</time>
      </trkpt>
      <trkpt lat="50.30688" lon="4.77014">
        <ele>201.14</ele>
        <time>2015-12-13T10:57:29Z</time>
      </trkpt>
      <trkpt lat="50.30688" lon="4.77009">
        <ele>200.804</ele>
        <time>2015-12-13T10:57:30Z</time>
      </trkpt>
      <trkpt lat="50.30687" lon="4.77004">
        <ele>200.508</ele>
        <time>2015-12-13T10:57:31Z</time>
      </trkpt>
      <trkpt lat="50.30687" lon="4.76999">
        <ele>200.178</ele>
        <time>2015-12-13T10:57:32Z</time>
      </trkpt>
      <trkpt lat="50.30686" lon="4.76994">
        <ele>199.861</ele>
        <time>2015-12-13T10:57:33Z</time>
      </trkpt>
      <trkpt lat="50.30686" lon="4.7699">
        <ele>199.57</ele>
        <time>2015-12-13T10:57:34Z</time>
      </trkpt>
      <trkpt lat="50.30685" lon="4.76985">
        <ele>199.267</ele>
        <time>2015-12-13T10:57:35Z</time>
      </trkpt>
      <trkpt lat="50.30685" lon="4.76982">
        <ele>199.037</ele>
        <time>2015-12-13T10:57:36Z</time>
      </trkpt>
      <trkpt lat="50.30684" lon="4.76978">
        <ele>198.817</ele>
        <time>2015-12-13T10:57:37Z</time>
      </trkpt>
      <trkpt lat="50.30683" lon="4.76973">
        <ele>198.443</ele>
        <time>2015-12-13T10:57:39Z</time>
      </trkpt>
      <trkpt lat="50.30684" lon="4.76968">
        <ele>198.076</ele>
        <time>2015-12-13T10:57:40Z</time>
      </trkpt>
      <trkpt lat="50.30684" lon="4.76963">
        <ele>197.723</ele>
        <time>2015-12-13T10:57:41Z</time>
      </trkpt>
      <trkpt lat="50.30685" lon="4.76958">
        <ele>197.356</ele>
        <time>2015-12-13T10:57:42Z</time>
      </trkpt>
      <trkpt lat="50.30685" lon="4.76954">
        <ele>197.014</ele>
        <time>2015-12-13T10:57:43Z</time>
      </trkpt>
      <trkpt lat="50.30685" lon="4.7695">
        <ele>196.736</ele>
        <time>2015-12-13T10:57:44Z</time>
      </trkpt>
      <trkpt lat="50.30685" lon="4.76947">
        <ele>196.492</ele>
        <time>2015-12-13T10:57:45Z</time>
      </trkpt>
      <trkpt lat="50.30685" lon="4.76943">
        <ele>196.284</ele>
        <time>2015-12-13T10:57:46Z</time>
      </trkpt>
      <trkpt lat="50.30687" lon="4.76907">
        <ele>194.993</ele>
        <time>2015-12-13T10:57:52Z</time>
      </trkpt>
      <trkpt lat="50.30689" lon="4.76882">
        <ele>193.796</ele>
        <time>2015-12-13T10:57:56Z</time>
      </trkpt>
      <trkpt lat="50.30689" lon="4.76877">
        <ele>193.381</ele>
        <time>2015-12-13T10:57:57Z</time>
      </trkpt>
      <trkpt lat="50.3069" lon="4.76874">
        <ele>193.04</ele>
        <time>2015-12-13T10:57:58Z</time>
      </trkpt>
      <trkpt lat="50.30691" lon="4.7687">
        <ele>192.746</ele>
        <time>2015-12-13T10:57:59Z</time>
      </trkpt>
      <trkpt lat="50.30692" lon="4.76868">
        <ele>192.563</ele>
        <time>2015-12-13T10:58:00Z</time>
      </trkpt>
      <trkpt lat="50.30691" lon="4.76843">
        <ele>190.499</ele>
        <time>2015-12-13T10:58:04Z</time>
      </trkpt>
      <trkpt lat="50.30689" lon="4.76835">
        <ele>189.789</ele>
        <time>2015-12-13T10:58:05Z</time>
      </trkpt>
      <trkpt lat="50.30689" lon="4.76829">
        <ele>189.067</ele>
        <time>2015-12-13T10:58:06Z</time>
      </trkpt>
      <trkpt lat="50.30689" lon="4.76822">
        <ele>188.244</ele>
        <time>2015-12-13T10:58:07Z</time>
      </trkpt>
      <trkpt lat="50.30688" lon="4.76814">
        <ele>187.138</ele>
        <time>2015-12-13T10:58:08Z</time>
      </trkpt>
      <trkpt lat="50.30686" lon="4.76803">
        <ele>185.474</ele>
        <time>2015-12-13T10:58:10Z</time>
      </trkpt>
      <trkpt lat="50.30685" lon="4.76797">
        <ele>184.694</ele>
        <time>2015-12-13T10:58:11Z</time>
      </trkpt>
      <trkpt lat="50.30685" lon="4.76791">
        <ele>183.926</ele>
        <time>2015-12-13T10:58:12Z</time>
      </trkpt>
      <trkpt lat="50.30685" lon="4.76786">
        <ele>183.161</ele>
        <time>2015-12-13T10:58:13Z</time>
      </trkpt>
      <trkpt lat="50.30684" lon="4.76781">
        <ele>182.601</ele>
        <time>2015-12-13T10:58:14Z</time>
      </trkpt>
      <trkpt lat="50.30684" lon="4.76778">
        <ele>182.231</ele>
        <time>2015-12-13T10:58:15Z</time>
      </trkpt>
      <trkpt lat="50.30684" lon="4.76774">
        <ele>181.77</ele>
        <time>2015-12-13T10:58:27Z</time>
      </trkpt>
      <trkpt lat="50.30684" lon="4.76772">
        <ele>181.585</ele>
        <time>2015-12-13T10:58:34Z</time>
      </trkpt>
      <trkpt lat="50.30683" lon="4.7677">
        <ele>181.211</ele>
        <time>2015-12-13T10:58:35Z</time>
      </trkpt>
      <trkpt lat="50.30681" lon="4.7677">
        <ele>180.943</ele>
        <time>2015-12-13T10:58:36Z</time>
      </trkpt>
      <trkpt lat="50.30674" lon="4.76766">
        <ele>179.343</ele>
        <time>2015-12-13T10:58:40Z</time>
      </trkpt>
      <trkpt lat="50.30649" lon="4.76796">
        <ele>178.994</ele>
        <time>2015-12-13T10:58:50Z</time>
      </trkpt>
      <trkpt lat="50.30622" lon="4.76835">
        <ele>181.487</ele>
        <time>2015-12-13T10:59:02Z</time>
      </trkpt>
      <trkpt lat="50.30607" lon="4.76851">
        <ele>181.733</ele>
        <time>2015-12-13T10:59:12Z</time>
      </trkpt>
      <trkpt lat="50.30606" lon="4.76855">
        <ele>182.011</ele>
        <time>2015-12-13T10:59:58Z</time>
      </trkpt>
      <trkpt lat="50.30579" lon="4.76889">
        <ele>180.27</ele>
        <time>2015-12-13T11:00:10Z</time>
      </trkpt>
      <trkpt lat="50.30575" lon="4.76891">
        <ele>179.808</ele>
        <time>2015-12-13T11:00:11Z</time>
      </trkpt>
      <trkpt lat="50.3057" lon="4.76891">
        <ele>178.935</ele>
        <time>2015-12-13T11:00:12Z</time>
      </trkpt>
      <trkpt lat="50.30566" lon="4.76888">
        <ele>177.881</ele>
        <time>2015-12-13T11:00:13Z</time>
      </trkpt>
      <trkpt lat="50.30563" lon="4.76882">
        <ele>177.279</ele>
        <time>2015-12-13T11:00:14Z</time>
      </trkpt>
      <trkpt lat="50.30561" lon="4.76875">
        <ele>177.086</ele>
        <time>2015-12-13T11:00:15Z</time>
      </trkpt>
      <trkpt lat="50.3056" lon="4.76868">
        <ele>177.058</ele>
        <time>2015-12-13T11:00:16Z</time>
      </trkpt>
      <trkpt lat="50.30557" lon="4.76845">
        <ele>177.534</ele>
        <time>2015-12-13T11:00:19Z</time>
      </trkpt>
      <trkpt lat="50.30557" lon="4.76837">
        <ele>177.785</ele>
        <time>2015-12-13T11:00:20Z</time>
      </trkpt>
      <trkpt lat="50.30557" lon="4.76829">
        <ele>178.024</ele>
        <time>2015-12-13T11:00:21Z</time>
      </trkpt>
      <trkpt lat="50.30557" lon="4.76822">
        <ele>178.267</ele>
        <time>2015-12-13T11:00:22Z</time>
      </trkpt>
      <trkpt lat="50.30545" lon="4.76789">
        <ele>181.832</ele>
      </trkpt>
      <trkpt lat="50.30572" lon="4.76691">
        <ele>185.441</ele>
      </trkpt>
      <trkpt lat="50.30583" lon="4.76559">
        <ele>202.428</ele>
      </trkpt>
      <trkpt lat="50.30529" lon="4.76278">
        <ele>202.07</ele>
      </trkpt>
      <trkpt lat="50.30448" lon="4.76101">
        <ele>185.473</ele>
      </trkpt>
      <trkpt lat="50.30411" lon="4.76094">
        <ele>183.844</ele>
      </trkpt>
      <trkpt lat="50.30369" lon="4.76074">
        <ele>183.542</ele>
      </trkpt>
      <trkpt lat="50.30332" lon="4.75984">
        <ele>180.839</ele>
      </trkpt>
      <trkpt lat="50.3033" lon="4.76022">
        <ele>179.623</ele>
      </trkpt>
      <trkpt lat="50.3033" lon="4.76024">
        <ele>179.623</ele>
      </trkpt>
      <trkpt lat="50.30242" lon="4.76085">
        <ele>175.365</ele>
      </trkpt>
      <trkpt lat="50.30197" lon="4.76118">
        <ele>179.505</ele>
      </trkpt>
      <trkpt lat="50.30186" lon="4.76169">
        <ele>179.257</ele>
      </trkpt>
      <trkpt lat="50.30204" lon="4.76267">
        <ele>193.879</ele>
      </trkpt>
      <trkpt lat="50.30202" lon="4.76335">
        <ele>203.726</ele>
      </trkpt>
      <trkpt lat="50.30175" lon="4.76373">
        <ele>205.43</ele>
      </trkpt>
      <trkpt lat="50.30107" lon="4.76392">
        <ele>207.832</ele>
      </trkpt>
      <trkpt lat="50.30077" lon="4.76399">
        <ele>212.615</ele>
      </trkpt>
      <trkpt lat="50.30057" lon="4.76447">
        <ele>217.051</ele>
      </trkpt>
      <trkpt lat="50.3005" lon="4.7659">
        <ele>219.036</ele>
      </trkpt>
      <trkpt lat="50.2999" lon="4.7657">
        <ele>222.53</ele>
      </trkpt>
      <trkpt lat="50.29895" lon="4.76465">
        <ele>228.842</ele>
      </trkpt>
      <trkpt lat="50.29809" lon="4.76327">
        <ele>236.443</ele>
      </trkpt>
      <trkpt lat="50.29682" lon="4.76182">
        <ele>234.7</ele>
      </trkpt>
      <trkpt lat="50.29434" lon="4.76205">
        <ele>236.8</ele>
      </trkpt>
      <trkpt lat="50.29424" lon="4.769">
        <ele>204</ele>
      </trkpt>
      <trkpt lat="50.29615" lon="4.7761">
        <ele>169.7</ele>
      </trkpt>
      <trkpt lat="50.29544" lon="4.77834">
        <ele>164.6</ele>
      </trkpt>
    </trkseg>
  </trk>
</gpx>